<?xml version='1.0' encoding='UTF-8'?><gpx version="1.1" creator="JPX - https://github.com/jenetics/jpx" xmlns="http://www.topografix.com/GPX/1/1"><trk><trkseg><trkpt lat="40.7055778" lon="17.3297398"><ele>400.0</ele><time>2026-04-11T13:45:32.621Z</time></trkpt><trkpt lat="40.7057944" lon="17.3298053"><ele>400.0</ele><time>2026-04-11T13:45:34.259Z</time></trkpt><trkpt lat="40.7059029" lon="17.3297967"><ele>400.0</ele><time>2026-04-11T13:45:35.259Z</time></trkpt><trkpt lat="40.7059969" lon="17.3297721"><ele>400.0</ele><time>2026-04-11T13:45:36.279Z</time></trkpt><trkpt lat="40.7061041" lon="17.3297658"><ele>398.8</ele><time>2026-04-11T13:45:37.249Z</time></trkpt><trkpt lat="40.7062094" lon="17.3297474"><ele>397.6</ele><time>2026-04-11T13:45:38.249Z</time></trkpt><trkpt lat="40.706326" lon="17.3297611"><ele>396.4</ele><time>2026-04-11T13:45:39.247Z</time></trkpt><trkpt lat="40.7064361" lon="17.3297472"><ele>395.2</ele><time>2026-04-11T13:45:40.247Z</time></trkpt><trkpt lat="40.7065356" lon="17.3297236"><ele>394.0</ele><time>2026-04-11T13:45:41.249Z</time></trkpt><trkpt lat="40.7066458" lon="17.3297134"><ele>393.0</ele><time>2026-04-11T13:45:42.252Z</time></trkpt><trkpt lat="40.7067608" lon="17.3296789"><ele>392.0</ele><time>2026-04-11T13:45:43.249Z</time></trkpt><trkpt lat="40.7068793" lon="17.3296706"><ele>391.0</ele><time>2026-04-11T13:45:44.252Z</time></trkpt><trkpt lat="40.7070015" lon="17.3296463"><ele>390.0</ele><time>2026-04-11T13:45:45.247Z</time></trkpt><trkpt lat="40.7071249" lon="17.3296087"><ele>389.25</ele><time>2026-04-11T13:45:46.251Z</time></trkpt><trkpt lat="40.7072414" lon="17.3295613"><ele>388.5</ele><time>2026-04-11T13:45:47.247Z</time></trkpt><trkpt lat="40.7073663" lon="17.3295147"><ele>387.75</ele><time>2026-04-11T13:45:48.278Z</time></trkpt><trkpt lat="40.7074944" lon="17.3294563"><ele>387.0</ele><time>2026-04-11T13:45:49.246Z</time></trkpt><trkpt lat="40.7076286" lon="17.3294016"><ele>386.25</ele><time>2026-04-11T13:45:50.25Z</time></trkpt><trkpt lat="40.7077706" lon="17.3293565"><ele>385.5</ele><time>2026-04-11T13:45:51.247Z</time></trkpt><trkpt lat="40.7079052" lon="17.3293109"><ele>384.75</ele><time>2026-04-11T13:45:52.25Z</time></trkpt><trkpt lat="40.7080441" lon="17.3292691"><ele>384.0</ele><time>2026-04-11T13:45:53.246Z</time></trkpt><trkpt lat="40.7081868" lon="17.3292189"><ele>384.0</ele><time>2026-04-11T13:45:54.247Z</time></trkpt><trkpt lat="40.7083282" lon="17.3291602"><ele>384.0</ele><time>2026-04-11T13:45:55.249Z</time></trkpt><trkpt lat="40.7084614" lon="17.3290974"><ele>384.0</ele><time>2026-04-11T13:45:56.288Z</time></trkpt><trkpt lat="40.7085851" lon="17.3290241"><ele>384.0</ele><time>2026-04-11T13:45:57.249Z</time></trkpt><trkpt lat="40.7087022" lon="17.3289514"><ele>385.0</ele><time>2026-04-11T13:45:58.251Z</time></trkpt><trkpt lat="40.7088211" lon="17.3288763"><ele>386.0</ele><time>2026-04-11T13:45:59.245Z</time></trkpt><trkpt lat="40.7089311" lon="17.3287972"><ele>387.0</ele><time>2026-04-11T13:46:00.277Z</time></trkpt><trkpt lat="40.7090459" lon="17.3287224"><ele>388.0</ele><time>2026-04-11T13:46:01.243Z</time></trkpt><trkpt lat="40.7091661" lon="17.3286665"><ele>388.0</ele><time>2026-04-11T13:46:02.251Z</time></trkpt><trkpt lat="40.709301" lon="17.3286315"><ele>388.0</ele><time>2026-04-11T13:46:03.255Z</time></trkpt><trkpt lat="40.709415" lon="17.3285905"><ele>388.0</ele><time>2026-04-11T13:46:04.253Z</time></trkpt><trkpt lat="40.7095321" lon="17.3285632"><ele>388.0</ele><time>2026-04-11T13:46:05.285Z</time></trkpt><trkpt lat="40.7096317" lon="17.3285308"><ele>387.2</ele><time>2026-04-11T13:46:06.285Z</time></trkpt><trkpt lat="40.7097391" lon="17.3284927"><ele>386.4</ele><time>2026-04-11T13:46:07.282Z</time></trkpt><trkpt lat="40.7098436" lon="17.3284552"><ele>385.59999999999997</ele><time>2026-04-11T13:46:08.241Z</time></trkpt><trkpt lat="40.7099633" lon="17.3284411"><ele>384.79999999999995</ele><time>2026-04-11T13:46:09.276Z</time></trkpt><trkpt lat="40.7100629" lon="17.3284059"><ele>384.0</ele><time>2026-04-11T13:46:10.263Z</time></trkpt><trkpt lat="40.7101688" lon="17.328373"><ele>384.25</ele><time>2026-04-11T13:46:11.262Z</time></trkpt><trkpt lat="40.7102764" lon="17.3283362"><ele>384.5</ele><time>2026-04-11T13:46:12.245Z</time></trkpt><trkpt lat="40.7104061" lon="17.3282215"><ele>384.75</ele><time>2026-04-11T13:46:13.261Z</time></trkpt><trkpt lat="40.7105301" lon="17.3281216"><ele>385.0</ele><time>2026-04-11T13:46:14.26Z</time></trkpt><trkpt lat="40.7106633" lon="17.3280239"><ele>385.0</ele><time>2026-04-11T13:46:15.261Z</time></trkpt><trkpt lat="40.7107951" lon="17.3279291"><ele>385.0</ele><time>2026-04-11T13:46:16.258Z</time></trkpt><trkpt lat="40.7109446" lon="17.327869"><ele>385.0</ele><time>2026-04-11T13:46:17.256Z</time></trkpt><trkpt lat="40.7110766" lon="17.3278088"><ele>385.0</ele><time>2026-04-11T13:46:18.253Z</time></trkpt><trkpt lat="40.7111995" lon="17.3277582"><ele>384.0</ele><time>2026-04-11T13:46:19.252Z</time></trkpt><trkpt lat="40.7113131" lon="17.3277186"><ele>383.0</ele><time>2026-04-11T13:46:20.255Z</time></trkpt><trkpt lat="40.7114263" lon="17.3276849"><ele>382.0</ele><time>2026-04-11T13:46:21.26Z</time></trkpt><trkpt lat="40.7115363" lon="17.3276545"><ele>381.0</ele><time>2026-04-11T13:46:22.29Z</time></trkpt><trkpt lat="40.7116501" lon="17.3276542"><ele>381.0</ele><time>2026-04-11T13:46:23.316Z</time></trkpt><trkpt lat="40.7117643" lon="17.3276658"><ele>381.0</ele><time>2026-04-11T13:46:24.288Z</time></trkpt><trkpt lat="40.7118719" lon="17.3276646"><ele>381.0</ele><time>2026-04-11T13:46:25.287Z</time></trkpt><trkpt lat="40.7119817" lon="17.3276627"><ele>381.0</ele><time>2026-04-11T13:46:26.278Z</time></trkpt><trkpt lat="40.7120824" lon="17.3276591"><ele>381.0</ele><time>2026-04-11T13:46:27.24Z</time></trkpt><trkpt lat="40.7121795" lon="17.3276561"><ele>380.6666666666667</ele><time>2026-04-11T13:46:28.246Z</time></trkpt><trkpt lat="40.7122712" lon="17.327656"><ele>380.3333333333333</ele><time>2026-04-11T13:46:29.251Z</time></trkpt><trkpt lat="40.7123432" lon="17.3276828"><ele>380.0</ele><time>2026-04-11T13:46:30.247Z</time></trkpt><trkpt lat="40.7124159" lon="17.3277273"><ele>379.66666666666663</ele><time>2026-04-11T13:46:31.284Z</time></trkpt><trkpt lat="40.712491" lon="17.32776"><ele>379.3333333333333</ele><time>2026-04-11T13:46:32.277Z</time></trkpt><trkpt lat="40.7125896" lon="17.3278372"><ele>379.0</ele><time>2026-04-11T13:46:33.255Z</time></trkpt><trkpt lat="40.7126766" lon="17.3278671"><ele>378.2</ele><time>2026-04-11T13:46:34.252Z</time></trkpt><trkpt lat="40.7127744" lon="17.32788"><ele>377.4</ele><time>2026-04-11T13:46:35.278Z</time></trkpt><trkpt lat="40.7128677" lon="17.3279298"><ele>376.6</ele><time>2026-04-11T13:46:36.25Z</time></trkpt><trkpt lat="40.7129859" lon="17.3279881"><ele>375.8</ele><time>2026-04-11T13:46:37.284Z</time></trkpt><trkpt lat="40.7131029" lon="17.3280337"><ele>375.0</ele><time>2026-04-11T13:46:38.283Z</time></trkpt><trkpt lat="40.7132254" lon="17.3280982"><ele>373.5</ele><time>2026-04-11T13:46:39.252Z</time></trkpt><trkpt lat="40.7133483" lon="17.3281439"><ele>372.0</ele><time>2026-04-11T13:46:40.257Z</time></trkpt><trkpt lat="40.7134706" lon="17.3282052"><ele>370.5</ele><time>2026-04-11T13:46:41.286Z</time></trkpt><trkpt lat="40.7135919" lon="17.3282482"><ele>369.0</ele><time>2026-04-11T13:46:42.258Z</time></trkpt><trkpt lat="40.7137033" lon="17.3282917"><ele>368.4</ele><time>2026-04-11T13:46:43.26Z</time></trkpt><trkpt lat="40.7138111" lon="17.3283408"><ele>367.79999999999995</ele><time>2026-04-11T13:46:44.246Z</time></trkpt><trkpt lat="40.7139022" lon="17.3283985"><ele>367.20000000000005</ele><time>2026-04-11T13:46:45.248Z</time></trkpt><trkpt lat="40.7139886" lon="17.3284446"><ele>366.6</ele><time>2026-04-11T13:46:46.286Z</time></trkpt><trkpt lat="40.7140717" lon="17.328496"><ele>366.0</ele><time>2026-04-11T13:46:47.255Z</time></trkpt><trkpt lat="40.7141511" lon="17.328543"><ele>366.0</ele><time>2026-04-11T13:46:48.262Z</time></trkpt><trkpt lat="40.7142677" lon="17.3286305"><ele>366.0</ele><time>2026-04-11T13:46:50.245Z</time></trkpt><trkpt lat="40.71432" lon="17.3286957"><ele>366.0</ele><time>2026-04-11T13:46:51.254Z</time></trkpt><trkpt lat="40.7143806" lon="17.3287301"><ele>366.0</ele><time>2026-04-11T13:46:52.267Z</time></trkpt><trkpt lat="40.7144615" lon="17.3287373"><ele>366.0</ele><time>2026-04-11T13:46:53.257Z</time></trkpt><trkpt lat="40.7145521" lon="17.328743"><ele>366.0</ele><time>2026-04-11T13:46:54.33Z</time></trkpt><trkpt lat="40.7146501" lon="17.3287853"><ele>365.20000000000005</ele><time>2026-04-11T13:46:55.255Z</time></trkpt><trkpt lat="40.7147388" lon="17.3288087"><ele>364.40000000000003</ele><time>2026-04-11T13:46:56.277Z</time></trkpt><trkpt lat="40.7148323" lon="17.3288398"><ele>363.6</ele><time>2026-04-11T13:46:57.253Z</time></trkpt><trkpt lat="40.7149347" lon="17.328876"><ele>362.8</ele><time>2026-04-11T13:46:58.252Z</time></trkpt><trkpt lat="40.715036" lon="17.3288992"><ele>362.0</ele><time>2026-04-11T13:46:59.245Z</time></trkpt><trkpt lat="40.7151397" lon="17.3289275"><ele>361.0</ele><time>2026-04-11T13:47:00.239Z</time></trkpt><trkpt lat="40.7152701" lon="17.3289335"><ele>360.0</ele><time>2026-04-11T13:47:01.277Z</time></trkpt><trkpt lat="40.7153878" lon="17.3289507"><ele>359.0</ele><time>2026-04-11T13:47:02.255Z</time></trkpt><trkpt lat="40.7155029" lon="17.3289558"><ele>358.0</ele><time>2026-04-11T13:47:03.286Z</time></trkpt><trkpt lat="40.7156215" lon="17.3289596"><ele>358.0</ele><time>2026-04-11T13:47:04.242Z</time></trkpt><trkpt lat="40.7157399" lon="17.3289482"><ele>358.0</ele><time>2026-04-11T13:47:05.259Z</time></trkpt><trkpt lat="40.7158493" lon="17.3289411"><ele>358.0</ele><time>2026-04-11T13:47:06.25Z</time></trkpt><trkpt lat="40.715974" lon="17.3289469"><ele>358.0</ele><time>2026-04-11T13:47:07.244Z</time></trkpt><trkpt lat="40.716091" lon="17.3289508"><ele>357.75</ele><time>2026-04-11T13:47:08.254Z</time></trkpt><trkpt lat="40.7162016" lon="17.3289614"><ele>357.5</ele><time>2026-04-11T13:47:09.278Z</time></trkpt><trkpt lat="40.7163098" lon="17.329007"><ele>357.25</ele><time>2026-04-11T13:47:10.278Z</time></trkpt><trkpt lat="40.7164207" lon="17.3290533"><ele>357.0</ele><time>2026-04-11T13:47:11.242Z</time></trkpt><trkpt lat="40.7165233" lon="17.3291042"><ele>357.0</ele><time>2026-04-11T13:47:12.241Z</time></trkpt><trkpt lat="40.716627" lon="17.3291552"><ele>357.0</ele><time>2026-04-11T13:47:13.248Z</time></trkpt><trkpt lat="40.7167308" lon="17.3292107"><ele>357.0</ele><time>2026-04-11T13:47:14.261Z</time></trkpt><trkpt lat="40.7168393" lon="17.3292685"><ele>357.0</ele><time>2026-04-11T13:47:15.255Z</time></trkpt><trkpt lat="40.7169562" lon="17.329328"><ele>356.25</ele><time>2026-04-11T13:47:16.241Z</time></trkpt><trkpt lat="40.7170682" lon="17.3293912"><ele>355.5</ele><time>2026-04-11T13:47:17.279Z</time></trkpt><trkpt lat="40.7171825" lon="17.3294513"><ele>354.75</ele><time>2026-04-11T13:47:18.248Z</time></trkpt><trkpt lat="40.7172832" lon="17.3295034"><ele>354.0</ele><time>2026-04-11T13:47:19.244Z</time></trkpt><trkpt lat="40.717388" lon="17.3295801"><ele>354.0</ele><time>2026-04-11T13:47:20.256Z</time></trkpt><trkpt lat="40.7174846" lon="17.3296552"><ele>354.0</ele><time>2026-04-11T13:47:21.304Z</time></trkpt><trkpt lat="40.7175795" lon="17.3297602"><ele>354.0</ele><time>2026-04-11T13:47:22.26Z</time></trkpt><trkpt lat="40.7176732" lon="17.3298702"><ele>354.0</ele><time>2026-04-11T13:47:23.242Z</time></trkpt><trkpt lat="40.7177268" lon="17.3300385"><ele>354.25</ele><time>2026-04-11T13:47:24.244Z</time></trkpt><trkpt lat="40.7177239" lon="17.3302202"><ele>354.5</ele><time>2026-04-11T13:47:25.249Z</time></trkpt><trkpt lat="40.7177546" lon="17.3303909"><ele>354.75</ele><time>2026-04-11T13:47:26.247Z</time></trkpt><trkpt lat="40.717731" lon="17.3305845"><ele>355.0</ele><time>2026-04-11T13:47:27.251Z</time></trkpt><trkpt lat="40.7177189" lon="17.3307706"><ele>355.0</ele><time>2026-04-11T13:47:28.245Z</time></trkpt><trkpt lat="40.7176768" lon="17.3309129"><ele>355.0</ele><time>2026-04-11T13:47:29.276Z</time></trkpt><trkpt lat="40.7176501" lon="17.331099"><ele>355.0</ele><time>2026-04-11T13:47:30.284Z</time></trkpt><trkpt lat="40.7176214" lon="17.3312932"><ele>355.0</ele><time>2026-04-11T13:47:31.283Z</time></trkpt><trkpt lat="40.7175816" lon="17.3314946"><ele>354.75</ele><time>2026-04-11T13:47:32.284Z</time></trkpt><trkpt lat="40.7175397" lon="17.331686"><ele>354.5</ele><time>2026-04-11T13:47:33.249Z</time></trkpt><trkpt lat="40.7175122" lon="17.331852"><ele>354.25</ele><time>2026-04-11T13:47:34.325Z</time></trkpt><trkpt lat="40.7174648" lon="17.3320067"><ele>354.0</ele><time>2026-04-11T13:47:35.283Z</time></trkpt><trkpt lat="40.7174427" lon="17.332165"><ele>354.0</ele><time>2026-04-11T13:47:36.249Z</time></trkpt><trkpt lat="40.717434" lon="17.3322939"><ele>354.0</ele><time>2026-04-11T13:47:37.261Z</time></trkpt><trkpt lat="40.7174335" lon="17.3324027"><ele>354.0</ele><time>2026-04-11T13:47:38.252Z</time></trkpt><trkpt lat="40.7174129" lon="17.3325369"><ele>354.0</ele><time>2026-04-11T13:47:40.258Z</time></trkpt><trkpt lat="40.7174001" lon="17.3326183"><ele>354.0</ele><time>2026-04-11T13:47:42.321Z</time></trkpt><trkpt lat="40.717381" lon="17.332758"><ele>354.0</ele><time>2026-04-11T13:47:44.281Z</time></trkpt><trkpt lat="40.7174517" lon="17.332864"><ele>354.0</ele><time>2026-04-11T13:47:46.248Z</time></trkpt><trkpt lat="40.7175164" lon="17.3328734"><ele>354.0</ele><time>2026-04-11T13:47:47.288Z</time></trkpt><trkpt lat="40.7175932" lon="17.3328455"><ele>354.0</ele><time>2026-04-11T13:47:48.245Z</time></trkpt><trkpt lat="40.7176649" lon="17.3328105"><ele>354.0</ele><time>2026-04-11T13:47:49.242Z</time></trkpt><trkpt lat="40.7177801" lon="17.3327643"><ele>354.0</ele><time>2026-04-11T13:47:50.278Z</time></trkpt><trkpt lat="40.7178787" lon="17.332752"><ele>353.75</ele><time>2026-04-11T13:47:51.254Z</time></trkpt><trkpt lat="40.7179951" lon="17.3327319"><ele>353.5</ele><time>2026-04-11T13:47:52.26Z</time></trkpt><trkpt lat="40.7181056" lon="17.3327267"><ele>353.25</ele><time>2026-04-11T13:47:53.247Z</time></trkpt><trkpt lat="40.7182312" lon="17.3327297"><ele>353.0</ele><time>2026-04-11T13:47:54.248Z</time></trkpt><trkpt lat="40.7183513" lon="17.3327372"><ele>353.0</ele><time>2026-04-11T13:47:55.256Z</time></trkpt><trkpt lat="40.7184807" lon="17.3327338"><ele>353.0</ele><time>2026-04-11T13:47:56.256Z</time></trkpt><trkpt lat="40.7186121" lon="17.3327229"><ele>353.0</ele><time>2026-04-11T13:47:57.259Z</time></trkpt><trkpt lat="40.7187439" lon="17.3327185"><ele>353.0</ele><time>2026-04-11T13:47:58.255Z</time></trkpt><trkpt lat="40.7188783" lon="17.3327169"><ele>352.75</ele><time>2026-04-11T13:47:59.255Z</time></trkpt><trkpt lat="40.7190169" lon="17.3327125"><ele>352.5</ele><time>2026-04-11T13:48:00.257Z</time></trkpt><trkpt lat="40.7191518" lon="17.3327092"><ele>352.25</ele><time>2026-04-11T13:48:01.244Z</time></trkpt><trkpt lat="40.7192982" lon="17.3327162"><ele>352.0</ele><time>2026-04-11T13:48:02.246Z</time></trkpt><trkpt lat="40.7194374" lon="17.3327147"><ele>351.66666666666663</ele><time>2026-04-11T13:48:03.25Z</time></trkpt><trkpt lat="40.7195835" lon="17.3327138"><ele>351.3333333333333</ele><time>2026-04-11T13:48:04.24Z</time></trkpt><trkpt lat="40.7197396" lon="17.3327162"><ele>351.0</ele><time>2026-04-11T13:48:05.255Z</time></trkpt><trkpt lat="40.7198983" lon="17.332708"><ele>351.0</ele><time>2026-04-11T13:48:06.291Z</time></trkpt><trkpt lat="40.7200627" lon="17.3327021"><ele>351.0</ele><time>2026-04-11T13:48:07.324Z</time></trkpt><trkpt lat="40.7202332" lon="17.3327021"><ele>351.0</ele><time>2026-04-11T13:48:08.251Z</time></trkpt><trkpt lat="40.7204214" lon="17.3327053"><ele>352.0</ele><time>2026-04-11T13:48:09.28Z</time></trkpt><trkpt lat="40.7206045" lon="17.3327086"><ele>353.0</ele><time>2026-04-11T13:48:10.281Z</time></trkpt><trkpt lat="40.7207923" lon="17.3327184"><ele>354.0</ele><time>2026-04-11T13:48:11.277Z</time></trkpt><trkpt lat="40.7209819" lon="17.3327267"><ele>354.3333333333333</ele><time>2026-04-11T13:48:12.251Z</time></trkpt><trkpt lat="40.721171" lon="17.3327229"><ele>354.66666666666663</ele><time>2026-04-11T13:48:13.251Z</time></trkpt><trkpt lat="40.7213872" lon="17.3327236"><ele>355.0</ele><time>2026-04-11T13:48:14.266Z</time></trkpt><trkpt lat="40.7215849" lon="17.3327173"><ele>355.0</ele><time>2026-04-11T13:48:15.248Z</time></trkpt><trkpt lat="40.7217973" lon="17.3327107"><ele>355.0</ele><time>2026-04-11T13:48:16.276Z</time></trkpt><trkpt lat="40.7220038" lon="17.3327052"><ele>355.0</ele><time>2026-04-11T13:48:17.283Z</time></trkpt><trkpt lat="40.7222084" lon="17.3327014"><ele>356.0</ele><time>2026-04-11T13:48:18.253Z</time></trkpt><trkpt lat="40.7224217" lon="17.3327183"><ele>357.0</ele><time>2026-04-11T13:48:19.257Z</time></trkpt><trkpt lat="40.7226256" lon="17.3327132"><ele>358.0</ele><time>2026-04-11T13:48:20.247Z</time></trkpt><trkpt lat="40.7228219" lon="17.3327237"><ele>358.3333333333333</ele><time>2026-04-11T13:48:21.253Z</time></trkpt><trkpt lat="40.7230093" lon="17.3327263"><ele>358.6666666666667</ele><time>2026-04-11T13:48:22.293Z</time></trkpt><trkpt lat="40.723202" lon="17.3327269"><ele>359.0</ele><time>2026-04-11T13:48:23.244Z</time></trkpt><trkpt lat="40.7233955" lon="17.3327194"><ele>358.0</ele><time>2026-04-11T13:48:24.256Z</time></trkpt><trkpt lat="40.7235925" lon="17.3327065"><ele>357.0</ele><time>2026-04-11T13:48:25.267Z</time></trkpt><trkpt lat="40.7237964" lon="17.3327001"><ele>356.0</ele><time>2026-04-11T13:48:26.336Z</time></trkpt><trkpt lat="40.7239995" lon="17.3326906"><ele>356.0</ele><time>2026-04-11T13:48:27.256Z</time></trkpt><trkpt lat="40.7241994" lon="17.3326865"><ele>356.0</ele><time>2026-04-11T13:48:28.262Z</time></trkpt><trkpt lat="40.7244107" lon="17.3326783"><ele>356.0</ele><time>2026-04-11T13:48:29.279Z</time></trkpt><trkpt lat="40.7246113" lon="17.3326904"><ele>355.6666666666667</ele><time>2026-04-11T13:48:30.282Z</time></trkpt><trkpt lat="40.7248135" lon="17.3326937"><ele>355.3333333333333</ele><time>2026-04-11T13:48:31.259Z</time></trkpt><trkpt lat="40.7250076" lon="17.3326813"><ele>355.0</ele><time>2026-04-11T13:48:32.294Z</time></trkpt><trkpt lat="40.725201" lon="17.3326758"><ele>355.0</ele><time>2026-04-11T13:48:33.247Z</time></trkpt><trkpt lat="40.7253651" lon="17.3326614"><ele>355.0</ele><time>2026-04-11T13:48:34.252Z</time></trkpt><trkpt lat="40.7255418" lon="17.3326635"><ele>355.0</ele><time>2026-04-11T13:48:35.244Z</time></trkpt><trkpt lat="40.7257038" lon="17.3326776"><ele>355.0</ele><time>2026-04-11T13:48:36.245Z</time></trkpt><trkpt lat="40.7258592" lon="17.3326794"><ele>355.0</ele><time>2026-04-11T13:48:37.253Z</time></trkpt><trkpt lat="40.7260148" lon="17.3326759"><ele>355.0</ele><time>2026-04-11T13:48:38.253Z</time></trkpt><trkpt lat="40.7261747" lon="17.3326728"><ele>355.0</ele><time>2026-04-11T13:48:39.245Z</time></trkpt><trkpt lat="40.7263399" lon="17.3326704"><ele>355.0</ele><time>2026-04-11T13:48:40.254Z</time></trkpt><trkpt lat="40.7265087" lon="17.3326688"><ele>355.0</ele><time>2026-04-11T13:48:41.288Z</time></trkpt><trkpt lat="40.7266849" lon="17.3326827"><ele>355.0</ele><time>2026-04-11T13:48:42.283Z</time></trkpt><trkpt lat="40.726856" lon="17.3326795"><ele>355.0</ele><time>2026-04-11T13:48:43.24Z</time></trkpt><trkpt lat="40.7270253" lon="17.3326682"><ele>355.0</ele><time>2026-04-11T13:48:44.33Z</time></trkpt><trkpt lat="40.727209" lon="17.3326703"><ele>354.66666666666663</ele><time>2026-04-11T13:48:45.251Z</time></trkpt><trkpt lat="40.7274101" lon="17.3326675"><ele>354.3333333333333</ele><time>2026-04-11T13:48:46.282Z</time></trkpt><trkpt lat="40.7276264" lon="17.3326437"><ele>354.0</ele><time>2026-04-11T13:48:47.324Z</time></trkpt><trkpt lat="40.7278527" lon="17.3326343"><ele>354.0</ele><time>2026-04-11T13:48:48.254Z</time></trkpt><trkpt lat="40.7280936" lon="17.3326313"><ele>354.0</ele><time>2026-04-11T13:48:49.261Z</time></trkpt><trkpt lat="40.7283509" lon="17.3326293"><ele>355.5</ele><time>2026-04-11T13:48:50.281Z</time></trkpt><trkpt lat="40.7286066" lon="17.3326249"><ele>357.0</ele><time>2026-04-11T13:48:51.283Z</time></trkpt><trkpt lat="40.7288768" lon="17.3326358"><ele>357.0</ele><time>2026-04-11T13:48:52.255Z</time></trkpt><trkpt lat="40.7291362" lon="17.3326371"><ele>357.0</ele><time>2026-04-11T13:48:53.245Z</time></trkpt><trkpt lat="40.7293615" lon="17.3326298"><ele>357.6666666666667</ele><time>2026-04-11T13:48:54.248Z</time></trkpt><trkpt lat="40.7295787" lon="17.3326423"><ele>358.33333333333337</ele><time>2026-04-11T13:48:55.32Z</time></trkpt><trkpt lat="40.729795" lon="17.3326429"><ele>359.0</ele><time>2026-04-11T13:48:56.244Z</time></trkpt><trkpt lat="40.7299816" lon="17.3326384"><ele>359.0</ele><time>2026-04-11T13:48:57.283Z</time></trkpt><trkpt lat="40.7301768" lon="17.3326324"><ele>359.0</ele><time>2026-04-11T13:48:58.257Z</time></trkpt><trkpt lat="40.7303607" lon="17.3326126"><ele>359.0</ele><time>2026-04-11T13:48:59.283Z</time></trkpt><trkpt lat="40.7305493" lon="17.3326224"><ele>356.6666666666667</ele><time>2026-04-11T13:49:00.278Z</time></trkpt><trkpt lat="40.7307432" lon="17.33262"><ele>354.3333333333333</ele><time>2026-04-11T13:49:01.252Z</time></trkpt><trkpt lat="40.7309539" lon="17.3326186"><ele>352.0</ele><time>2026-04-11T13:49:02.285Z</time></trkpt><trkpt lat="40.7311483" lon="17.3326131"><ele>352.0</ele><time>2026-04-11T13:49:03.245Z</time></trkpt><trkpt lat="40.7313447" lon="17.3326035"><ele>352.0</ele><time>2026-04-11T13:49:04.252Z</time></trkpt><trkpt lat="40.7315454" lon="17.332612"><ele>352.0</ele><time>2026-04-11T13:49:05.258Z</time></trkpt><trkpt lat="40.7317556" lon="17.3326245"><ele>352.3333333333333</ele><time>2026-04-11T13:49:06.252Z</time></trkpt><trkpt lat="40.7319527" lon="17.3326261"><ele>352.6666666666667</ele><time>2026-04-11T13:49:07.241Z</time></trkpt><trkpt lat="40.7321582" lon="17.3326202"><ele>353.0</ele><time>2026-04-11T13:49:08.248Z</time></trkpt><trkpt lat="40.7323599" lon="17.3326208"><ele>353.0</ele><time>2026-04-11T13:49:09.245Z</time></trkpt><trkpt lat="40.7325482" lon="17.3326208"><ele>353.0</ele><time>2026-04-11T13:49:10.244Z</time></trkpt><trkpt lat="40.7327241" lon="17.3326202"><ele>353.0</ele><time>2026-04-11T13:49:11.25Z</time></trkpt><trkpt lat="40.7328998" lon="17.3326314"><ele>352.6666666666667</ele><time>2026-04-11T13:49:12.286Z</time></trkpt><trkpt lat="40.7330689" lon="17.332634"><ele>352.3333333333333</ele><time>2026-04-11T13:49:13.244Z</time></trkpt><trkpt lat="40.7332325" lon="17.3326416"><ele>352.0</ele><time>2026-04-11T13:49:14.256Z</time></trkpt><trkpt lat="40.733396" lon="17.3326321"><ele>351.3333333333333</ele><time>2026-04-11T13:49:15.256Z</time></trkpt><trkpt lat="40.73356" lon="17.3326262"><ele>350.6666666666667</ele><time>2026-04-11T13:49:16.238Z</time></trkpt><trkpt lat="40.7337165" lon="17.3326154"><ele>350.0</ele><time>2026-04-11T13:49:17.25Z</time></trkpt><trkpt lat="40.7338617" lon="17.3326148"><ele>350.0</ele><time>2026-04-11T13:49:18.284Z</time></trkpt><trkpt lat="40.734006" lon="17.3326035"><ele>350.0</ele><time>2026-04-11T13:49:19.281Z</time></trkpt><trkpt lat="40.7341403" lon="17.332586"><ele>350.0</ele><time>2026-04-11T13:49:20.26Z</time></trkpt><trkpt lat="40.7342663" lon="17.332592"><ele>350.0</ele><time>2026-04-11T13:49:21.285Z</time></trkpt><trkpt lat="40.734388" lon="17.3325941"><ele>349.25</ele><time>2026-04-11T13:49:22.278Z</time></trkpt><trkpt lat="40.7345059" lon="17.3325989"><ele>348.5</ele><time>2026-04-11T13:49:23.278Z</time></trkpt><trkpt lat="40.7346212" lon="17.3325964"><ele>347.75</ele><time>2026-04-11T13:49:24.24Z</time></trkpt><trkpt lat="40.7347377" lon="17.3326017"><ele>347.0</ele><time>2026-04-11T13:49:25.253Z</time></trkpt><trkpt lat="40.7348418" lon="17.3325958"><ele>347.0</ele><time>2026-04-11T13:49:26.252Z</time></trkpt><trkpt lat="40.7349411" lon="17.3325945"><ele>347.0</ele><time>2026-04-11T13:49:27.286Z</time></trkpt><trkpt lat="40.73504" lon="17.3325941"><ele>347.0</ele><time>2026-04-11T13:49:28.255Z</time></trkpt><trkpt lat="40.7351141" lon="17.3325888"><ele>347.0</ele><time>2026-04-11T13:49:29.259Z</time></trkpt><trkpt lat="40.7351988" lon="17.3325956"><ele>347.0</ele><time>2026-04-11T13:49:30.254Z</time></trkpt><trkpt lat="40.7352923" lon="17.3325933"><ele>346.5</ele><time>2026-04-11T13:49:31.336Z</time></trkpt><trkpt lat="40.7353793" lon="17.3325899"><ele>346.0</ele><time>2026-04-11T13:49:32.285Z</time></trkpt><trkpt lat="40.7354735" lon="17.3326032"><ele>345.5</ele><time>2026-04-11T13:49:33.275Z</time></trkpt><trkpt lat="40.7355582" lon="17.3325956"><ele>345.0</ele><time>2026-04-11T13:49:34.278Z</time></trkpt><trkpt lat="40.73564" lon="17.3326249"><ele>344.5</ele><time>2026-04-11T13:49:35.285Z</time></trkpt><trkpt lat="40.7357058" lon="17.332656"><ele>344.0</ele><time>2026-04-11T13:49:36.279Z</time></trkpt><trkpt lat="40.7357729" lon="17.3326901"><ele>344.0</ele><time>2026-04-11T13:49:37.24Z</time></trkpt><trkpt lat="40.7358375" lon="17.3327399"><ele>344.0</ele><time>2026-04-11T13:49:38.256Z</time></trkpt><trkpt lat="40.7359129" lon="17.3327641"><ele>344.0</ele><time>2026-04-11T13:49:39.254Z</time></trkpt><trkpt lat="40.735993" lon="17.3327769"><ele>344.0</ele><time>2026-04-11T13:49:40.239Z</time></trkpt><trkpt lat="40.7360694" lon="17.3327059"><ele>344.0</ele><time>2026-04-11T13:49:41.274Z</time></trkpt><trkpt lat="40.7361577" lon="17.332645"><ele>344.0</ele><time>2026-04-11T13:49:42.25Z</time></trkpt><trkpt lat="40.7362611" lon="17.3326142"><ele>344.75</ele><time>2026-04-11T13:49:43.276Z</time></trkpt><trkpt lat="40.7363684" lon="17.3325856"><ele>345.5</ele><time>2026-04-11T13:49:44.238Z</time></trkpt><trkpt lat="40.7365026" lon="17.3325846"><ele>346.25</ele><time>2026-04-11T13:49:45.248Z</time></trkpt><trkpt lat="40.7366325" lon="17.3325809"><ele>347.0</ele><time>2026-04-11T13:49:46.289Z</time></trkpt><trkpt lat="40.7367593" lon="17.3325766"><ele>347.5</ele><time>2026-04-11T13:49:47.254Z</time></trkpt><trkpt lat="40.7368994" lon="17.3325719"><ele>348.0</ele><time>2026-04-11T13:49:48.284Z</time></trkpt><trkpt lat="40.7370406" lon="17.3325667"><ele>348.5</ele><time>2026-04-11T13:49:49.246Z</time></trkpt><trkpt lat="40.7371826" lon="17.3325626"><ele>349.0</ele><time>2026-04-11T13:49:50.283Z</time></trkpt><trkpt lat="40.7373288" lon="17.3325526"><ele>349.0</ele><time>2026-04-11T13:49:51.263Z</time></trkpt><trkpt lat="40.7374781" lon="17.3325333"><ele>349.0</ele><time>2026-04-11T13:49:52.255Z</time></trkpt><trkpt lat="40.7376264" lon="17.3325299"><ele>349.0</ele><time>2026-04-11T13:49:53.257Z</time></trkpt><trkpt lat="40.7377644" lon="17.3325223"><ele>349.0</ele><time>2026-04-11T13:49:54.254Z</time></trkpt><trkpt lat="40.7378933" lon="17.3325187"><ele>350.0</ele><time>2026-04-11T13:49:55.291Z</time></trkpt><trkpt lat="40.738018" lon="17.3325189"><ele>351.0</ele><time>2026-04-11T13:49:56.283Z</time></trkpt><trkpt lat="40.7381392" lon="17.3325171"><ele>352.0</ele><time>2026-04-11T13:49:57.241Z</time></trkpt><trkpt lat="40.7382633" lon="17.3325077"><ele>353.0</ele><time>2026-04-11T13:49:58.249Z</time></trkpt><trkpt lat="40.7383823" lon="17.3325195"><ele>353.0</ele><time>2026-04-11T13:49:59.283Z</time></trkpt><trkpt lat="40.7385113" lon="17.3325135"><ele>353.0</ele><time>2026-04-11T13:50:00.28Z</time></trkpt><trkpt lat="40.738634" lon="17.332511"><ele>353.0</ele><time>2026-04-11T13:50:01.24Z</time></trkpt><trkpt lat="40.7387544" lon="17.3324905"><ele>353.0</ele><time>2026-04-11T13:50:02.252Z</time></trkpt><trkpt lat="40.7388741" lon="17.3324916"><ele>353.75</ele><time>2026-04-11T13:50:03.285Z</time></trkpt><trkpt lat="40.7389954" lon="17.3324903"><ele>354.5</ele><time>2026-04-11T13:50:04.247Z</time></trkpt><trkpt lat="40.7391192" lon="17.3325064"><ele>355.25</ele><time>2026-04-11T13:50:05.258Z</time></trkpt><trkpt lat="40.7392458" lon="17.332497"><ele>356.0</ele><time>2026-04-11T13:50:06.263Z</time></trkpt><trkpt lat="40.7393716" lon="17.3324859"><ele>357.25</ele><time>2026-04-11T13:50:07.256Z</time></trkpt><trkpt lat="40.7394985" lon="17.3324876"><ele>358.5</ele><time>2026-04-11T13:50:08.258Z</time></trkpt><trkpt lat="40.7396188" lon="17.3324836"><ele>359.75</ele><time>2026-04-11T13:50:09.246Z</time></trkpt><trkpt lat="40.7397294" lon="17.332494"><ele>361.0</ele><time>2026-04-11T13:50:10.247Z</time></trkpt><trkpt lat="40.7398355" lon="17.3325095"><ele>361.0</ele><time>2026-04-11T13:50:11.252Z</time></trkpt><trkpt lat="40.7399342" lon="17.3324941"><ele>361.0</ele><time>2026-04-11T13:50:12.255Z</time></trkpt><trkpt lat="40.7400338" lon="17.3325049"><ele>361.0</ele><time>2026-04-11T13:50:13.258Z</time></trkpt><trkpt lat="40.7401197" lon="17.3325157"><ele>361.0</ele><time>2026-04-11T13:50:14.255Z</time></trkpt><trkpt lat="40.7402203" lon="17.3325094"><ele>361.0</ele><time>2026-04-11T13:50:15.288Z</time></trkpt><trkpt lat="40.740322" lon="17.3325055"><ele>361.6</ele><time>2026-04-11T13:50:16.259Z</time></trkpt><trkpt lat="40.7404293" lon="17.3325113"><ele>362.20000000000005</ele><time>2026-04-11T13:50:17.287Z</time></trkpt><trkpt lat="40.7405363" lon="17.3325109"><ele>362.79999999999995</ele><time>2026-04-11T13:50:18.245Z</time></trkpt><trkpt lat="40.7406422" lon="17.3325255"><ele>363.4</ele><time>2026-04-11T13:50:19.275Z</time></trkpt><trkpt lat="40.7407506" lon="17.3325276"><ele>364.0</ele><time>2026-04-11T13:50:20.252Z</time></trkpt><trkpt lat="40.7408586" lon="17.3325343"><ele>364.0</ele><time>2026-04-11T13:50:21.253Z</time></trkpt><trkpt lat="40.740981" lon="17.3325483"><ele>364.0</ele><time>2026-04-11T13:50:22.278Z</time></trkpt><trkpt lat="40.7410909" lon="17.3325524"><ele>364.0</ele><time>2026-04-11T13:50:23.251Z</time></trkpt><trkpt lat="40.7412147" lon="17.3325474"><ele>364.0</ele><time>2026-04-11T13:50:24.256Z</time></trkpt><trkpt lat="40.741332" lon="17.3325381"><ele>364.79999999999995</ele><time>2026-04-11T13:50:25.256Z</time></trkpt><trkpt lat="40.7414455" lon="17.3325423"><ele>365.59999999999997</ele><time>2026-04-11T13:50:26.259Z</time></trkpt><trkpt lat="40.7415549" lon="17.3325386"><ele>366.4</ele><time>2026-04-11T13:50:27.255Z</time></trkpt><trkpt lat="40.7416632" lon="17.3325187"><ele>367.2</ele><time>2026-04-11T13:50:28.261Z</time></trkpt><trkpt lat="40.7417778" lon="17.332501"><ele>368.0</ele><time>2026-04-11T13:50:29.256Z</time></trkpt><trkpt lat="40.7418884" lon="17.3324942"><ele>368.75</ele><time>2026-04-11T13:50:30.259Z</time></trkpt><trkpt lat="40.7419976" lon="17.3324743"><ele>369.5</ele><time>2026-04-11T13:50:31.263Z</time></trkpt><trkpt lat="40.7421116" lon="17.33244"><ele>370.25</ele><time>2026-04-11T13:50:32.258Z</time></trkpt><trkpt lat="40.7422263" lon="17.3323965"><ele>371.0</ele><time>2026-04-11T13:50:33.258Z</time></trkpt><trkpt lat="40.7423421" lon="17.3323526"><ele>371.0</ele><time>2026-04-11T13:50:34.254Z</time></trkpt><trkpt lat="40.7424586" lon="17.3322966"><ele>371.0</ele><time>2026-04-11T13:50:35.281Z</time></trkpt><trkpt lat="40.742579" lon="17.3322496"><ele>371.0</ele><time>2026-04-11T13:50:36.243Z</time></trkpt><trkpt lat="40.7427032" lon="17.3321883"><ele>371.0</ele><time>2026-04-11T13:50:37.247Z</time></trkpt><trkpt lat="40.7428262" lon="17.3321355"><ele>370.75</ele><time>2026-04-11T13:50:38.283Z</time></trkpt><trkpt lat="40.7429481" lon="17.3320792"><ele>370.5</ele><time>2026-04-11T13:50:39.256Z</time></trkpt><trkpt lat="40.743079" lon="17.3320386"><ele>370.25</ele><time>2026-04-11T13:50:40.26Z</time></trkpt><trkpt lat="40.7431967" lon="17.3319837"><ele>370.0</ele><time>2026-04-11T13:50:41.286Z</time></trkpt><trkpt lat="40.7433179" lon="17.3319369"><ele>370.0</ele><time>2026-04-11T13:50:42.242Z</time></trkpt><trkpt lat="40.7434344" lon="17.3318971"><ele>370.0</ele><time>2026-04-11T13:50:43.252Z</time></trkpt><trkpt lat="40.743544" lon="17.331852"><ele>370.0</ele><time>2026-04-11T13:50:44.247Z</time></trkpt><trkpt lat="40.7436435" lon="17.3318128"><ele>370.0</ele><time>2026-04-11T13:50:45.282Z</time></trkpt><trkpt lat="40.7437553" lon="17.3317674"><ele>369.25</ele><time>2026-04-11T13:50:46.244Z</time></trkpt><trkpt lat="40.7438706" lon="17.3317194"><ele>368.5</ele><time>2026-04-11T13:50:47.279Z</time></trkpt><trkpt lat="40.7439965" lon="17.3316645"><ele>367.75</ele><time>2026-04-11T13:50:48.248Z</time></trkpt><trkpt lat="40.7441192" lon="17.3316254"><ele>367.0</ele><time>2026-04-11T13:50:49.257Z</time></trkpt><trkpt lat="40.7442448" lon="17.3315907"><ele>367.0</ele><time>2026-04-11T13:50:50.257Z</time></trkpt><trkpt lat="40.7443605" lon="17.3315325"><ele>367.0</ele><time>2026-04-11T13:50:51.248Z</time></trkpt><trkpt lat="40.7444722" lon="17.3315025"><ele>367.0</ele><time>2026-04-11T13:50:52.255Z</time></trkpt><trkpt lat="40.7445767" lon="17.33146"><ele>367.0</ele><time>2026-04-11T13:50:53.243Z</time></trkpt><trkpt lat="40.7446823" lon="17.3314152"><ele>367.75</ele><time>2026-04-11T13:50:54.256Z</time></trkpt><trkpt lat="40.7447896" lon="17.3313744"><ele>368.5</ele><time>2026-04-11T13:50:55.26Z</time></trkpt><trkpt lat="40.7448974" lon="17.3313183"><ele>369.25</ele><time>2026-04-11T13:50:56.261Z</time></trkpt><trkpt lat="40.7450025" lon="17.3312584"><ele>370.0</ele><time>2026-04-11T13:50:57.247Z</time></trkpt><trkpt lat="40.7451156" lon="17.3312086"><ele>369.2</ele><time>2026-04-11T13:50:58.246Z</time></trkpt><trkpt lat="40.7452262" lon="17.331173"><ele>368.4</ele><time>2026-04-11T13:50:59.249Z</time></trkpt><trkpt lat="40.7453263" lon="17.3311402"><ele>367.6</ele><time>2026-04-11T13:51:00.251Z</time></trkpt><trkpt lat="40.7454222" lon="17.3311054"><ele>366.8</ele><time>2026-04-11T13:51:01.246Z</time></trkpt><trkpt lat="40.7455204" lon="17.331067"><ele>366.0</ele><time>2026-04-11T13:51:02.254Z</time></trkpt><trkpt lat="40.7456183" lon="17.3310323"><ele>366.0</ele><time>2026-04-11T13:51:03.245Z</time></trkpt><trkpt lat="40.7457191" lon="17.3309889"><ele>366.0</ele><time>2026-04-11T13:51:04.246Z</time></trkpt><trkpt lat="40.7458273" lon="17.330945"><ele>366.0</ele><time>2026-04-11T13:51:05.247Z</time></trkpt><trkpt lat="40.7459247" lon="17.3308922"><ele>366.0</ele><time>2026-04-11T13:51:06.253Z</time></trkpt><trkpt lat="40.7460354" lon="17.3308467"><ele>366.0</ele><time>2026-04-11T13:51:07.25Z</time></trkpt><trkpt lat="40.7461485" lon="17.3307905"><ele>364.5</ele><time>2026-04-11T13:51:08.275Z</time></trkpt><trkpt lat="40.7462714" lon="17.3307441"><ele>363.0</ele><time>2026-04-11T13:51:09.289Z</time></trkpt><trkpt lat="40.7463937" lon="17.3306892"><ele>361.5</ele><time>2026-04-11T13:51:10.247Z</time></trkpt><trkpt lat="40.7465167" lon="17.3306366"><ele>360.0</ele><time>2026-04-11T13:51:11.25Z</time></trkpt><trkpt lat="40.7466375" lon="17.3305903"><ele>359.75</ele><time>2026-04-11T13:51:12.247Z</time></trkpt><trkpt lat="40.7467566" lon="17.3305367"><ele>359.5</ele><time>2026-04-11T13:51:13.244Z</time></trkpt><trkpt lat="40.7468729" lon="17.3304909"><ele>359.25</ele><time>2026-04-11T13:51:14.252Z</time></trkpt><trkpt lat="40.7469875" lon="17.3304393"><ele>359.0</ele><time>2026-04-11T13:51:15.247Z</time></trkpt><trkpt lat="40.7471005" lon="17.3303951"><ele>359.0</ele><time>2026-04-11T13:51:16.252Z</time></trkpt><trkpt lat="40.7472117" lon="17.3303564"><ele>359.0</ele><time>2026-04-11T13:51:17.248Z</time></trkpt><trkpt lat="40.7473108" lon="17.3303094"><ele>359.0</ele><time>2026-04-11T13:51:18.248Z</time></trkpt><trkpt lat="40.7474119" lon="17.3302625"><ele>359.0</ele><time>2026-04-11T13:51:19.255Z</time></trkpt><trkpt lat="40.747515" lon="17.3302427"><ele>359.0</ele><time>2026-04-11T13:51:20.285Z</time></trkpt><trkpt lat="40.7476105" lon="17.330202"><ele>359.0</ele><time>2026-04-11T13:51:21.239Z</time></trkpt><trkpt lat="40.7477074" lon="17.3301759"><ele>359.0</ele><time>2026-04-11T13:51:22.242Z</time></trkpt><trkpt lat="40.7477778" lon="17.3301231"><ele>359.0</ele><time>2026-04-11T13:51:23.277Z</time></trkpt><trkpt lat="40.7478644" lon="17.3300862"><ele>359.0</ele><time>2026-04-11T13:51:24.242Z</time></trkpt><trkpt lat="40.7479548" lon="17.330053"><ele>359.0</ele><time>2026-04-11T13:51:25.248Z</time></trkpt><trkpt lat="40.748051" lon="17.3300206"><ele>358.79999999999995</ele><time>2026-04-11T13:51:26.322Z</time></trkpt><trkpt lat="40.7481392" lon="17.3299849"><ele>358.59999999999997</ele><time>2026-04-11T13:51:27.243Z</time></trkpt><trkpt lat="40.7482322" lon="17.3299439"><ele>358.4</ele><time>2026-04-11T13:51:28.278Z</time></trkpt><trkpt lat="40.7483231" lon="17.3299072"><ele>358.2</ele><time>2026-04-11T13:51:29.241Z</time></trkpt><trkpt lat="40.7484241" lon="17.3298826"><ele>358.0</ele><time>2026-04-11T13:51:30.278Z</time></trkpt><trkpt lat="40.7485163" lon="17.3298447"><ele>358.3333333333333</ele><time>2026-04-11T13:51:31.247Z</time></trkpt><trkpt lat="40.748599" lon="17.3297947"><ele>358.66666666666663</ele><time>2026-04-11T13:51:32.242Z</time></trkpt><trkpt lat="40.7486802" lon="17.3297557"><ele>359.0</ele><time>2026-04-11T13:51:33.245Z</time></trkpt><trkpt lat="40.748751" lon="17.3297248"><ele>359.3333333333333</ele><time>2026-04-11T13:51:34.243Z</time></trkpt><trkpt lat="40.7488243" lon="17.3297051"><ele>359.6666666666667</ele><time>2026-04-11T13:51:35.256Z</time></trkpt><trkpt lat="40.7488873" lon="17.3296784"><ele>360.0</ele><time>2026-04-11T13:51:36.246Z</time></trkpt><trkpt lat="40.7489922" lon="17.3296532"><ele>360.0</ele><time>2026-04-11T13:51:38.255Z</time></trkpt><trkpt lat="40.7491038" lon="17.3296163"><ele>360.0</ele><time>2026-04-11T13:51:40.241Z</time></trkpt><trkpt lat="40.7491978" lon="17.3296522"><ele>360.0</ele><time>2026-04-11T13:51:42.25Z</time></trkpt><trkpt lat="40.7492271" lon="17.3297342"><ele>360.0</ele><time>2026-04-11T13:51:43.25Z</time></trkpt><trkpt lat="40.7492526" lon="17.3298119"><ele>360.0</ele><time>2026-04-11T13:51:44.257Z</time></trkpt><trkpt lat="40.7492495" lon="17.3299196"><ele>360.0</ele><time>2026-04-11T13:51:45.286Z</time></trkpt><trkpt lat="40.7492424" lon="17.3300434"><ele>360.0</ele><time>2026-04-11T13:51:46.288Z</time></trkpt><trkpt lat="40.749235" lon="17.3301756"><ele>360.0</ele><time>2026-04-11T13:51:47.245Z</time></trkpt><trkpt lat="40.7492188" lon="17.3303413"><ele>360.0</ele><time>2026-04-11T13:51:48.243Z</time></trkpt><trkpt lat="40.7491894" lon="17.3305262"><ele>360.0</ele><time>2026-04-11T13:51:49.247Z</time></trkpt><trkpt lat="40.749177" lon="17.3307114"><ele>359.3333333333333</ele><time>2026-04-11T13:51:50.284Z</time></trkpt><trkpt lat="40.7491625" lon="17.3309072"><ele>358.66666666666663</ele><time>2026-04-11T13:51:51.242Z</time></trkpt><trkpt lat="40.7491418" lon="17.3311192"><ele>358.0</ele><time>2026-04-11T13:51:52.281Z</time></trkpt><trkpt lat="40.7491261" lon="17.3313327"><ele>358.0</ele><time>2026-04-11T13:51:53.244Z</time></trkpt><trkpt lat="40.7491131" lon="17.3315622"><ele>358.0</ele><time>2026-04-11T13:51:54.259Z</time></trkpt><trkpt lat="40.7491005" lon="17.3317799"><ele>358.0</ele><time>2026-04-11T13:51:55.259Z</time></trkpt><trkpt lat="40.7490811" lon="17.3320249"><ele>358.0</ele><time>2026-04-11T13:51:56.284Z</time></trkpt><trkpt lat="40.7490679" lon="17.3322626"><ele>358.0</ele><time>2026-04-11T13:51:57.243Z</time></trkpt><trkpt lat="40.7490626" lon="17.3325027"><ele>358.0</ele><time>2026-04-11T13:51:58.246Z</time></trkpt><trkpt lat="40.7490549" lon="17.3327496"><ele>358.0</ele><time>2026-04-11T13:51:59.245Z</time></trkpt><trkpt lat="40.7490528" lon="17.332989"><ele>358.0</ele><time>2026-04-11T13:52:00.255Z</time></trkpt><trkpt lat="40.7490633" lon="17.333235"><ele>358.0</ele><time>2026-04-11T13:52:01.258Z</time></trkpt><trkpt lat="40.7490944" lon="17.3334602"><ele>358.0</ele><time>2026-04-11T13:52:02.262Z</time></trkpt><trkpt lat="40.7491205" lon="17.3336601"><ele>358.0</ele><time>2026-04-11T13:52:03.257Z</time></trkpt><trkpt lat="40.749145" lon="17.3338439"><ele>358.0</ele><time>2026-04-11T13:52:04.261Z</time></trkpt><trkpt lat="40.7491735" lon="17.3340217"><ele>358.0</ele><time>2026-04-11T13:52:05.284Z</time></trkpt><trkpt lat="40.7492077" lon="17.3341803"><ele>358.2</ele><time>2026-04-11T13:52:06.283Z</time></trkpt><trkpt lat="40.7492417" lon="17.3343359"><ele>358.4</ele><time>2026-04-11T13:52:07.24Z</time></trkpt><trkpt lat="40.7492786" lon="17.3344676"><ele>358.59999999999997</ele><time>2026-04-11T13:52:08.242Z</time></trkpt><trkpt lat="40.7493012" lon="17.3345709"><ele>358.79999999999995</ele><time>2026-04-11T13:52:09.246Z</time></trkpt><trkpt lat="40.7493189" lon="17.3346641"><ele>359.0</ele><time>2026-04-11T13:52:10.26Z</time></trkpt><trkpt lat="40.749339" lon="17.3348239"><ele>359.0</ele><time>2026-04-11T13:52:12.28Z</time></trkpt><trkpt lat="40.7493524" lon="17.3349087"><ele>359.0</ele><time>2026-04-11T13:52:13.239Z</time></trkpt><trkpt lat="40.7493983" lon="17.3349986"><ele>359.0</ele><time>2026-04-11T13:52:14.247Z</time></trkpt><trkpt lat="40.7494679" lon="17.3350959"><ele>359.0</ele><time>2026-04-11T13:52:15.279Z</time></trkpt><trkpt lat="40.749533" lon="17.3351947"><ele>359.0</ele><time>2026-04-11T13:52:16.24Z</time></trkpt><trkpt lat="40.7496123" lon="17.3353294"><ele>359.0</ele><time>2026-04-11T13:52:17.279Z</time></trkpt><trkpt lat="40.7496728" lon="17.3354772"><ele>359.0</ele><time>2026-04-11T13:52:18.249Z</time></trkpt><trkpt lat="40.7497491" lon="17.3356336"><ele>359.0</ele><time>2026-04-11T13:52:19.252Z</time></trkpt><trkpt lat="40.7498215" lon="17.335804"><ele>359.0</ele><time>2026-04-11T13:52:20.285Z</time></trkpt><trkpt lat="40.749902" lon="17.3359865"><ele>359.33333333333337</ele><time>2026-04-11T13:52:21.276Z</time></trkpt><trkpt lat="40.7499716" lon="17.3361789"><ele>359.6666666666667</ele><time>2026-04-11T13:52:22.28Z</time></trkpt><trkpt lat="40.7500291" lon="17.3363812"><ele>360.0</ele><time>2026-04-11T13:52:23.246Z</time></trkpt><trkpt lat="40.7501014" lon="17.3365777"><ele>360.5</ele><time>2026-04-11T13:52:24.239Z</time></trkpt><trkpt lat="40.7501575" lon="17.3367505"><ele>361.0</ele><time>2026-04-11T13:52:25.249Z</time></trkpt><trkpt lat="40.7502117" lon="17.3369087"><ele>361.5</ele><time>2026-04-11T13:52:26.259Z</time></trkpt><trkpt lat="40.7502656" lon="17.3370717"><ele>362.0</ele><time>2026-04-11T13:52:27.286Z</time></trkpt><trkpt lat="40.7503107" lon="17.3372138"><ele>362.1666666666667</ele><time>2026-04-11T13:52:28.245Z</time></trkpt><trkpt lat="40.7503515" lon="17.3373376"><ele>362.33333333333337</ele><time>2026-04-11T13:52:29.248Z</time></trkpt><trkpt lat="40.7503806" lon="17.337444"><ele>362.5</ele><time>2026-04-11T13:52:30.246Z</time></trkpt><trkpt lat="40.7503976" lon="17.3375353"><ele>362.6666666666667</ele><time>2026-04-11T13:52:31.28Z</time></trkpt><trkpt lat="40.7504142" lon="17.3376301"><ele>362.8333333333333</ele><time>2026-04-11T13:52:32.239Z</time></trkpt><trkpt lat="40.7504393" lon="17.3377179"><ele>363.0</ele><time>2026-04-11T13:52:33.246Z</time></trkpt><trkpt lat="40.750492" lon="17.3378568"><ele>363.0</ele><time>2026-04-11T13:52:35.277Z</time></trkpt><trkpt lat="40.7505417" lon="17.3379399"><ele>363.0</ele><time>2026-04-11T13:52:36.255Z</time></trkpt><trkpt lat="40.7505975" lon="17.3380229"><ele>363.0</ele><time>2026-04-11T13:52:37.241Z</time></trkpt><trkpt lat="40.7506462" lon="17.3381572"><ele>363.0</ele><time>2026-04-11T13:52:38.28Z</time></trkpt><trkpt lat="40.750692" lon="17.3382932"><ele>363.0</ele><time>2026-04-11T13:52:39.28Z</time></trkpt><trkpt lat="40.7507368" lon="17.3384445"><ele>362.0</ele><time>2026-04-11T13:52:40.253Z</time></trkpt><trkpt lat="40.7507931" lon="17.3385998"><ele>361.0</ele><time>2026-04-11T13:52:41.289Z</time></trkpt><trkpt lat="40.7508431" lon="17.338764"><ele>360.0</ele><time>2026-04-11T13:52:42.24Z</time></trkpt><trkpt lat="40.7509009" lon="17.3389705"><ele>359.0</ele><time>2026-04-11T13:52:43.289Z</time></trkpt><trkpt lat="40.7509491" lon="17.3391622"><ele>359.0</ele><time>2026-04-11T13:52:44.246Z</time></trkpt><trkpt lat="40.7509902" lon="17.3393803"><ele>359.0</ele><time>2026-04-11T13:52:45.245Z</time></trkpt><trkpt lat="40.7510318" lon="17.3396158"><ele>359.0</ele><time>2026-04-11T13:52:46.249Z</time></trkpt><trkpt lat="40.7510635" lon="17.3398404"><ele>361.0</ele><time>2026-04-11T13:52:47.241Z</time></trkpt><trkpt lat="40.7510805" lon="17.3400761"><ele>363.0</ele><time>2026-04-11T13:52:48.243Z</time></trkpt><trkpt lat="40.7510749" lon="17.3403167"><ele>365.0</ele><time>2026-04-11T13:52:49.247Z</time></trkpt><trkpt lat="40.7510877" lon="17.3405556"><ele>365.33333333333337</ele><time>2026-04-11T13:52:50.241Z</time></trkpt><trkpt lat="40.751076" lon="17.3407966"><ele>365.6666666666667</ele><time>2026-04-11T13:52:51.254Z</time></trkpt><trkpt lat="40.7510637" lon="17.3410458"><ele>366.0</ele><time>2026-04-11T13:52:52.284Z</time></trkpt><trkpt lat="40.7510664" lon="17.3412847"><ele>366.6666666666667</ele><time>2026-04-11T13:52:53.286Z</time></trkpt><trkpt lat="40.751065" lon="17.3415215"><ele>367.33333333333337</ele><time>2026-04-11T13:52:54.243Z</time></trkpt><trkpt lat="40.7510813" lon="17.3417509"><ele>368.0</ele><time>2026-04-11T13:52:55.282Z</time></trkpt><trkpt lat="40.751099" lon="17.3419837"><ele>368.0</ele><time>2026-04-11T13:52:56.285Z</time></trkpt><trkpt lat="40.7511158" lon="17.3422106"><ele>368.0</ele><time>2026-04-11T13:52:57.257Z</time></trkpt><trkpt lat="40.7511235" lon="17.3424339"><ele>368.0</ele><time>2026-04-11T13:52:58.26Z</time></trkpt><trkpt lat="40.7511385" lon="17.3426465"><ele>368.33333333333337</ele><time>2026-04-11T13:52:59.24Z</time></trkpt><trkpt lat="40.7511445" lon="17.3428621"><ele>368.6666666666667</ele><time>2026-04-11T13:53:00.253Z</time></trkpt><trkpt lat="40.751164" lon="17.3430777"><ele>369.0</ele><time>2026-04-11T13:53:01.258Z</time></trkpt><trkpt lat="40.7511695" lon="17.3432961"><ele>368.0</ele><time>2026-04-11T13:53:02.263Z</time></trkpt><trkpt lat="40.7511866" lon="17.3435147"><ele>367.0</ele><time>2026-04-11T13:53:03.249Z</time></trkpt><trkpt lat="40.7512098" lon="17.3437489"><ele>366.0</ele><time>2026-04-11T13:53:04.283Z</time></trkpt><trkpt lat="40.7512316" lon="17.3439757"><ele>364.0</ele><time>2026-04-11T13:53:05.243Z</time></trkpt><trkpt lat="40.7512624" lon="17.3442052"><ele>362.0</ele><time>2026-04-11T13:53:06.249Z</time></trkpt><trkpt lat="40.7512969" lon="17.3444088"><ele>360.0</ele><time>2026-04-11T13:53:07.249Z</time></trkpt><trkpt lat="40.7513361" lon="17.3446203"><ele>359.0</ele><time>2026-04-11T13:53:08.244Z</time></trkpt><trkpt lat="40.7513998" lon="17.3447845"><ele>358.0</ele><time>2026-04-11T13:53:09.249Z</time></trkpt><trkpt lat="40.7514509" lon="17.3449533"><ele>357.0</ele><time>2026-04-11T13:53:10.246Z</time></trkpt><trkpt lat="40.7515025" lon="17.3450567"><ele>356.0</ele><time>2026-04-11T13:53:11.288Z</time></trkpt><trkpt lat="40.7515572" lon="17.3451636"><ele>356.0</ele><time>2026-04-11T13:53:12.295Z</time></trkpt><trkpt lat="40.751604" lon="17.3452421"><ele>356.0</ele><time>2026-04-11T13:53:13.252Z</time></trkpt><trkpt lat="40.7516391" lon="17.3453206"><ele>356.0</ele><time>2026-04-11T13:53:14.306Z</time></trkpt><trkpt lat="40.7516878" lon="17.3454505"><ele>356.0</ele><time>2026-04-11T13:53:16.283Z</time></trkpt><trkpt lat="40.7517894" lon="17.3455581"><ele>356.0</ele><time>2026-04-11T13:53:18.295Z</time></trkpt><trkpt lat="40.7518656" lon="17.3455787"><ele>357.4</ele><time>2026-04-11T13:53:19.285Z</time></trkpt><trkpt lat="40.7519468" lon="17.3456039"><ele>358.8</ele><time>2026-04-11T13:53:20.242Z</time></trkpt><trkpt lat="40.7520676" lon="17.3456394"><ele>360.2</ele><time>2026-04-11T13:53:21.279Z</time></trkpt><trkpt lat="40.7521693" lon="17.3456657"><ele>361.59999999999997</ele><time>2026-04-11T13:53:22.246Z</time></trkpt><trkpt lat="40.7522849" lon="17.3456731"><ele>363.0</ele><time>2026-04-11T13:53:23.358Z</time></trkpt><trkpt lat="40.7524698" lon="17.3456584"><ele>363.0</ele><time>2026-04-11T13:53:25.249Z</time></trkpt><trkpt lat="40.7525576" lon="17.3456273"><ele>363.0</ele><time>2026-04-11T13:53:26.278Z</time></trkpt><trkpt lat="40.7526433" lon="17.3455958"><ele>363.0</ele><time>2026-04-11T13:53:27.28Z</time></trkpt><trkpt lat="40.75272" lon="17.3455658"><ele>363.0</ele><time>2026-04-11T13:53:28.286Z</time></trkpt><trkpt lat="40.7528133" lon="17.3454981"><ele>363.0</ele><time>2026-04-11T13:53:29.272Z</time></trkpt><trkpt lat="40.752897" lon="17.3454423"><ele>363.5</ele><time>2026-04-11T13:53:30.281Z</time></trkpt><trkpt lat="40.7529857" lon="17.3453759"><ele>364.0</ele><time>2026-04-11T13:53:31.242Z</time></trkpt><trkpt lat="40.7530754" lon="17.3452829"><ele>364.5</ele><time>2026-04-11T13:53:32.251Z</time></trkpt><trkpt lat="40.7531636" lon="17.345181"><ele>365.0</ele><time>2026-04-11T13:53:33.256Z</time></trkpt><trkpt lat="40.753255" lon="17.3450707"><ele>365.0</ele><time>2026-04-11T13:53:34.283Z</time></trkpt><trkpt lat="40.7533419" lon="17.3449573"><ele>365.0</ele><time>2026-04-11T13:53:35.275Z</time></trkpt><trkpt lat="40.7534313" lon="17.3448449"><ele>365.0</ele><time>2026-04-11T13:53:36.28Z</time></trkpt><trkpt lat="40.7535338" lon="17.3447381"><ele>365.0</ele><time>2026-04-11T13:53:37.283Z</time></trkpt><trkpt lat="40.7536236" lon="17.3446236"><ele>365.4</ele><time>2026-04-11T13:53:38.241Z</time></trkpt><trkpt lat="40.7537168" lon="17.344523"><ele>365.8</ele><time>2026-04-11T13:53:39.278Z</time></trkpt><trkpt lat="40.7538218" lon="17.3444479"><ele>366.20000000000005</ele><time>2026-04-11T13:53:40.258Z</time></trkpt><trkpt lat="40.7539031" lon="17.3443758"><ele>366.6</ele><time>2026-04-11T13:53:41.291Z</time></trkpt><trkpt lat="40.7539864" lon="17.3443103"><ele>367.0</ele><time>2026-04-11T13:53:42.279Z</time></trkpt><trkpt lat="40.754058" lon="17.3442568"><ele>367.0</ele><time>2026-04-11T13:53:43.281Z</time></trkpt><trkpt lat="40.7541202" lon="17.3442141"><ele>367.0</ele><time>2026-04-11T13:53:44.252Z</time></trkpt><trkpt lat="40.7542191" lon="17.3441574"><ele>367.0</ele><time>2026-04-11T13:53:46.254Z</time></trkpt><trkpt lat="40.7542883" lon="17.3441367"><ele>367.0</ele><time>2026-04-11T13:53:48.243Z</time></trkpt><trkpt lat="40.754399" lon="17.3442011"><ele>367.0</ele><time>2026-04-11T13:53:51.246Z</time></trkpt><trkpt lat="40.7544543" lon="17.344255"><ele>367.0</ele><time>2026-04-11T13:53:52.26Z</time></trkpt><trkpt lat="40.754516" lon="17.3442817"><ele>366.8</ele><time>2026-04-11T13:53:53.262Z</time></trkpt><trkpt lat="40.7545984" lon="17.3442816"><ele>366.6</ele><time>2026-04-11T13:53:54.284Z</time></trkpt><trkpt lat="40.7546711" lon="17.3442618"><ele>366.40000000000003</ele><time>2026-04-11T13:53:55.239Z</time></trkpt><trkpt lat="40.7547515" lon="17.3441607"><ele>366.20000000000005</ele><time>2026-04-11T13:53:56.254Z</time></trkpt><trkpt lat="40.7548371" lon="17.344077"><ele>366.0</ele><time>2026-04-11T13:53:57.261Z</time></trkpt><trkpt lat="40.7549352" lon="17.3440062"><ele>366.0</ele><time>2026-04-11T13:53:58.286Z</time></trkpt><trkpt lat="40.7550184" lon="17.3439505"><ele>366.0</ele><time>2026-04-11T13:53:59.251Z</time></trkpt><trkpt lat="40.7551072" lon="17.3438949"><ele>366.0</ele><time>2026-04-11T13:54:00.239Z</time></trkpt><trkpt lat="40.7551906" lon="17.3438484"><ele>366.0</ele><time>2026-04-11T13:54:01.245Z</time></trkpt><trkpt lat="40.7552762" lon="17.3438087"><ele>366.0</ele><time>2026-04-11T13:54:02.255Z</time></trkpt><trkpt lat="40.7553582" lon="17.3437594"><ele>366.4</ele><time>2026-04-11T13:54:03.286Z</time></trkpt><trkpt lat="40.7554556" lon="17.3437073"><ele>366.8</ele><time>2026-04-11T13:54:04.248Z</time></trkpt><trkpt lat="40.7555572" lon="17.3436513"><ele>367.2</ele><time>2026-04-11T13:54:05.256Z</time></trkpt><trkpt lat="40.7556548" lon="17.3436062"><ele>367.59999999999997</ele><time>2026-04-11T13:54:06.255Z</time></trkpt><trkpt lat="40.7557419" lon="17.3435664"><ele>368.0</ele><time>2026-04-11T13:54:07.253Z</time></trkpt><trkpt lat="40.7558283" lon="17.3435232"><ele>368.0</ele><time>2026-04-11T13:54:08.255Z</time></trkpt><trkpt lat="40.7559066" lon="17.3434906"><ele>368.0</ele><time>2026-04-11T13:54:09.252Z</time></trkpt><trkpt lat="40.755981" lon="17.3434476"><ele>368.0</ele><time>2026-04-11T13:54:10.243Z</time></trkpt><trkpt lat="40.756057" lon="17.343401"><ele>368.0</ele><time>2026-04-11T13:54:11.253Z</time></trkpt><trkpt lat="40.7561406" lon="17.3433652"><ele>368.0</ele><time>2026-04-11T13:54:12.262Z</time></trkpt><trkpt lat="40.7562254" lon="17.3433284"><ele>368.0</ele><time>2026-04-11T13:54:13.256Z</time></trkpt><trkpt lat="40.7563139" lon="17.343279"><ele>368.0</ele><time>2026-04-11T13:54:14.257Z</time></trkpt><trkpt lat="40.7564086" lon="17.3432301"><ele>368.0</ele><time>2026-04-11T13:54:15.256Z</time></trkpt><trkpt lat="40.756508" lon="17.3431883"><ele>368.0</ele><time>2026-04-11T13:54:16.281Z</time></trkpt><trkpt lat="40.7566106" lon="17.3431365"><ele>368.0</ele><time>2026-04-11T13:54:17.244Z</time></trkpt><trkpt lat="40.7567118" lon="17.3430816"><ele>368.0</ele><time>2026-04-11T13:54:18.264Z</time></trkpt><trkpt lat="40.7568136" lon="17.3430307"><ele>368.0</ele><time>2026-04-11T13:54:19.246Z</time></trkpt><trkpt lat="40.7569161" lon="17.3429716"><ele>368.0</ele><time>2026-04-11T13:54:20.25Z</time></trkpt><trkpt lat="40.7570193" lon="17.3429042"><ele>368.0</ele><time>2026-04-11T13:54:21.248Z</time></trkpt><trkpt lat="40.7571207" lon="17.3428341"><ele>368.0</ele><time>2026-04-11T13:54:22.244Z</time></trkpt><trkpt lat="40.7572204" lon="17.3427562"><ele>368.0</ele><time>2026-04-11T13:54:23.245Z</time></trkpt><trkpt lat="40.7573199" lon="17.3426688"><ele>368.0</ele><time>2026-04-11T13:54:24.255Z</time></trkpt><trkpt lat="40.7574187" lon="17.3425747"><ele>368.0</ele><time>2026-04-11T13:54:25.245Z</time></trkpt><trkpt lat="40.7575077" lon="17.3424783"><ele>368.0</ele><time>2026-04-11T13:54:26.245Z</time></trkpt><trkpt lat="40.7575975" lon="17.3423953"><ele>368.0</ele><time>2026-04-11T13:54:27.25Z</time></trkpt><trkpt lat="40.7576789" lon="17.3423093"><ele>368.0</ele><time>2026-04-11T13:54:28.289Z</time></trkpt><trkpt lat="40.7577634" lon="17.3422139"><ele>368.0</ele><time>2026-04-11T13:54:29.255Z</time></trkpt><trkpt lat="40.7578418" lon="17.3421042"><ele>368.0</ele><time>2026-04-11T13:54:30.294Z</time></trkpt><trkpt lat="40.7579072" lon="17.3419993"><ele>368.0</ele><time>2026-04-11T13:54:31.288Z</time></trkpt><trkpt lat="40.757968" lon="17.3419015"><ele>367.83333333333337</ele><time>2026-04-11T13:54:32.284Z</time></trkpt><trkpt lat="40.7580129" lon="17.3418017"><ele>367.6666666666667</ele><time>2026-04-11T13:54:33.249Z</time></trkpt><trkpt lat="40.7580681" lon="17.3417243"><ele>367.5</ele><time>2026-04-11T13:54:34.253Z</time></trkpt><trkpt lat="40.7581181" lon="17.3416541"><ele>367.3333333333333</ele><time>2026-04-11T13:54:35.253Z</time></trkpt><trkpt lat="40.7581679" lon="17.3415831"><ele>367.16666666666663</ele><time>2026-04-11T13:54:36.25Z</time></trkpt><trkpt lat="40.7582172" lon="17.3415275"><ele>367.0</ele><time>2026-04-11T13:54:37.251Z</time></trkpt><trkpt lat="40.7583124" lon="17.341442"><ele>367.0</ele><time>2026-04-11T13:54:39.25Z</time></trkpt><trkpt lat="40.7583882" lon="17.341347"><ele>367.0</ele><time>2026-04-11T13:54:41.281Z</time></trkpt><trkpt lat="40.7584085" lon="17.3412627"><ele>367.0</ele><time>2026-04-11T13:54:42.256Z</time></trkpt><trkpt lat="40.7584357" lon="17.3411774"><ele>367.0</ele><time>2026-04-11T13:54:43.255Z</time></trkpt><trkpt lat="40.7584831" lon="17.3410875"><ele>367.0</ele><time>2026-04-11T13:54:44.247Z</time></trkpt><trkpt lat="40.7585274" lon="17.3409796"><ele>367.0</ele><time>2026-04-11T13:54:45.283Z</time></trkpt><trkpt lat="40.7586002" lon="17.3408553"><ele>367.0</ele><time>2026-04-11T13:54:46.247Z</time></trkpt><trkpt lat="40.7586765" lon="17.3407183"><ele>367.0</ele><time>2026-04-11T13:54:47.253Z</time></trkpt><trkpt lat="40.758757" lon="17.340564"><ele>367.0</ele><time>2026-04-11T13:54:48.246Z</time></trkpt><trkpt lat="40.7588482" lon="17.3403925"><ele>367.0</ele><time>2026-04-11T13:54:49.249Z</time></trkpt><trkpt lat="40.7589625" lon="17.3402093"><ele>366.66666666666663</ele><time>2026-04-11T13:54:50.261Z</time></trkpt><trkpt lat="40.7590821" lon="17.3399968"><ele>366.3333333333333</ele><time>2026-04-11T13:54:51.245Z</time></trkpt><trkpt lat="40.7592014" lon="17.3397819"><ele>366.0</ele><time>2026-04-11T13:54:52.252Z</time></trkpt><trkpt lat="40.759326" lon="17.3395639"><ele>366.0</ele><time>2026-04-11T13:54:53.249Z</time></trkpt><trkpt lat="40.7594582" lon="17.3393468"><ele>366.0</ele><time>2026-04-11T13:54:54.247Z</time></trkpt><trkpt lat="40.7595917" lon="17.3391307"><ele>366.0</ele><time>2026-04-11T13:54:55.244Z</time></trkpt><trkpt lat="40.759729" lon="17.3389128"><ele>366.0</ele><time>2026-04-11T13:54:56.245Z</time></trkpt><trkpt lat="40.7598573" lon="17.3387113"><ele>366.0</ele><time>2026-04-11T13:54:57.252Z</time></trkpt><trkpt lat="40.7599712" lon="17.3384987"><ele>366.0</ele><time>2026-04-11T13:54:58.261Z</time></trkpt><trkpt lat="40.7600674" lon="17.3382873"><ele>366.0</ele><time>2026-04-11T13:54:59.285Z</time></trkpt><trkpt lat="40.7601635" lon="17.3380868"><ele>366.0</ele><time>2026-04-11T13:55:00.281Z</time></trkpt><trkpt lat="40.7602434" lon="17.3378678"><ele>366.0</ele><time>2026-04-11T13:55:01.255Z</time></trkpt><trkpt lat="40.7603276" lon="17.337651"><ele>363.6666666666667</ele><time>2026-04-11T13:55:02.256Z</time></trkpt><trkpt lat="40.7603939" lon="17.3374363"><ele>361.33333333333337</ele><time>2026-04-11T13:55:03.259Z</time></trkpt><trkpt lat="40.7604544" lon="17.3372129"><ele>359.0</ele><time>2026-04-11T13:55:04.255Z</time></trkpt><trkpt lat="40.7605133" lon="17.336998"><ele>359.0</ele><time>2026-04-11T13:55:05.283Z</time></trkpt><trkpt lat="40.7605622" lon="17.3367785"><ele>359.0</ele><time>2026-04-11T13:55:06.256Z</time></trkpt><trkpt lat="40.7605992" lon="17.3365655"><ele>359.0</ele><time>2026-04-11T13:55:07.254Z</time></trkpt><trkpt lat="40.7606347" lon="17.3363483"><ele>360.6666666666667</ele><time>2026-04-11T13:55:08.241Z</time></trkpt><trkpt lat="40.7606414" lon="17.3361338"><ele>362.3333333333333</ele><time>2026-04-11T13:55:09.249Z</time></trkpt><trkpt lat="40.7606592" lon="17.3359141"><ele>364.0</ele><time>2026-04-11T13:55:10.286Z</time></trkpt><trkpt lat="40.7606719" lon="17.335706"><ele>364.25</ele><time>2026-04-11T13:55:11.245Z</time></trkpt><trkpt lat="40.7606934" lon="17.3355091"><ele>364.5</ele><time>2026-04-11T13:55:12.245Z</time></trkpt><trkpt lat="40.7607105" lon="17.3353247"><ele>364.75</ele><time>2026-04-11T13:55:13.285Z</time></trkpt><trkpt lat="40.7607306" lon="17.3351336"><ele>365.0</ele><time>2026-04-11T13:55:14.242Z</time></trkpt><trkpt lat="40.7607838" lon="17.3349604"><ele>365.0</ele><time>2026-04-11T13:55:15.285Z</time></trkpt><trkpt lat="40.7608452" lon="17.3347989"><ele>365.0</ele><time>2026-04-11T13:55:16.291Z</time></trkpt><trkpt lat="40.7609111" lon="17.3346406"><ele>365.0</ele><time>2026-04-11T13:55:17.249Z</time></trkpt><trkpt lat="40.7609821" lon="17.3344862"><ele>365.0</ele><time>2026-04-11T13:55:18.282Z</time></trkpt><trkpt lat="40.7610531" lon="17.3343424"><ele>365.25</ele><time>2026-04-11T13:55:19.281Z</time></trkpt><trkpt lat="40.7611202" lon="17.3341915"><ele>365.5</ele><time>2026-04-11T13:55:20.28Z</time></trkpt><trkpt lat="40.7611806" lon="17.3340375"><ele>365.75</ele><time>2026-04-11T13:55:21.274Z</time></trkpt><trkpt lat="40.7612503" lon="17.3339127"><ele>366.0</ele><time>2026-04-11T13:55:22.275Z</time></trkpt><trkpt lat="40.7613206" lon="17.3337982"><ele>366.20000000000005</ele><time>2026-04-11T13:55:23.247Z</time></trkpt><trkpt lat="40.7613818" lon="17.3336716"><ele>366.40000000000003</ele><time>2026-04-11T13:55:24.238Z</time></trkpt><trkpt lat="40.7614296" lon="17.3335611"><ele>366.6</ele><time>2026-04-11T13:55:25.251Z</time></trkpt><trkpt lat="40.7614774" lon="17.3334605"><ele>366.8</ele><time>2026-04-11T13:55:26.28Z</time></trkpt><trkpt lat="40.7615256" lon="17.3333645"><ele>367.0</ele><time>2026-04-11T13:55:27.241Z</time></trkpt><trkpt lat="40.7616071" lon="17.3332287"><ele>367.0</ele><time>2026-04-11T13:55:29.251Z</time></trkpt><trkpt lat="40.7616899" lon="17.3331105"><ele>367.0</ele><time>2026-04-11T13:55:31.342Z</time></trkpt><trkpt lat="40.7617383" lon="17.3330438"><ele>367.0</ele><time>2026-04-11T13:55:32.25Z</time></trkpt><trkpt lat="40.761787" lon="17.3329739"><ele>367.0</ele><time>2026-04-11T13:55:33.24Z</time></trkpt><trkpt lat="40.7618592" lon="17.3328722"><ele>367.0</ele><time>2026-04-11T13:55:34.245Z</time></trkpt><trkpt lat="40.7619508" lon="17.3327735"><ele>366.3333333333333</ele><time>2026-04-11T13:55:35.287Z</time></trkpt><trkpt lat="40.7620634" lon="17.3326704"><ele>365.6666666666667</ele><time>2026-04-11T13:55:36.285Z</time></trkpt><trkpt lat="40.7621855" lon="17.3325574"><ele>365.0</ele><time>2026-04-11T13:55:37.28Z</time></trkpt><trkpt lat="40.7623266" lon="17.3324316"><ele>365.0</ele><time>2026-04-11T13:55:38.248Z</time></trkpt><trkpt lat="40.7624667" lon="17.3323141"><ele>365.0</ele><time>2026-04-11T13:55:39.255Z</time></trkpt><trkpt lat="40.7626043" lon="17.3321887"><ele>365.0</ele><time>2026-04-11T13:55:40.251Z</time></trkpt><trkpt lat="40.7627397" lon="17.3320749"><ele>364.25</ele><time>2026-04-11T13:55:41.289Z</time></trkpt><trkpt lat="40.762869" lon="17.3319655"><ele>363.5</ele><time>2026-04-11T13:55:42.242Z</time></trkpt><trkpt lat="40.7629744" lon="17.3318482"><ele>362.75</ele><time>2026-04-11T13:55:43.278Z</time></trkpt><trkpt lat="40.7630804" lon="17.331757"><ele>362.0</ele><time>2026-04-11T13:55:44.243Z</time></trkpt><trkpt lat="40.7631635" lon="17.3316782"><ele>362.0</ele><time>2026-04-11T13:55:45.281Z</time></trkpt><trkpt lat="40.763242" lon="17.3316062"><ele>362.0</ele><time>2026-04-11T13:55:46.239Z</time></trkpt><trkpt lat="40.7633426" lon="17.3315287"><ele>362.0</ele><time>2026-04-11T13:55:48.243Z</time></trkpt><trkpt lat="40.7634404" lon="17.3314539"><ele>362.0</ele><time>2026-04-11T13:55:50.244Z</time></trkpt><trkpt lat="40.7635551" lon="17.3314981"><ele>362.0</ele><time>2026-04-11T13:55:52.263Z</time></trkpt><trkpt lat="40.7636232" lon="17.3315282"><ele>361.40000000000003</ele><time>2026-04-11T13:55:53.289Z</time></trkpt><trkpt lat="40.7636946" lon="17.3315659"><ele>360.8</ele><time>2026-04-11T13:55:54.24Z</time></trkpt><trkpt lat="40.7637927" lon="17.3316453"><ele>360.2</ele><time>2026-04-11T13:55:55.252Z</time></trkpt><trkpt lat="40.7638901" lon="17.3317223"><ele>359.6</ele><time>2026-04-11T13:55:56.261Z</time></trkpt><trkpt lat="40.763997" lon="17.3317779"><ele>359.0</ele><time>2026-04-11T13:55:57.256Z</time></trkpt><trkpt lat="40.7640942" lon="17.3318457"><ele>359.0</ele><time>2026-04-11T13:55:58.248Z</time></trkpt><trkpt lat="40.7641767" lon="17.3318893"><ele>359.0</ele><time>2026-04-11T13:55:59.279Z</time></trkpt><trkpt lat="40.7642638" lon="17.3319381"><ele>359.0</ele><time>2026-04-11T13:56:00.238Z</time></trkpt><trkpt lat="40.764342" lon="17.3319903"><ele>359.0</ele><time>2026-04-11T13:56:01.255Z</time></trkpt><trkpt lat="40.764434" lon="17.3320356"><ele>359.0</ele><time>2026-04-11T13:56:02.25Z</time></trkpt><trkpt lat="40.7645334" lon="17.3320989"><ele>358.5</ele><time>2026-04-11T13:56:03.248Z</time></trkpt><trkpt lat="40.7646355" lon="17.332172"><ele>358.0</ele><time>2026-04-11T13:56:04.256Z</time></trkpt><trkpt lat="40.7647458" lon="17.3322533"><ele>357.5</ele><time>2026-04-11T13:56:05.255Z</time></trkpt><trkpt lat="40.7648604" lon="17.3323478"><ele>357.0</ele><time>2026-04-11T13:56:06.253Z</time></trkpt><trkpt lat="40.7649689" lon="17.3324213"><ele>357.0</ele><time>2026-04-11T13:56:07.252Z</time></trkpt><trkpt lat="40.7650873" lon="17.3324811"><ele>357.0</ele><time>2026-04-11T13:56:08.252Z</time></trkpt><trkpt lat="40.7652195" lon="17.3325326"><ele>357.0</ele><time>2026-04-11T13:56:09.26Z</time></trkpt><trkpt lat="40.7653676" lon="17.3325615"><ele>357.0</ele><time>2026-04-11T13:56:10.249Z</time></trkpt><trkpt lat="40.7655129" lon="17.3326042"><ele>356.3333333333333</ele><time>2026-04-11T13:56:11.252Z</time></trkpt><trkpt lat="40.7656597" lon="17.3326486"><ele>355.66666666666663</ele><time>2026-04-11T13:56:12.244Z</time></trkpt><trkpt lat="40.7658342" lon="17.3326992"><ele>355.0</ele><time>2026-04-11T13:56:13.25Z</time></trkpt><trkpt lat="40.766003" lon="17.3327283"><ele>355.66666666666663</ele><time>2026-04-11T13:56:14.256Z</time></trkpt><trkpt lat="40.7661765" lon="17.3327642"><ele>356.3333333333333</ele><time>2026-04-11T13:56:15.256Z</time></trkpt><trkpt lat="40.7663439" lon="17.3328014"><ele>357.0</ele><time>2026-04-11T13:56:16.242Z</time></trkpt><trkpt lat="40.766522" lon="17.3328512"><ele>357.0</ele><time>2026-04-11T13:56:17.312Z</time></trkpt><trkpt lat="40.7667081" lon="17.3328855"><ele>357.0</ele><time>2026-04-11T13:56:18.282Z</time></trkpt><trkpt lat="40.7668842" lon="17.332922"><ele>357.0</ele><time>2026-04-11T13:56:19.241Z</time></trkpt><trkpt lat="40.7670619" lon="17.332959"><ele>358.3333333333333</ele><time>2026-04-11T13:56:20.248Z</time></trkpt><trkpt lat="40.7672331" lon="17.3329975"><ele>359.66666666666663</ele><time>2026-04-11T13:56:21.28Z</time></trkpt><trkpt lat="40.7674077" lon="17.3330342"><ele>361.0</ele><time>2026-04-11T13:56:22.276Z</time></trkpt><trkpt lat="40.7675831" lon="17.3330878"><ele>363.0</ele><time>2026-04-11T13:56:23.279Z</time></trkpt><trkpt lat="40.7677534" lon="17.3331207"><ele>365.0</ele><time>2026-04-11T13:56:24.262Z</time></trkpt><trkpt lat="40.7679183" lon="17.3331447"><ele>367.0</ele><time>2026-04-11T13:56:25.249Z</time></trkpt><trkpt lat="40.7680749" lon="17.3331826"><ele>367.0</ele><time>2026-04-11T13:56:26.25Z</time></trkpt><trkpt lat="40.768243" lon="17.3332207"><ele>367.0</ele><time>2026-04-11T13:56:27.238Z</time></trkpt><trkpt lat="40.7684077" lon="17.3332792"><ele>367.0</ele><time>2026-04-11T13:56:28.256Z</time></trkpt><trkpt lat="40.7685669" lon="17.3333304"><ele>366.0</ele><time>2026-04-11T13:56:29.256Z</time></trkpt><trkpt lat="40.7687244" lon="17.3333847"><ele>365.0</ele><time>2026-04-11T13:56:30.259Z</time></trkpt><trkpt lat="40.7688892" lon="17.3334495"><ele>364.0</ele><time>2026-04-11T13:56:31.254Z</time></trkpt><trkpt lat="40.7690453" lon="17.3335051"><ele>364.0</ele><time>2026-04-11T13:56:32.257Z</time></trkpt><trkpt lat="40.76921" lon="17.3335613"><ele>364.0</ele><time>2026-04-11T13:56:33.251Z</time></trkpt><trkpt lat="40.7693752" lon="17.3336075"><ele>364.0</ele><time>2026-04-11T13:56:34.258Z</time></trkpt><trkpt lat="40.7695281" lon="17.3336621"><ele>362.0</ele><time>2026-04-11T13:56:35.255Z</time></trkpt><trkpt lat="40.7696934" lon="17.3337313"><ele>360.0</ele><time>2026-04-11T13:56:36.26Z</time></trkpt><trkpt lat="40.7698624" lon="17.3337947"><ele>358.0</ele><time>2026-04-11T13:56:37.255Z</time></trkpt><trkpt lat="40.7700258" lon="17.3338528"><ele>359.3333333333333</ele><time>2026-04-11T13:56:38.242Z</time></trkpt><trkpt lat="40.7701915" lon="17.3339204"><ele>360.6666666666667</ele><time>2026-04-11T13:56:39.25Z</time></trkpt><trkpt lat="40.770355" lon="17.333981"><ele>362.0</ele><time>2026-04-11T13:56:40.242Z</time></trkpt><trkpt lat="40.7705238" lon="17.3340897"><ele>362.33333333333337</ele><time>2026-04-11T13:56:41.254Z</time></trkpt><trkpt lat="40.7706834" lon="17.3341269"><ele>362.6666666666667</ele><time>2026-04-11T13:56:42.29Z</time></trkpt><trkpt lat="40.7708451" lon="17.3341845"><ele>363.0</ele><time>2026-04-11T13:56:43.241Z</time></trkpt><trkpt lat="40.7710109" lon="17.3342427"><ele>364.0</ele><time>2026-04-11T13:56:44.262Z</time></trkpt><trkpt lat="40.771168" lon="17.3342943"><ele>365.0</ele><time>2026-04-11T13:56:45.264Z</time></trkpt><trkpt lat="40.7713324" lon="17.3343458"><ele>366.0</ele><time>2026-04-11T13:56:46.257Z</time></trkpt><trkpt lat="40.7715013" lon="17.3344018"><ele>366.0</ele><time>2026-04-11T13:56:47.26Z</time></trkpt><trkpt lat="40.7716731" lon="17.3344686"><ele>366.0</ele><time>2026-04-11T13:56:48.257Z</time></trkpt><trkpt lat="40.7718532" lon="17.3345292"><ele>366.0</ele><time>2026-04-11T13:56:49.26Z</time></trkpt><trkpt lat="40.7720292" lon="17.3346119"><ele>366.0</ele><time>2026-04-11T13:56:50.254Z</time></trkpt><trkpt lat="40.7722106" lon="17.334689"><ele>366.0</ele><time>2026-04-11T13:56:51.247Z</time></trkpt><trkpt lat="40.7723939" lon="17.3347508"><ele>366.0</ele><time>2026-04-11T13:56:52.25Z</time></trkpt><trkpt lat="40.7725752" lon="17.3348167"><ele>365.6666666666667</ele><time>2026-04-11T13:56:53.245Z</time></trkpt><trkpt lat="40.7727561" lon="17.3348781"><ele>365.33333333333337</ele><time>2026-04-11T13:56:54.244Z</time></trkpt><trkpt lat="40.7729372" lon="17.334918"><ele>365.0</ele><time>2026-04-11T13:56:55.247Z</time></trkpt><trkpt lat="40.773114" lon="17.3349689"><ele>365.0</ele><time>2026-04-11T13:56:56.245Z</time></trkpt><trkpt lat="40.7732933" lon="17.3350264"><ele>365.0</ele><time>2026-04-11T13:56:57.246Z</time></trkpt><trkpt lat="40.7734631" lon="17.3350835"><ele>365.0</ele><time>2026-04-11T13:56:58.247Z</time></trkpt><trkpt lat="40.7736384" lon="17.3351537"><ele>365.0</ele><time>2026-04-11T13:56:59.251Z</time></trkpt><trkpt lat="40.7738077" lon="17.3352158"><ele>365.0</ele><time>2026-04-11T13:57:00.248Z</time></trkpt><trkpt lat="40.7739791" lon="17.3352803"><ele>365.0</ele><time>2026-04-11T13:57:01.25Z</time></trkpt><trkpt lat="40.7741536" lon="17.335335"><ele>365.0</ele><time>2026-04-11T13:57:02.247Z</time></trkpt><trkpt lat="40.7743323" lon="17.3353958"><ele>365.0</ele><time>2026-04-11T13:57:03.257Z</time></trkpt><trkpt lat="40.7745027" lon="17.3354511"><ele>365.0</ele><time>2026-04-11T13:57:04.253Z</time></trkpt><trkpt lat="40.7746748" lon="17.3355085"><ele>365.0</ele><time>2026-04-11T13:57:05.246Z</time></trkpt><trkpt lat="40.7748304" lon="17.3355635"><ele>365.0</ele><time>2026-04-11T13:57:06.246Z</time></trkpt><trkpt lat="40.7749905" lon="17.3356325"><ele>365.0</ele><time>2026-04-11T13:57:07.252Z</time></trkpt><trkpt lat="40.7751419" lon="17.3356899"><ele>365.0</ele><time>2026-04-11T13:57:08.253Z</time></trkpt><trkpt lat="40.7752853" lon="17.3357561"><ele>365.0</ele><time>2026-04-11T13:57:09.249Z</time></trkpt><trkpt lat="40.7754291" lon="17.3358163"><ele>365.0</ele><time>2026-04-11T13:57:10.252Z</time></trkpt><trkpt lat="40.7755661" lon="17.3358879"><ele>365.0</ele><time>2026-04-11T13:57:11.247Z</time></trkpt><trkpt lat="40.7756986" lon="17.3359646"><ele>365.0</ele><time>2026-04-11T13:57:12.247Z</time></trkpt><trkpt lat="40.7758352" lon="17.3360462"><ele>365.0</ele><time>2026-04-11T13:57:13.25Z</time></trkpt><trkpt lat="40.7759725" lon="17.3361246"><ele>365.0</ele><time>2026-04-11T13:57:14.251Z</time></trkpt><trkpt lat="40.7761175" lon="17.3362113"><ele>364.0</ele><time>2026-04-11T13:57:15.256Z</time></trkpt><trkpt lat="40.7762695" lon="17.3362998"><ele>363.0</ele><time>2026-04-11T13:57:16.255Z</time></trkpt><trkpt lat="40.7764299" lon="17.3363886"><ele>362.0</ele><time>2026-04-11T13:57:17.252Z</time></trkpt><trkpt lat="40.7765915" lon="17.3364725"><ele>361.5</ele><time>2026-04-11T13:57:18.35Z</time></trkpt><trkpt lat="40.7769281" lon="17.336657"><ele>361.0</ele><time>2026-04-11T13:57:20.265Z</time></trkpt><trkpt lat="40.7771059" lon="17.3367493"><ele>361.0</ele><time>2026-04-11T13:57:21.244Z</time></trkpt><trkpt lat="40.777288" lon="17.3368472"><ele>361.0</ele><time>2026-04-11T13:57:22.248Z</time></trkpt><trkpt lat="40.7774712" lon="17.3369498"><ele>361.0</ele><time>2026-04-11T13:57:23.242Z</time></trkpt><trkpt lat="40.777651" lon="17.3370622"><ele>361.66666666666663</ele><time>2026-04-11T13:57:24.244Z</time></trkpt><trkpt lat="40.777835" lon="17.3371752"><ele>362.3333333333333</ele><time>2026-04-11T13:57:25.248Z</time></trkpt><trkpt lat="40.778012" lon="17.3372768"><ele>363.0</ele><time>2026-04-11T13:57:26.245Z</time></trkpt><trkpt lat="40.7782039" lon="17.3373872"><ele>363.6666666666667</ele><time>2026-04-11T13:57:27.259Z</time></trkpt><trkpt lat="40.7783957" lon="17.3375088"><ele>364.33333333333337</ele><time>2026-04-11T13:57:28.262Z</time></trkpt><trkpt lat="40.7785806" lon="17.3376128"><ele>365.0</ele><time>2026-04-11T13:57:29.257Z</time></trkpt><trkpt lat="40.7787794" lon="17.3377329"><ele>363.6666666666667</ele><time>2026-04-11T13:57:30.26Z</time></trkpt><trkpt lat="40.7789728" lon="17.337845"><ele>362.3333333333333</ele><time>2026-04-11T13:57:31.244Z</time></trkpt><trkpt lat="40.7791654" lon="17.3379682"><ele>361.0</ele><time>2026-04-11T13:57:32.249Z</time></trkpt><trkpt lat="40.7793509" lon="17.3380884"><ele>360.3333333333333</ele><time>2026-04-11T13:57:33.242Z</time></trkpt><trkpt lat="40.7795416" lon="17.3381889"><ele>359.6666666666667</ele><time>2026-04-11T13:57:34.279Z</time></trkpt><trkpt lat="40.7797341" lon="17.3383026"><ele>359.0</ele><time>2026-04-11T13:57:35.254Z</time></trkpt><trkpt lat="40.7799122" lon="17.3384028"><ele>359.0</ele><time>2026-04-11T13:57:36.258Z</time></trkpt><trkpt lat="40.7801039" lon="17.3385092"><ele>359.0</ele><time>2026-04-11T13:57:37.282Z</time></trkpt><trkpt lat="40.7803114" lon="17.3385896"><ele>359.0</ele><time>2026-04-11T13:57:38.25Z</time></trkpt><trkpt lat="40.7805165" lon="17.3386668"><ele>358.33333333333337</ele><time>2026-04-11T13:57:39.287Z</time></trkpt><trkpt lat="40.780715" lon="17.338741"><ele>357.6666666666667</ele><time>2026-04-11T13:57:40.241Z</time></trkpt><trkpt lat="40.7809237" lon="17.3387963"><ele>357.0</ele><time>2026-04-11T13:57:41.273Z</time></trkpt><trkpt lat="40.7811268" lon="17.3388514"><ele>360.6666666666667</ele><time>2026-04-11T13:57:42.239Z</time></trkpt><trkpt lat="40.7813397" lon="17.3388943"><ele>364.33333333333337</ele><time>2026-04-11T13:57:43.244Z</time></trkpt><trkpt lat="40.7815487" lon="17.3389382"><ele>368.0</ele><time>2026-04-11T13:57:44.243Z</time></trkpt><trkpt lat="40.7817657" lon="17.3389668"><ele>367.6666666666667</ele><time>2026-04-11T13:57:45.282Z</time></trkpt><trkpt lat="40.7819762" lon="17.3390124"><ele>367.3333333333333</ele><time>2026-04-11T13:57:46.258Z</time></trkpt><trkpt lat="40.7821922" lon="17.3390499"><ele>367.0</ele><time>2026-04-11T13:57:47.288Z</time></trkpt><trkpt lat="40.7824067" lon="17.3390874"><ele>367.0</ele><time>2026-04-11T13:57:48.25Z</time></trkpt><trkpt lat="40.7826223" lon="17.3391509"><ele>367.0</ele><time>2026-04-11T13:57:49.255Z</time></trkpt><trkpt lat="40.7828379" lon="17.3391831"><ele>367.0</ele><time>2026-04-11T13:57:50.247Z</time></trkpt><trkpt lat="40.783053" lon="17.3392153"><ele>366.0</ele><time>2026-04-11T13:57:51.251Z</time></trkpt><trkpt lat="40.7832552" lon="17.3392834"><ele>365.0</ele><time>2026-04-11T13:57:52.252Z</time></trkpt><trkpt lat="40.7834516" lon="17.3393804"><ele>364.0</ele><time>2026-04-11T13:57:53.322Z</time></trkpt><trkpt lat="40.7836612" lon="17.3394836"><ele>363.3333333333333</ele><time>2026-04-11T13:57:54.285Z</time></trkpt><trkpt lat="40.7838649" lon="17.339588"><ele>362.6666666666667</ele><time>2026-04-11T13:57:55.238Z</time></trkpt><trkpt lat="40.7840582" lon="17.33971"><ele>362.0</ele><time>2026-04-11T13:57:56.24Z</time></trkpt><trkpt lat="40.7842496" lon="17.3398316"><ele>361.6666666666667</ele><time>2026-04-11T13:57:57.249Z</time></trkpt><trkpt lat="40.784443" lon="17.339987"><ele>361.3333333333333</ele><time>2026-04-11T13:57:58.282Z</time></trkpt><trkpt lat="40.7846337" lon="17.3401297"><ele>361.0</ele><time>2026-04-11T13:57:59.277Z</time></trkpt><trkpt lat="40.7848176" lon="17.3402773"><ele>361.0</ele><time>2026-04-11T13:58:00.383Z</time></trkpt><trkpt lat="40.7850077" lon="17.340435"><ele>361.0</ele><time>2026-04-11T13:58:01.287Z</time></trkpt><trkpt lat="40.7851901" lon="17.3406051"><ele>361.0</ele><time>2026-04-11T13:58:02.285Z</time></trkpt><trkpt lat="40.7853704" lon="17.3407787"><ele>361.3333333333333</ele><time>2026-04-11T13:58:03.275Z</time></trkpt><trkpt lat="40.7855354" lon="17.3409621"><ele>361.6666666666667</ele><time>2026-04-11T13:58:04.28Z</time></trkpt><trkpt lat="40.785708" lon="17.3411373"><ele>362.0</ele><time>2026-04-11T13:58:05.245Z</time></trkpt><trkpt lat="40.7858742" lon="17.3413009"><ele>362.33333333333337</ele><time>2026-04-11T13:58:06.281Z</time></trkpt><trkpt lat="40.7860409" lon="17.3414684"><ele>362.6666666666667</ele><time>2026-04-11T13:58:07.28Z</time></trkpt><trkpt lat="40.7861949" lon="17.3416389"><ele>363.0</ele><time>2026-04-11T13:58:08.283Z</time></trkpt><trkpt lat="40.7863563" lon="17.3418047"><ele>363.0</ele><time>2026-04-11T13:58:09.239Z</time></trkpt><trkpt lat="40.7864993" lon="17.3419785"><ele>363.0</ele><time>2026-04-11T13:58:10.277Z</time></trkpt><trkpt lat="40.7866637" lon="17.3421347"><ele>363.0</ele><time>2026-04-11T13:58:11.275Z</time></trkpt><trkpt lat="40.7868325" lon="17.3422906"><ele>362.6666666666667</ele><time>2026-04-11T13:58:12.262Z</time></trkpt><trkpt lat="40.7869789" lon="17.3424633"><ele>362.33333333333337</ele><time>2026-04-11T13:58:13.266Z</time></trkpt><trkpt lat="40.78712" lon="17.3426286"><ele>362.0</ele><time>2026-04-11T13:58:14.252Z</time></trkpt><trkpt lat="40.7872663" lon="17.3427722"><ele>362.0</ele><time>2026-04-11T13:58:15.257Z</time></trkpt><trkpt lat="40.7874134" lon="17.3429331"><ele>362.0</ele><time>2026-04-11T13:58:16.257Z</time></trkpt><trkpt lat="40.7875544" lon="17.3430735"><ele>362.0</ele><time>2026-04-11T13:58:17.257Z</time></trkpt><trkpt lat="40.7877007" lon="17.3432351"><ele>361.0</ele><time>2026-04-11T13:58:18.262Z</time></trkpt><trkpt lat="40.7878477" lon="17.3433897"><ele>360.0</ele><time>2026-04-11T13:58:19.258Z</time></trkpt><trkpt lat="40.7879926" lon="17.3435383"><ele>359.0</ele><time>2026-04-11T13:58:20.243Z</time></trkpt><trkpt lat="40.7881276" lon="17.3436983"><ele>359.0</ele><time>2026-04-11T13:58:21.253Z</time></trkpt><trkpt lat="40.7882694" lon="17.3438528"><ele>359.0</ele><time>2026-04-11T13:58:22.258Z</time></trkpt><trkpt lat="40.7884099" lon="17.3439947"><ele>359.0</ele><time>2026-04-11T13:58:23.256Z</time></trkpt><trkpt lat="40.7885617" lon="17.3441508"><ele>358.6666666666667</ele><time>2026-04-11T13:58:24.261Z</time></trkpt><trkpt lat="40.7887018" lon="17.3443064"><ele>358.3333333333333</ele><time>2026-04-11T13:58:25.283Z</time></trkpt><trkpt lat="40.7888524" lon="17.3444671"><ele>358.0</ele><time>2026-04-11T13:58:26.273Z</time></trkpt><trkpt lat="40.7890152" lon="17.3446298"><ele>356.66666666666663</ele><time>2026-04-11T13:58:27.254Z</time></trkpt><trkpt lat="40.7892067" lon="17.3447725"><ele>355.3333333333333</ele><time>2026-04-11T13:58:28.262Z</time></trkpt><trkpt lat="40.7893801" lon="17.3449296"><ele>354.0</ele><time>2026-04-11T13:58:29.29Z</time></trkpt><trkpt lat="40.7895523" lon="17.3450835"><ele>353.6666666666667</ele><time>2026-04-11T13:58:30.242Z</time></trkpt><trkpt lat="40.7896959" lon="17.3452556"><ele>353.33333333333337</ele><time>2026-04-11T13:58:31.278Z</time></trkpt><trkpt lat="40.7898867" lon="17.3454117"><ele>353.0</ele><time>2026-04-11T13:58:32.253Z</time></trkpt><trkpt lat="40.7900493" lon="17.3455494"><ele>353.0</ele><time>2026-04-11T13:58:33.249Z</time></trkpt><trkpt lat="40.7901974" lon="17.3457126"><ele>353.0</ele><time>2026-04-11T13:58:34.252Z</time></trkpt><trkpt lat="40.7903721" lon="17.3458329"><ele>353.0</ele><time>2026-04-11T13:58:35.282Z</time></trkpt><trkpt lat="40.7905522" lon="17.3459459"><ele>353.0</ele><time>2026-04-11T13:58:36.254Z</time></trkpt><trkpt lat="40.7907256" lon="17.3460605"><ele>353.0</ele><time>2026-04-11T13:58:37.242Z</time></trkpt><trkpt lat="40.7908932" lon="17.3461691"><ele>353.0</ele><time>2026-04-11T13:58:38.247Z</time></trkpt><trkpt lat="40.791065" lon="17.3462744"><ele>351.6666666666667</ele><time>2026-04-11T13:58:39.28Z</time></trkpt><trkpt lat="40.7912329" lon="17.3463808"><ele>350.3333333333333</ele><time>2026-04-11T13:58:40.237Z</time></trkpt><trkpt lat="40.7913812" lon="17.3464841"><ele>349.0</ele><time>2026-04-11T13:58:41.255Z</time></trkpt><trkpt lat="40.7915436" lon="17.3465963"><ele>349.0</ele><time>2026-04-11T13:58:42.258Z</time></trkpt><trkpt lat="40.7917118" lon="17.3467045"><ele>349.0</ele><time>2026-04-11T13:58:43.242Z</time></trkpt><trkpt lat="40.7918983" lon="17.3468112"><ele>349.0</ele><time>2026-04-11T13:58:44.262Z</time></trkpt><trkpt lat="40.7920704" lon="17.3469068"><ele>348.66666666666663</ele><time>2026-04-11T13:58:45.25Z</time></trkpt><trkpt lat="40.7922339" lon="17.3470084"><ele>348.3333333333333</ele><time>2026-04-11T13:58:46.238Z</time></trkpt><trkpt lat="40.7924008" lon="17.3471114"><ele>348.0</ele><time>2026-04-11T13:58:47.25Z</time></trkpt><trkpt lat="40.7925588" lon="17.3472163"><ele>347.3333333333333</ele><time>2026-04-11T13:58:48.239Z</time></trkpt><trkpt lat="40.7927349" lon="17.3473092"><ele>346.66666666666663</ele><time>2026-04-11T13:58:49.281Z</time></trkpt><trkpt lat="40.7928823" lon="17.3474148"><ele>346.0</ele><time>2026-04-11T13:58:50.248Z</time></trkpt><trkpt lat="40.7930403" lon="17.3475226"><ele>346.0</ele><time>2026-04-11T13:58:51.28Z</time></trkpt><trkpt lat="40.7931945" lon="17.3476242"><ele>346.0</ele><time>2026-04-11T13:58:52.25Z</time></trkpt><trkpt lat="40.7933459" lon="17.3477194"><ele>346.0</ele><time>2026-04-11T13:58:53.25Z</time></trkpt><trkpt lat="40.793476" lon="17.347819"><ele>345.0</ele><time>2026-04-11T13:58:54.286Z</time></trkpt><trkpt lat="40.79362" lon="17.3479033"><ele>344.0</ele><time>2026-04-11T13:58:55.258Z</time></trkpt><trkpt lat="40.7937644" lon="17.3479862"><ele>343.0</ele><time>2026-04-11T13:58:56.262Z</time></trkpt><trkpt lat="40.793915" lon="17.3480723"><ele>342.3333333333333</ele><time>2026-04-11T13:58:57.255Z</time></trkpt><trkpt lat="40.7940727" lon="17.348145"><ele>341.6666666666667</ele><time>2026-04-11T13:58:58.261Z</time></trkpt><trkpt lat="40.7942288" lon="17.3482253"><ele>341.0</ele><time>2026-04-11T13:58:59.259Z</time></trkpt><trkpt lat="40.794373" lon="17.3482976"><ele>341.0</ele><time>2026-04-11T13:59:00.251Z</time></trkpt><trkpt lat="40.7945125" lon="17.3483509"><ele>341.0</ele><time>2026-04-11T13:59:01.256Z</time></trkpt><trkpt lat="40.7946795" lon="17.3484325"><ele>341.0</ele><time>2026-04-11T13:59:02.245Z</time></trkpt><trkpt lat="40.7948464" lon="17.348511"><ele>341.0</ele><time>2026-04-11T13:59:03.251Z</time></trkpt><trkpt lat="40.7950156" lon="17.3485933"><ele>341.0</ele><time>2026-04-11T13:59:04.246Z</time></trkpt><trkpt lat="40.7952112" lon="17.3486914"><ele>341.0</ele><time>2026-04-11T13:59:05.248Z</time></trkpt><trkpt lat="40.7953928" lon="17.3487797"><ele>340.6666666666667</ele><time>2026-04-11T13:59:06.255Z</time></trkpt><trkpt lat="40.7955817" lon="17.3488728"><ele>340.3333333333333</ele><time>2026-04-11T13:59:07.324Z</time></trkpt><trkpt lat="40.7957603" lon="17.348961"><ele>340.0</ele><time>2026-04-11T13:59:08.243Z</time></trkpt><trkpt lat="40.7959139" lon="17.3490447"><ele>340.0</ele><time>2026-04-11T13:59:09.276Z</time></trkpt><trkpt lat="40.7960758" lon="17.3491349"><ele>340.0</ele><time>2026-04-11T13:59:10.253Z</time></trkpt><trkpt lat="40.7962257" lon="17.3492293"><ele>340.0</ele><time>2026-04-11T13:59:11.284Z</time></trkpt><trkpt lat="40.7963469" lon="17.3493492"><ele>340.0</ele><time>2026-04-11T13:59:12.277Z</time></trkpt><trkpt lat="40.7964695" lon="17.3494622"><ele>340.0</ele><time>2026-04-11T13:59:13.238Z</time></trkpt><trkpt lat="40.7965445" lon="17.3496107"><ele>340.0</ele><time>2026-04-11T13:59:14.248Z</time></trkpt><trkpt lat="40.7966438" lon="17.3497501"><ele>340.0</ele><time>2026-04-11T13:59:15.242Z</time></trkpt><trkpt lat="40.7967019" lon="17.3499004"><ele>340.25</ele><time>2026-04-11T13:59:16.271Z</time></trkpt><trkpt lat="40.7967822" lon="17.3500587"><ele>340.5</ele><time>2026-04-11T13:59:17.262Z</time></trkpt><trkpt lat="40.7968483" lon="17.3502002"><ele>340.75</ele><time>2026-04-11T13:59:18.281Z</time></trkpt><trkpt lat="40.7969122" lon="17.3503353"><ele>341.0</ele><time>2026-04-11T13:59:19.251Z</time></trkpt><trkpt lat="40.7969929" lon="17.3504632"><ele>340.5</ele><time>2026-04-11T13:59:20.288Z</time></trkpt><trkpt lat="40.7970647" lon="17.3505925"><ele>340.0</ele><time>2026-04-11T13:59:21.239Z</time></trkpt><trkpt lat="40.7971509" lon="17.3507253"><ele>339.5</ele><time>2026-04-11T13:59:22.241Z</time></trkpt><trkpt lat="40.7972143" lon="17.35086"><ele>339.0</ele><time>2026-04-11T13:59:23.277Z</time></trkpt><trkpt lat="40.797294" lon="17.3509871"><ele>339.0</ele><time>2026-04-11T13:59:24.247Z</time></trkpt><trkpt lat="40.7973586" lon="17.3511093"><ele>339.0</ele><time>2026-04-11T13:59:25.25Z</time></trkpt><trkpt lat="40.7974368" lon="17.351227"><ele>339.0</ele><time>2026-04-11T13:59:26.249Z</time></trkpt><trkpt lat="40.7974834" lon="17.3513684"><ele>339.0</ele><time>2026-04-11T13:59:27.251Z</time></trkpt><trkpt lat="40.7975387" lon="17.3514892"><ele>339.0</ele><time>2026-04-11T13:59:28.244Z</time></trkpt><trkpt lat="40.7975909" lon="17.3516026"><ele>339.0</ele><time>2026-04-11T13:59:29.246Z</time></trkpt><trkpt lat="40.7976738" lon="17.3516987"><ele>339.0</ele><time>2026-04-11T13:59:30.245Z</time></trkpt><trkpt lat="40.7977768" lon="17.3517737"><ele>339.0</ele><time>2026-04-11T13:59:31.254Z</time></trkpt><trkpt lat="40.7978633" lon="17.3518501"><ele>339.0</ele><time>2026-04-11T13:59:32.249Z</time></trkpt><trkpt lat="40.7980017" lon="17.3518833"><ele>337.75</ele><time>2026-04-11T13:59:33.248Z</time></trkpt><trkpt lat="40.7981382" lon="17.3519204"><ele>336.5</ele><time>2026-04-11T13:59:34.245Z</time></trkpt><trkpt lat="40.7982889" lon="17.3519601"><ele>335.25</ele><time>2026-04-11T13:59:35.252Z</time></trkpt><trkpt lat="40.7984387" lon="17.3519868"><ele>334.0</ele><time>2026-04-11T13:59:36.243Z</time></trkpt><trkpt lat="40.7985722" lon="17.3520094"><ele>332.25</ele><time>2026-04-11T13:59:37.245Z</time></trkpt><trkpt lat="40.798698" lon="17.3520392"><ele>330.5</ele><time>2026-04-11T13:59:38.249Z</time></trkpt><trkpt lat="40.7988145" lon="17.3520709"><ele>328.75</ele><time>2026-04-11T13:59:39.253Z</time></trkpt><trkpt lat="40.7989218" lon="17.3521187"><ele>327.0</ele><time>2026-04-11T13:59:40.252Z</time></trkpt><trkpt lat="40.7990289" lon="17.3522142"><ele>327.0</ele><time>2026-04-11T13:59:41.251Z</time></trkpt><trkpt lat="40.7991324" lon="17.35229"><ele>327.0</ele><time>2026-04-11T13:59:42.25Z</time></trkpt><trkpt lat="40.799242" lon="17.3523393"><ele>327.0</ele><time>2026-04-11T13:59:43.25Z</time></trkpt><trkpt lat="40.7993489" lon="17.3523801"><ele>327.0</ele><time>2026-04-11T13:59:44.245Z</time></trkpt><trkpt lat="40.7994757" lon="17.3523891"><ele>325.5</ele><time>2026-04-11T13:59:45.245Z</time></trkpt><trkpt lat="40.7995891" lon="17.352377"><ele>324.0</ele><time>2026-04-11T13:59:46.253Z</time></trkpt><trkpt lat="40.7997241" lon="17.3523612"><ele>322.5</ele><time>2026-04-11T13:59:47.246Z</time></trkpt><trkpt lat="40.799856" lon="17.3523578"><ele>321.0</ele><time>2026-04-11T13:59:48.251Z</time></trkpt><trkpt lat="40.7999733" lon="17.3523158"><ele>321.0</ele><time>2026-04-11T13:59:49.253Z</time></trkpt><trkpt lat="40.8000929" lon="17.352309"><ele>321.0</ele><time>2026-04-11T13:59:50.251Z</time></trkpt><trkpt lat="40.8001945" lon="17.3522974"><ele>321.0</ele><time>2026-04-11T13:59:51.253Z</time></trkpt><trkpt lat="40.8003076" lon="17.3522974"><ele>321.0</ele><time>2026-04-11T13:59:52.244Z</time></trkpt><trkpt lat="40.8004056" lon="17.352276"><ele>321.0</ele><time>2026-04-11T13:59:53.251Z</time></trkpt><trkpt lat="40.8005167" lon="17.3522795"><ele>321.20000000000005</ele><time>2026-04-11T13:59:54.247Z</time></trkpt><trkpt lat="40.80062" lon="17.352259"><ele>321.40000000000003</ele><time>2026-04-11T13:59:55.247Z</time></trkpt><trkpt lat="40.8007217" lon="17.3522279"><ele>321.6</ele><time>2026-04-11T13:59:56.246Z</time></trkpt><trkpt lat="40.800828" lon="17.3522015"><ele>321.8</ele><time>2026-04-11T13:59:57.248Z</time></trkpt><trkpt lat="40.8009227" lon="17.3521834"><ele>322.0</ele><time>2026-04-11T13:59:58.246Z</time></trkpt><trkpt lat="40.8010274" lon="17.3521929"><ele>320.40000000000003</ele><time>2026-04-11T13:59:59.253Z</time></trkpt><trkpt lat="40.8011343" lon="17.3522251"><ele>318.8</ele><time>2026-04-11T14:00:00.249Z</time></trkpt><trkpt lat="40.8012369" lon="17.3522493"><ele>317.2</ele><time>2026-04-11T14:00:01.251Z</time></trkpt><trkpt lat="40.8013385" lon="17.3522749"><ele>315.6</ele><time>2026-04-11T14:00:02.244Z</time></trkpt><trkpt lat="40.801438" lon="17.3522799"><ele>314.0</ele><time>2026-04-11T14:00:03.245Z</time></trkpt><trkpt lat="40.8015208" lon="17.3522563"><ele>313.8</ele><time>2026-04-11T14:00:04.245Z</time></trkpt><trkpt lat="40.8016058" lon="17.3522041"><ele>313.59999999999997</ele><time>2026-04-11T14:00:05.249Z</time></trkpt><trkpt lat="40.8017141" lon="17.3521238"><ele>313.4</ele><time>2026-04-11T14:00:06.249Z</time></trkpt><trkpt lat="40.8018126" lon="17.3520636"><ele>313.2</ele><time>2026-04-11T14:00:07.305Z</time></trkpt><trkpt lat="40.8019132" lon="17.3520125"><ele>313.0</ele><time>2026-04-11T14:00:08.248Z</time></trkpt><trkpt lat="40.8020152" lon="17.351953"><ele>313.0</ele><time>2026-04-11T14:00:09.262Z</time></trkpt><trkpt lat="40.8021256" lon="17.3519153"><ele>313.0</ele><time>2026-04-11T14:00:10.267Z</time></trkpt><trkpt lat="40.8022355" lon="17.3518613"><ele>313.0</ele><time>2026-04-11T14:00:11.252Z</time></trkpt><trkpt lat="40.802354" lon="17.3518179"><ele>313.0</ele><time>2026-04-11T14:00:12.251Z</time></trkpt><trkpt lat="40.8024881" lon="17.3517809"><ele>313.0</ele><time>2026-04-11T14:00:13.248Z</time></trkpt><trkpt lat="40.8026119" lon="17.3517431"><ele>313.0</ele><time>2026-04-11T14:00:14.243Z</time></trkpt><trkpt lat="40.8027236" lon="17.3516934"><ele>313.0</ele><time>2026-04-11T14:00:15.243Z</time></trkpt><trkpt lat="40.8028459" lon="17.3516347"><ele>313.0</ele><time>2026-04-11T14:00:16.254Z</time></trkpt><trkpt lat="40.8029695" lon="17.3515763"><ele>309.25</ele><time>2026-04-11T14:00:17.28Z</time></trkpt><trkpt lat="40.8030827" lon="17.3515118"><ele>305.5</ele><time>2026-04-11T14:00:18.245Z</time></trkpt><trkpt lat="40.8031957" lon="17.351453"><ele>301.75</ele><time>2026-04-11T14:00:19.253Z</time></trkpt><trkpt lat="40.8033094" lon="17.3514043"><ele>298.0</ele><time>2026-04-11T14:00:20.249Z</time></trkpt><trkpt lat="40.8034308" lon="17.3513743"><ele>302.75</ele><time>2026-04-11T14:00:21.252Z</time></trkpt><trkpt lat="40.8035568" lon="17.3513568"><ele>307.5</ele><time>2026-04-11T14:00:22.251Z</time></trkpt><trkpt lat="40.8036914" lon="17.3513566"><ele>312.25</ele><time>2026-04-11T14:00:23.25Z</time></trkpt><trkpt lat="40.8038125" lon="17.3513541"><ele>317.0</ele><time>2026-04-11T14:00:24.251Z</time></trkpt><trkpt lat="40.8039307" lon="17.3513536"><ele>317.0</ele><time>2026-04-11T14:00:25.248Z</time></trkpt><trkpt lat="40.8040501" lon="17.3513634"><ele>317.0</ele><time>2026-04-11T14:00:26.251Z</time></trkpt><trkpt lat="40.8041604" lon="17.3513683"><ele>317.0</ele><time>2026-04-11T14:00:27.246Z</time></trkpt><trkpt lat="40.8042697" lon="17.3513571"><ele>317.0</ele><time>2026-04-11T14:00:28.242Z</time></trkpt><trkpt lat="40.804369" lon="17.3513294"><ele>317.0</ele><time>2026-04-11T14:00:29.277Z</time></trkpt><trkpt lat="40.8044641" lon="17.3512772"><ele>312.0</ele><time>2026-04-11T14:00:30.329Z</time></trkpt><trkpt lat="40.8045605" lon="17.3512178"><ele>307.0</ele><time>2026-04-11T14:00:31.294Z</time></trkpt><trkpt lat="40.8046526" lon="17.3511416"><ele>302.0</ele><time>2026-04-11T14:00:32.284Z</time></trkpt><trkpt lat="40.8047391" lon="17.3510617"><ele>297.0</ele><time>2026-04-11T14:00:33.301Z</time></trkpt><trkpt lat="40.8048092" lon="17.3509561"><ele>292.0</ele><time>2026-04-11T14:00:34.25Z</time></trkpt><trkpt lat="40.8048757" lon="17.3508556"><ele>292.0</ele><time>2026-04-11T14:00:35.275Z</time></trkpt><trkpt lat="40.8049343" lon="17.3507392"><ele>292.0</ele><time>2026-04-11T14:00:36.244Z</time></trkpt><trkpt lat="40.8049827" lon="17.3506198"><ele>292.0</ele><time>2026-04-11T14:00:37.246Z</time></trkpt><trkpt lat="40.8050342" lon="17.3504923"><ele>292.0</ele><time>2026-04-11T14:00:38.285Z</time></trkpt><trkpt lat="40.8050844" lon="17.3503618"><ele>292.0</ele><time>2026-04-11T14:00:39.248Z</time></trkpt><trkpt lat="40.8051274" lon="17.3502235"><ele>289.6</ele><time>2026-04-11T14:00:40.25Z</time></trkpt><trkpt lat="40.8051635" lon="17.3500905"><ele>287.2</ele><time>2026-04-11T14:00:41.244Z</time></trkpt><trkpt lat="40.8051826" lon="17.349958"><ele>284.8</ele><time>2026-04-11T14:00:42.287Z</time></trkpt><trkpt lat="40.8052394" lon="17.3498459"><ele>282.4</ele><time>2026-04-11T14:00:43.251Z</time></trkpt><trkpt lat="40.8052832" lon="17.3497185"><ele>280.0</ele><time>2026-04-11T14:00:44.259Z</time></trkpt><trkpt lat="40.8053238" lon="17.3495782"><ele>280.0</ele><time>2026-04-11T14:00:45.245Z</time></trkpt><trkpt lat="40.8053717" lon="17.3494428"><ele>280.0</ele><time>2026-04-11T14:00:46.249Z</time></trkpt><trkpt lat="40.8054233" lon="17.3493147"><ele>280.0</ele><time>2026-04-11T14:00:47.3Z</time></trkpt><trkpt lat="40.8054812" lon="17.3491833"><ele>280.0</ele><time>2026-04-11T14:00:48.246Z</time></trkpt><trkpt lat="40.8055568" lon="17.3490702"><ele>280.0</ele><time>2026-04-11T14:00:49.247Z</time></trkpt><trkpt lat="40.8056301" lon="17.3489525"><ele>280.0</ele><time>2026-04-11T14:00:50.246Z</time></trkpt><trkpt lat="40.805685" lon="17.348833"><ele>280.0</ele><time>2026-04-11T14:00:51.25Z</time></trkpt><trkpt lat="40.8057545" lon="17.3487194"><ele>280.0</ele><time>2026-04-11T14:00:52.244Z</time></trkpt><trkpt lat="40.8058136" lon="17.348605"><ele>280.0</ele><time>2026-04-11T14:00:53.25Z</time></trkpt><trkpt lat="40.8059033" lon="17.3484992"><ele>279.4</ele><time>2026-04-11T14:00:54.256Z</time></trkpt><trkpt lat="40.805969" lon="17.3483851"><ele>278.8</ele><time>2026-04-11T14:00:55.255Z</time></trkpt><trkpt lat="40.8060398" lon="17.3482967"><ele>278.2</ele><time>2026-04-11T14:00:56.29Z</time></trkpt><trkpt lat="40.8061096" lon="17.3482008"><ele>277.6</ele><time>2026-04-11T14:00:57.277Z</time></trkpt><trkpt lat="40.8061582" lon="17.3481005"><ele>277.0</ele><time>2026-04-11T14:00:58.279Z</time></trkpt><trkpt lat="40.8062184" lon="17.3480038"><ele>277.0</ele><time>2026-04-11T14:00:59.24Z</time></trkpt><trkpt lat="40.8062587" lon="17.3479094"><ele>277.0</ele><time>2026-04-11T14:01:00.272Z</time></trkpt><trkpt lat="40.8063116" lon="17.3478192"><ele>277.0</ele><time>2026-04-11T14:01:01.279Z</time></trkpt><trkpt lat="40.8063663" lon="17.3477278"><ele>277.0</ele><time>2026-04-11T14:01:02.285Z</time></trkpt><trkpt lat="40.8064194" lon="17.347626"><ele>277.0</ele><time>2026-04-11T14:01:03.281Z</time></trkpt><trkpt lat="40.8064608" lon="17.3475162"><ele>277.0</ele><time>2026-04-11T14:01:04.278Z</time></trkpt><trkpt lat="40.8065533" lon="17.3474053"><ele>277.0</ele><time>2026-04-11T14:01:05.277Z</time></trkpt><trkpt lat="40.806653" lon="17.3472846"><ele>277.0</ele><time>2026-04-11T14:01:06.277Z</time></trkpt><trkpt lat="40.8067489" lon="17.3471703"><ele>277.0</ele><time>2026-04-11T14:01:07.238Z</time></trkpt><trkpt lat="40.8068924" lon="17.3470619"><ele>277.0</ele><time>2026-04-11T14:01:08.239Z</time></trkpt><trkpt lat="40.8070364" lon="17.3469671"><ele>276.3333333333333</ele><time>2026-04-11T14:01:09.285Z</time></trkpt><trkpt lat="40.8071676" lon="17.3468598"><ele>275.6666666666667</ele><time>2026-04-11T14:01:10.24Z</time></trkpt><trkpt lat="40.8073067" lon="17.3467527"><ele>275.0</ele><time>2026-04-11T14:01:11.275Z</time></trkpt><trkpt lat="40.807448" lon="17.3466427"><ele>275.0</ele><time>2026-04-11T14:01:12.242Z</time></trkpt><trkpt lat="40.8075851" lon="17.3465305"><ele>275.0</ele><time>2026-04-11T14:01:13.254Z</time></trkpt><trkpt lat="40.8077156" lon="17.3464184"><ele>275.0</ele><time>2026-04-11T14:01:14.253Z</time></trkpt><trkpt lat="40.8078429" lon="17.3463017"><ele>274.5</ele><time>2026-04-11T14:01:15.236Z</time></trkpt><trkpt lat="40.8079726" lon="17.3461928"><ele>274.0</ele><time>2026-04-11T14:01:16.253Z</time></trkpt><trkpt lat="40.8080804" lon="17.3460672"><ele>273.5</ele><time>2026-04-11T14:01:17.264Z</time></trkpt><trkpt lat="40.8081506" lon="17.3459552"><ele>273.0</ele><time>2026-04-11T14:01:18.267Z</time></trkpt><trkpt lat="40.8082445" lon="17.3458453"><ele>273.0</ele><time>2026-04-11T14:01:19.251Z</time></trkpt><trkpt lat="40.8083361" lon="17.3457458"><ele>273.0</ele><time>2026-04-11T14:01:20.276Z</time></trkpt><trkpt lat="40.8084294" lon="17.3456408"><ele>273.0</ele><time>2026-04-11T14:01:21.237Z</time></trkpt><trkpt lat="40.8085262" lon="17.3455514"><ele>273.0</ele><time>2026-04-11T14:01:22.25Z</time></trkpt><trkpt lat="40.8086223" lon="17.3454536"><ele>273.5</ele><time>2026-04-11T14:01:23.248Z</time></trkpt><trkpt lat="40.8087162" lon="17.3453604"><ele>274.0</ele><time>2026-04-11T14:01:24.243Z</time></trkpt><trkpt lat="40.8088168" lon="17.3452643"><ele>274.5</ele><time>2026-04-11T14:01:25.244Z</time></trkpt><trkpt lat="40.808923" lon="17.3451816"><ele>275.0</ele><time>2026-04-11T14:01:26.247Z</time></trkpt><trkpt lat="40.8090299" lon="17.3450997"><ele>275.0</ele><time>2026-04-11T14:01:27.249Z</time></trkpt><trkpt lat="40.8091705" lon="17.3450639"><ele>275.0</ele><time>2026-04-11T14:01:28.251Z</time></trkpt><trkpt lat="40.8093218" lon="17.3450389"><ele>275.0</ele><time>2026-04-11T14:01:29.251Z</time></trkpt><trkpt lat="40.809456" lon="17.3449928"><ele>275.0</ele><time>2026-04-11T14:01:30.251Z</time></trkpt><trkpt lat="40.809609" lon="17.3449751"><ele>272.25</ele><time>2026-04-11T14:01:31.258Z</time></trkpt><trkpt lat="40.8097512" lon="17.3449409"><ele>269.5</ele><time>2026-04-11T14:01:32.251Z</time></trkpt><trkpt lat="40.809907" lon="17.3449204"><ele>266.75</ele><time>2026-04-11T14:01:33.251Z</time></trkpt><trkpt lat="40.8100497" lon="17.3449056"><ele>264.0</ele><time>2026-04-11T14:01:34.251Z</time></trkpt><trkpt lat="40.8101936" lon="17.3448981"><ele>263.25</ele><time>2026-04-11T14:01:35.25Z</time></trkpt><trkpt lat="40.8103378" lon="17.3448989"><ele>262.5</ele><time>2026-04-11T14:01:36.245Z</time></trkpt><trkpt lat="40.8104739" lon="17.3449186"><ele>261.75</ele><time>2026-04-11T14:01:37.25Z</time></trkpt><trkpt lat="40.8106141" lon="17.3449698"><ele>261.0</ele><time>2026-04-11T14:01:38.252Z</time></trkpt><trkpt lat="40.8107481" lon="17.3450352"><ele>261.0</ele><time>2026-04-11T14:01:39.246Z</time></trkpt><trkpt lat="40.810873" lon="17.3451327"><ele>261.0</ele><time>2026-04-11T14:01:40.25Z</time></trkpt><trkpt lat="40.8109971" lon="17.3452269"><ele>261.0</ele><time>2026-04-11T14:01:41.249Z</time></trkpt><trkpt lat="40.8111155" lon="17.34533"><ele>261.0</ele><time>2026-04-11T14:01:42.244Z</time></trkpt><trkpt lat="40.8112188" lon="17.345438"><ele>260.25</ele><time>2026-04-11T14:01:43.245Z</time></trkpt><trkpt lat="40.8113202" lon="17.3455619"><ele>259.5</ele><time>2026-04-11T14:01:44.244Z</time></trkpt><trkpt lat="40.8114371" lon="17.3456809"><ele>258.75</ele><time>2026-04-11T14:01:45.243Z</time></trkpt><trkpt lat="40.8115522" lon="17.3458054"><ele>258.0</ele><time>2026-04-11T14:01:46.244Z</time></trkpt><trkpt lat="40.8116786" lon="17.3459267"><ele>258.0</ele><time>2026-04-11T14:01:47.253Z</time></trkpt><trkpt lat="40.8118069" lon="17.3460409"><ele>258.0</ele><time>2026-04-11T14:01:48.246Z</time></trkpt><trkpt lat="40.8119399" lon="17.3461419"><ele>258.0</ele><time>2026-04-11T14:01:49.245Z</time></trkpt><trkpt lat="40.8120795" lon="17.3462359"><ele>253.0</ele><time>2026-04-11T14:01:50.247Z</time></trkpt><trkpt lat="40.8122305" lon="17.3463148"><ele>248.0</ele><time>2026-04-11T14:01:51.256Z</time></trkpt><trkpt lat="40.8123887" lon="17.3463835"><ele>243.0</ele><time>2026-04-11T14:01:52.245Z</time></trkpt><trkpt lat="40.8125498" lon="17.3464381"><ele>242.33333333333331</ele><time>2026-04-11T14:01:53.248Z</time></trkpt><trkpt lat="40.8127151" lon="17.3464843"><ele>241.66666666666666</ele><time>2026-04-11T14:01:54.249Z</time></trkpt><trkpt lat="40.8128812" lon="17.3465239"><ele>241.0</ele><time>2026-04-11T14:01:55.242Z</time></trkpt><trkpt lat="40.8130552" lon="17.3465385"><ele>241.0</ele><time>2026-04-11T14:01:56.246Z</time></trkpt><trkpt lat="40.8132231" lon="17.346536"><ele>241.0</ele><time>2026-04-11T14:01:57.243Z</time></trkpt><trkpt lat="40.8133957" lon="17.3465343"><ele>241.0</ele><time>2026-04-11T14:01:58.243Z</time></trkpt><trkpt lat="40.8135688" lon="17.3465165"><ele>236.66666666666666</ele><time>2026-04-11T14:01:59.246Z</time></trkpt><trkpt lat="40.8137395" lon="17.3464786"><ele>232.33333333333331</ele><time>2026-04-11T14:02:00.246Z</time></trkpt><trkpt lat="40.8139046" lon="17.346428"><ele>228.0</ele><time>2026-04-11T14:02:01.244Z</time></trkpt><trkpt lat="40.8140565" lon="17.3463593"><ele>228.33333333333331</ele><time>2026-04-11T14:02:02.248Z</time></trkpt><trkpt lat="40.814211" lon="17.3462719"><ele>228.66666666666666</ele><time>2026-04-11T14:02:03.256Z</time></trkpt><trkpt lat="40.8143659" lon="17.3461753"><ele>229.0</ele><time>2026-04-11T14:02:04.245Z</time></trkpt><trkpt lat="40.8145243" lon="17.3460709"><ele>229.0</ele><time>2026-04-11T14:02:05.249Z</time></trkpt><trkpt lat="40.8146874" lon="17.3459555"><ele>229.0</ele><time>2026-04-11T14:02:06.245Z</time></trkpt><trkpt lat="40.8148465" lon="17.3458441"><ele>229.0</ele><time>2026-04-11T14:02:07.249Z</time></trkpt><trkpt lat="40.815001" lon="17.3457318"><ele>229.0</ele><time>2026-04-11T14:02:08.248Z</time></trkpt><trkpt lat="40.8151435" lon="17.3456015"><ele>229.0</ele><time>2026-04-11T14:02:09.253Z</time></trkpt><trkpt lat="40.8152914" lon="17.3454959"><ele>229.0</ele><time>2026-04-11T14:02:10.258Z</time></trkpt><trkpt lat="40.8154276" lon="17.3453651"><ele>228.33333333333331</ele><time>2026-04-11T14:02:11.246Z</time></trkpt><trkpt lat="40.8155754" lon="17.3452691"><ele>227.66666666666669</ele><time>2026-04-11T14:02:12.281Z</time></trkpt><trkpt lat="40.8157252" lon="17.345184"><ele>227.0</ele><time>2026-04-11T14:02:13.248Z</time></trkpt><trkpt lat="40.8158666" lon="17.3451119"><ele>226.66666666666669</ele><time>2026-04-11T14:02:14.296Z</time></trkpt><trkpt lat="40.8160263" lon="17.3450704"><ele>226.33333333333331</ele><time>2026-04-11T14:02:15.286Z</time></trkpt><trkpt lat="40.8161941" lon="17.34506"><ele>226.0</ele><time>2026-04-11T14:02:16.248Z</time></trkpt><trkpt lat="40.8163614" lon="17.345045"><ele>226.0</ele><time>2026-04-11T14:02:17.244Z</time></trkpt><trkpt lat="40.8165386" lon="17.3450609"><ele>226.0</ele><time>2026-04-11T14:02:18.249Z</time></trkpt><trkpt lat="40.8167206" lon="17.3451082"><ele>226.0</ele><time>2026-04-11T14:02:19.247Z</time></trkpt><trkpt lat="40.8168926" lon="17.3451671"><ele>225.33333333333331</ele><time>2026-04-11T14:02:20.251Z</time></trkpt><trkpt lat="40.817058" lon="17.3452347"><ele>224.66666666666669</ele><time>2026-04-11T14:02:21.253Z</time></trkpt><trkpt lat="40.817212" lon="17.3453333"><ele>224.0</ele><time>2026-04-11T14:02:22.288Z</time></trkpt><trkpt lat="40.8173725" lon="17.3454226"><ele>224.0</ele><time>2026-04-11T14:02:23.256Z</time></trkpt><trkpt lat="40.8175214" lon="17.3455095"><ele>224.0</ele><time>2026-04-11T14:02:24.26Z</time></trkpt><trkpt lat="40.8176738" lon="17.3455786"><ele>224.0</ele><time>2026-04-11T14:02:25.282Z</time></trkpt><trkpt lat="40.8178334" lon="17.3456529"><ele>220.0</ele><time>2026-04-11T14:02:26.237Z</time></trkpt><trkpt lat="40.8180073" lon="17.3456944"><ele>216.0</ele><time>2026-04-11T14:02:27.248Z</time></trkpt><trkpt lat="40.8181832" lon="17.3457278"><ele>212.0</ele><time>2026-04-11T14:02:28.253Z</time></trkpt><trkpt lat="40.8183581" lon="17.3457584"><ele>211.0</ele><time>2026-04-11T14:02:29.242Z</time></trkpt><trkpt lat="40.8185381" lon="17.3457425"><ele>210.0</ele><time>2026-04-11T14:02:30.248Z</time></trkpt><trkpt lat="40.8187165" lon="17.3457402"><ele>209.0</ele><time>2026-04-11T14:02:31.254Z</time></trkpt><trkpt lat="40.8189073" lon="17.3457133"><ele>209.0</ele><time>2026-04-11T14:02:32.265Z</time></trkpt><trkpt lat="40.8190817" lon="17.3456687"><ele>209.0</ele><time>2026-04-11T14:02:33.281Z</time></trkpt><trkpt lat="40.8192678" lon="17.3456131"><ele>209.0</ele><time>2026-04-11T14:02:34.245Z</time></trkpt><trkpt lat="40.8194624" lon="17.3455438"><ele>208.33333333333334</ele><time>2026-04-11T14:02:35.283Z</time></trkpt><trkpt lat="40.8196476" lon="17.3454846"><ele>207.66666666666669</ele><time>2026-04-11T14:02:36.252Z</time></trkpt><trkpt lat="40.8198376" lon="17.3454238"><ele>207.0</ele><time>2026-04-11T14:02:37.277Z</time></trkpt><trkpt lat="40.8200335" lon="17.3453705"><ele>205.33333333333331</ele><time>2026-04-11T14:02:38.248Z</time></trkpt><trkpt lat="40.8202177" lon="17.3453534"><ele>203.66666666666666</ele><time>2026-04-11T14:02:39.283Z</time></trkpt><trkpt lat="40.8204154" lon="17.3453377"><ele>202.0</ele><time>2026-04-11T14:02:40.253Z</time></trkpt><trkpt lat="40.8205897" lon="17.3453966"><ele>202.0</ele><time>2026-04-11T14:02:41.247Z</time></trkpt><trkpt lat="40.8207663" lon="17.345446"><ele>202.0</ele><time>2026-04-11T14:02:42.236Z</time></trkpt><trkpt lat="40.8209171" lon="17.3455914"><ele>202.0</ele><time>2026-04-11T14:02:43.278Z</time></trkpt><trkpt lat="40.8210605" lon="17.3457114"><ele>201.33333333333331</ele><time>2026-04-11T14:02:44.242Z</time></trkpt><trkpt lat="40.821183" lon="17.3458748"><ele>200.66666666666669</ele><time>2026-04-11T14:02:45.281Z</time></trkpt><trkpt lat="40.8212539" lon="17.346059"><ele>200.0</ele><time>2026-04-11T14:02:46.255Z</time></trkpt><trkpt lat="40.82135" lon="17.3462471"><ele>198.0</ele><time>2026-04-11T14:02:47.245Z</time></trkpt><trkpt lat="40.8214103" lon="17.3464725"><ele>196.0</ele><time>2026-04-11T14:02:48.242Z</time></trkpt><trkpt lat="40.8214636" lon="17.3467026"><ele>194.0</ele><time>2026-04-11T14:02:49.289Z</time></trkpt><trkpt lat="40.8215385" lon="17.3469123"><ele>194.0</ele><time>2026-04-11T14:02:50.29Z</time></trkpt><trkpt lat="40.8216089" lon="17.3471107"><ele>194.0</ele><time>2026-04-11T14:02:51.245Z</time></trkpt><trkpt lat="40.8216797" lon="17.3473138"><ele>194.0</ele><time>2026-04-11T14:02:52.237Z</time></trkpt><trkpt lat="40.8217739" lon="17.3474863"><ele>191.33333333333334</ele><time>2026-04-11T14:02:53.24Z</time></trkpt><trkpt lat="40.8218585" lon="17.3476501"><ele>188.66666666666669</ele><time>2026-04-11T14:02:54.253Z</time></trkpt><trkpt lat="40.8219864" lon="17.3477746"><ele>186.0</ele><time>2026-04-11T14:02:55.283Z</time></trkpt><trkpt lat="40.8221308" lon="17.3478697"><ele>186.0</ele><time>2026-04-11T14:02:56.257Z</time></trkpt><trkpt lat="40.8222597" lon="17.3479635"><ele>186.0</ele><time>2026-04-11T14:02:57.259Z</time></trkpt><trkpt lat="40.8223896" lon="17.3480407"><ele>186.0</ele><time>2026-04-11T14:02:58.243Z</time></trkpt><trkpt lat="40.8224934" lon="17.3480633"><ele>186.0</ele><time>2026-04-11T14:02:59.249Z</time></trkpt><trkpt lat="40.8225978" lon="17.3480902"><ele>184.4</ele><time>2026-04-11T14:03:00.284Z</time></trkpt><trkpt lat="40.822698" lon="17.3481128"><ele>182.8</ele><time>2026-04-11T14:03:01.24Z</time></trkpt><trkpt lat="40.8227867" lon="17.348139"><ele>181.20000000000002</ele><time>2026-04-11T14:03:02.243Z</time></trkpt><trkpt lat="40.8228634" lon="17.3481634"><ele>179.60000000000002</ele><time>2026-04-11T14:03:03.24Z</time></trkpt><trkpt lat="40.8229402" lon="17.3482645"><ele>178.0</ele><time>2026-04-11T14:03:05.279Z</time></trkpt><trkpt lat="40.8229963" lon="17.34832"><ele>178.0</ele><time>2026-04-11T14:03:06.24Z</time></trkpt><trkpt lat="40.8230605" lon="17.3483567"><ele>178.0</ele><time>2026-04-11T14:03:07.238Z</time></trkpt><trkpt lat="40.8231295" lon="17.3483705"><ele>178.0</ele><time>2026-04-11T14:03:08.24Z</time></trkpt><trkpt lat="40.8232183" lon="17.3483508"><ele>178.0</ele><time>2026-04-11T14:03:09.241Z</time></trkpt><trkpt lat="40.8232996" lon="17.3483201"><ele>178.0</ele><time>2026-04-11T14:03:10.245Z</time></trkpt><trkpt lat="40.8234173" lon="17.3483456"><ele>178.0</ele><time>2026-04-11T14:03:11.247Z</time></trkpt><trkpt lat="40.8235062" lon="17.3483648"><ele>177.60000000000002</ele><time>2026-04-11T14:03:12.242Z</time></trkpt><trkpt lat="40.8236039" lon="17.3484192"><ele>177.20000000000002</ele><time>2026-04-11T14:03:13.261Z</time></trkpt><trkpt lat="40.8237018" lon="17.3484698"><ele>176.8</ele><time>2026-04-11T14:03:14.282Z</time></trkpt><trkpt lat="40.8237957" lon="17.3485338"><ele>176.4</ele><time>2026-04-11T14:03:15.252Z</time></trkpt><trkpt lat="40.8238866" lon="17.3485776"><ele>176.0</ele><time>2026-04-11T14:03:16.248Z</time></trkpt><trkpt lat="40.8239757" lon="17.3486328"><ele>176.0</ele><time>2026-04-11T14:03:17.237Z</time></trkpt><trkpt lat="40.8240343" lon="17.3486781"><ele>176.0</ele><time>2026-04-11T14:03:18.241Z</time></trkpt><trkpt lat="40.8241135" lon="17.3487215"><ele>176.0</ele><time>2026-04-11T14:03:19.24Z</time></trkpt><trkpt lat="40.8242003" lon="17.3487722"><ele>176.0</ele><time>2026-04-11T14:03:20.237Z</time></trkpt><trkpt lat="40.8242635" lon="17.3488117"><ele>176.0</ele><time>2026-04-11T14:03:21.252Z</time></trkpt><trkpt lat="40.824333" lon="17.3488535"><ele>176.0</ele><time>2026-04-11T14:03:22.252Z</time></trkpt><trkpt lat="40.8244089" lon="17.3488811"><ele>174.60000000000002</ele><time>2026-04-11T14:03:23.248Z</time></trkpt><trkpt lat="40.8244946" lon="17.3489216"><ele>173.2</ele><time>2026-04-11T14:03:24.254Z</time></trkpt><trkpt lat="40.8245868" lon="17.3489792"><ele>171.8</ele><time>2026-04-11T14:03:25.253Z</time></trkpt><trkpt lat="40.8246941" lon="17.3490376"><ele>170.39999999999998</ele><time>2026-04-11T14:03:26.251Z</time></trkpt><trkpt lat="40.8247974" lon="17.3490932"><ele>169.0</ele><time>2026-04-11T14:03:27.258Z</time></trkpt><trkpt lat="40.8249067" lon="17.3491515"><ele>169.0</ele><time>2026-04-11T14:03:28.257Z</time></trkpt><trkpt lat="40.8250233" lon="17.3492068"><ele>169.0</ele><time>2026-04-11T14:03:29.254Z</time></trkpt><trkpt lat="40.8251403" lon="17.3492679"><ele>169.0</ele><time>2026-04-11T14:03:30.324Z</time></trkpt><trkpt lat="40.8252769" lon="17.3493415"><ele>169.0</ele><time>2026-04-11T14:03:31.246Z</time></trkpt><trkpt lat="40.8253851" lon="17.3493812"><ele>168.0</ele><time>2026-04-11T14:03:32.245Z</time></trkpt><trkpt lat="40.8255044" lon="17.3494394"><ele>167.0</ele><time>2026-04-11T14:03:33.237Z</time></trkpt><trkpt lat="40.8256065" lon="17.3495033"><ele>166.0</ele><time>2026-04-11T14:03:34.274Z</time></trkpt><trkpt lat="40.8257212" lon="17.3495702"><ele>165.0</ele><time>2026-04-11T14:03:35.279Z</time></trkpt><trkpt lat="40.8258228" lon="17.3496319"><ele>165.0</ele><time>2026-04-11T14:03:36.274Z</time></trkpt><trkpt lat="40.8259296" lon="17.3497011"><ele>165.0</ele><time>2026-04-11T14:03:37.247Z</time></trkpt><trkpt lat="40.826037" lon="17.3497723"><ele>165.0</ele><time>2026-04-11T14:03:38.279Z</time></trkpt><trkpt lat="40.8261424" lon="17.349851"><ele>165.0</ele><time>2026-04-11T14:03:39.239Z</time></trkpt><trkpt lat="40.8262617" lon="17.3499475"><ele>164.0</ele><time>2026-04-11T14:03:40.249Z</time></trkpt><trkpt lat="40.82637" lon="17.3500474"><ele>163.0</ele><time>2026-04-11T14:03:41.252Z</time></trkpt><trkpt lat="40.8264792" lon="17.350137"><ele>162.0</ele><time>2026-04-11T14:03:42.253Z</time></trkpt><trkpt lat="40.826585" lon="17.3502272"><ele>161.0</ele><time>2026-04-11T14:03:43.256Z</time></trkpt><trkpt lat="40.826715" lon="17.3503204"><ele>161.0</ele><time>2026-04-11T14:03:44.263Z</time></trkpt><trkpt lat="40.8268108" lon="17.3504136"><ele>161.0</ele><time>2026-04-11T14:03:45.255Z</time></trkpt><trkpt lat="40.8269385" lon="17.3504972"><ele>161.0</ele><time>2026-04-11T14:03:46.249Z</time></trkpt><trkpt lat="40.8270042" lon="17.350595"><ele>161.0</ele><time>2026-04-11T14:03:47.247Z</time></trkpt><trkpt lat="40.8270794" lon="17.3506933"><ele>160.0</ele><time>2026-04-11T14:03:48.251Z</time></trkpt><trkpt lat="40.8272036" lon="17.3507603"><ele>159.0</ele><time>2026-04-11T14:03:49.259Z</time></trkpt><trkpt lat="40.827334" lon="17.3508074"><ele>158.0</ele><time>2026-04-11T14:03:50.258Z</time></trkpt><trkpt lat="40.8274489" lon="17.3508492"><ele>157.0</ele><time>2026-04-11T14:03:51.26Z</time></trkpt><trkpt lat="40.8275793" lon="17.3508864"><ele>154.5</ele><time>2026-04-11T14:03:52.252Z</time></trkpt><trkpt lat="40.827709" lon="17.3509019"><ele>152.0</ele><time>2026-04-11T14:03:53.254Z</time></trkpt><trkpt lat="40.8278438" lon="17.3509031"><ele>149.5</ele><time>2026-04-11T14:03:54.252Z</time></trkpt><trkpt lat="40.8279781" lon="17.3508775"><ele>147.0</ele><time>2026-04-11T14:03:55.245Z</time></trkpt><trkpt lat="40.8281118" lon="17.3508424"><ele>147.0</ele><time>2026-04-11T14:03:56.251Z</time></trkpt><trkpt lat="40.8282406" lon="17.3508"><ele>147.0</ele><time>2026-04-11T14:03:57.257Z</time></trkpt><trkpt lat="40.828375" lon="17.3507545"><ele>147.0</ele><time>2026-04-11T14:03:58.294Z</time></trkpt><trkpt lat="40.8285015" lon="17.3506984"><ele>147.0</ele><time>2026-04-11T14:03:59.294Z</time></trkpt><trkpt lat="40.8286254" lon="17.3506506"><ele>147.2</ele><time>2026-04-11T14:04:00.243Z</time></trkpt><trkpt lat="40.8287361" lon="17.3505949"><ele>147.39999999999998</ele><time>2026-04-11T14:04:01.244Z</time></trkpt><trkpt lat="40.8288501" lon="17.3505548"><ele>147.60000000000002</ele><time>2026-04-11T14:04:02.243Z</time></trkpt><trkpt lat="40.8289233" lon="17.3505329"><ele>147.8</ele><time>2026-04-11T14:04:03.247Z</time></trkpt><trkpt lat="40.8289988" lon="17.3505177"><ele>148.0</ele><time>2026-04-11T14:04:04.253Z</time></trkpt><trkpt lat="40.8290757" lon="17.3505047"><ele>148.0</ele><time>2026-04-11T14:04:05.237Z</time></trkpt><trkpt lat="40.8291929" lon="17.3504982"><ele>148.0</ele><time>2026-04-11T14:04:07.243Z</time></trkpt><trkpt lat="40.8292746" lon="17.3505177"><ele>148.0</ele><time>2026-04-11T14:04:08.27Z</time></trkpt><trkpt lat="40.8293666" lon="17.35051"><ele>148.0</ele><time>2026-04-11T14:04:10.278Z</time></trkpt><trkpt lat="40.8294303" lon="17.3505226"><ele>148.0</ele><time>2026-04-11T14:04:12.284Z</time></trkpt><trkpt lat="40.8295097" lon="17.3505535"><ele>148.0</ele><time>2026-04-11T14:04:15.252Z</time></trkpt><trkpt lat="40.8295964" lon="17.3506196"><ele>146.0</ele><time>2026-04-11T14:04:18.255Z</time></trkpt><trkpt lat="40.8296535" lon="17.3506676"><ele>144.0</ele><time>2026-04-11T14:04:19.282Z</time></trkpt><trkpt lat="40.8297638" lon="17.3507538"><ele>142.0</ele><time>2026-04-11T14:04:21.246Z</time></trkpt><trkpt lat="40.8299005" lon="17.3507452"><ele>140.0</ele><time>2026-04-11T14:04:23.277Z</time></trkpt><trkpt lat="40.8299645" lon="17.3506996"><ele>138.0</ele><time>2026-04-11T14:04:24.257Z</time></trkpt><trkpt lat="40.8300128" lon="17.3506209"><ele>138.0</ele><time>2026-04-11T14:04:25.285Z</time></trkpt><trkpt lat="40.8300619" lon="17.3505497"><ele>138.0</ele><time>2026-04-11T14:04:26.252Z</time></trkpt><trkpt lat="40.8301217" lon="17.3504704"><ele>138.0</ele><time>2026-04-11T14:04:27.242Z</time></trkpt><trkpt lat="40.8302086" lon="17.3504078"><ele>138.0</ele><time>2026-04-11T14:04:28.239Z</time></trkpt><trkpt lat="40.8303081" lon="17.3503696"><ele>138.0</ele><time>2026-04-11T14:04:29.244Z</time></trkpt><trkpt lat="40.8304113" lon="17.3503354"><ele>137.75</ele><time>2026-04-11T14:04:30.239Z</time></trkpt><trkpt lat="40.8305675" lon="17.3503544"><ele>137.5</ele><time>2026-04-11T14:04:31.252Z</time></trkpt><trkpt lat="40.8307114" lon="17.3503545"><ele>137.25</ele><time>2026-04-11T14:04:32.283Z</time></trkpt><trkpt lat="40.8308562" lon="17.350343"><ele>137.0</ele><time>2026-04-11T14:04:33.279Z</time></trkpt><trkpt lat="40.8309992" lon="17.350329"><ele>137.0</ele><time>2026-04-11T14:04:34.255Z</time></trkpt><trkpt lat="40.8311473" lon="17.3503065"><ele>137.0</ele><time>2026-04-11T14:04:35.256Z</time></trkpt><trkpt lat="40.8313045" lon="17.3503013"><ele>137.0</ele><time>2026-04-11T14:04:36.254Z</time></trkpt><trkpt lat="40.8314567" lon="17.350288"><ele>137.0</ele><time>2026-04-11T14:04:37.24Z</time></trkpt><trkpt lat="40.8316272" lon="17.3502813"><ele>137.0</ele><time>2026-04-11T14:04:38.279Z</time></trkpt><trkpt lat="40.8317809" lon="17.3502629"><ele>137.0</ele><time>2026-04-11T14:04:39.263Z</time></trkpt><trkpt lat="40.8319414" lon="17.350244"><ele>135.66666666666666</ele><time>2026-04-11T14:04:40.283Z</time></trkpt><trkpt lat="40.8321125" lon="17.3502249"><ele>134.33333333333334</ele><time>2026-04-11T14:04:41.278Z</time></trkpt><trkpt lat="40.8322781" lon="17.3502089"><ele>133.0</ele><time>2026-04-11T14:04:42.238Z</time></trkpt><trkpt lat="40.8324372" lon="17.3501835"><ele>133.0</ele><time>2026-04-11T14:04:43.24Z</time></trkpt><trkpt lat="40.8325959" lon="17.3501777"><ele>133.0</ele><time>2026-04-11T14:04:44.277Z</time></trkpt><trkpt lat="40.8327568" lon="17.3501568"><ele>133.0</ele><time>2026-04-11T14:04:45.258Z</time></trkpt><trkpt lat="40.8329123" lon="17.3501474"><ele>132.33333333333334</ele><time>2026-04-11T14:04:46.307Z</time></trkpt><trkpt lat="40.8330764" lon="17.3501244"><ele>131.66666666666666</ele><time>2026-04-11T14:04:47.27Z</time></trkpt><trkpt lat="40.833237" lon="17.3501089"><ele>131.0</ele><time>2026-04-11T14:04:48.28Z</time></trkpt><trkpt lat="40.8334167" lon="17.3500932"><ele>130.66666666666666</ele><time>2026-04-11T14:04:49.331Z</time></trkpt><trkpt lat="40.8336035" lon="17.3500917"><ele>130.33333333333334</ele><time>2026-04-11T14:04:50.321Z</time></trkpt><trkpt lat="40.8337799" lon="17.3500792"><ele>130.0</ele><time>2026-04-11T14:04:51.241Z</time></trkpt><trkpt lat="40.8339602" lon="17.3500774"><ele>130.0</ele><time>2026-04-11T14:04:52.281Z</time></trkpt><trkpt lat="40.8341544" lon="17.3500745"><ele>130.0</ele><time>2026-04-11T14:04:53.249Z</time></trkpt><trkpt lat="40.8343463" lon="17.3500761"><ele>130.0</ele><time>2026-04-11T14:04:54.281Z</time></trkpt><trkpt lat="40.8345329" lon="17.350076"><ele>130.0</ele><time>2026-04-11T14:04:55.239Z</time></trkpt><trkpt lat="40.8347199" lon="17.3500768"><ele>130.0</ele><time>2026-04-11T14:04:56.239Z</time></trkpt><trkpt lat="40.8349125" lon="17.3501081"><ele>130.0</ele><time>2026-04-11T14:04:57.251Z</time></trkpt><trkpt lat="40.8350995" lon="17.3501229"><ele>129.66666666666669</ele><time>2026-04-11T14:04:58.257Z</time></trkpt><trkpt lat="40.8352735" lon="17.3501229"><ele>129.33333333333334</ele><time>2026-04-11T14:04:59.257Z</time></trkpt><trkpt lat="40.8354566" lon="17.3501442"><ele>129.0</ele><time>2026-04-11T14:05:00.256Z</time></trkpt><trkpt lat="40.8356357" lon="17.3501841"><ele>129.0</ele><time>2026-04-11T14:05:01.253Z</time></trkpt><trkpt lat="40.8358388" lon="17.3502334"><ele>129.0</ele><time>2026-04-11T14:05:02.255Z</time></trkpt><trkpt lat="40.8360279" lon="17.3502735"><ele>129.0</ele><time>2026-04-11T14:05:03.257Z</time></trkpt><trkpt lat="40.8362253" lon="17.3503388"><ele>128.66666666666666</ele><time>2026-04-11T14:05:04.26Z</time></trkpt><trkpt lat="40.8364288" lon="17.3504042"><ele>128.33333333333331</ele><time>2026-04-11T14:05:05.255Z</time></trkpt><trkpt lat="40.836618" lon="17.3504644"><ele>128.0</ele><time>2026-04-11T14:05:06.251Z</time></trkpt><trkpt lat="40.8368109" lon="17.3505278"><ele>126.66666666666666</ele><time>2026-04-11T14:05:07.3Z</time></trkpt><trkpt lat="40.8369986" lon="17.3506047"><ele>125.33333333333334</ele><time>2026-04-11T14:05:08.268Z</time></trkpt><trkpt lat="40.8371883" lon="17.3506721"><ele>124.0</ele><time>2026-04-11T14:05:09.287Z</time></trkpt><trkpt lat="40.8373941" lon="17.3507636"><ele>124.0</ele><time>2026-04-11T14:05:10.306Z</time></trkpt><trkpt lat="40.8375945" lon="17.3508431"><ele>124.0</ele><time>2026-04-11T14:05:11.311Z</time></trkpt><trkpt lat="40.8377929" lon="17.3509338"><ele>124.0</ele><time>2026-04-11T14:05:12.28Z</time></trkpt><trkpt lat="40.8380032" lon="17.3510453"><ele>122.33333333333334</ele><time>2026-04-11T14:05:13.281Z</time></trkpt><trkpt lat="40.8382048" lon="17.3511515"><ele>120.66666666666666</ele><time>2026-04-11T14:05:14.251Z</time></trkpt><trkpt lat="40.8384154" lon="17.3512618"><ele>119.0</ele><time>2026-04-11T14:05:15.251Z</time></trkpt><trkpt lat="40.8386231" lon="17.3513759"><ele>115.0</ele><time>2026-04-11T14:05:16.272Z</time></trkpt><trkpt lat="40.8388358" lon="17.3514903"><ele>111.0</ele><time>2026-04-11T14:05:17.255Z</time></trkpt><trkpt lat="40.8390542" lon="17.3516022"><ele>111.0</ele><time>2026-04-11T14:05:18.254Z</time></trkpt><trkpt lat="40.839273" lon="17.3517126"><ele>111.0</ele><time>2026-04-11T14:05:19.253Z</time></trkpt><trkpt lat="40.8394909" lon="17.3518091"><ele>110.33333333333334</ele><time>2026-04-11T14:05:20.252Z</time></trkpt><trkpt lat="40.8397069" lon="17.3519248"><ele>109.66666666666667</ele><time>2026-04-11T14:05:21.252Z</time></trkpt><trkpt lat="40.8399085" lon="17.3520174"><ele>109.0</ele><time>2026-04-11T14:05:22.25Z</time></trkpt><trkpt lat="40.840124" lon="17.3521515"><ele>108.66666666666667</ele><time>2026-04-11T14:05:23.249Z</time></trkpt><trkpt lat="40.8403166" lon="17.352246"><ele>108.33333333333334</ele><time>2026-04-11T14:05:24.254Z</time></trkpt><trkpt lat="40.8405089" lon="17.3523452"><ele>108.0</ele><time>2026-04-11T14:05:25.263Z</time></trkpt><trkpt lat="40.8407013" lon="17.3524388"><ele>108.0</ele><time>2026-04-11T14:05:26.296Z</time></trkpt><trkpt lat="40.8408931" lon="17.3525388"><ele>108.0</ele><time>2026-04-11T14:05:27.281Z</time></trkpt><trkpt lat="40.8410736" lon="17.352625"><ele>108.0</ele><time>2026-04-11T14:05:28.284Z</time></trkpt><trkpt lat="40.8412582" lon="17.3527212"><ele>108.33333333333334</ele><time>2026-04-11T14:05:29.239Z</time></trkpt><trkpt lat="40.8414273" lon="17.3528142"><ele>108.66666666666667</ele><time>2026-04-11T14:05:30.252Z</time></trkpt><trkpt lat="40.8416012" lon="17.3528987"><ele>109.0</ele><time>2026-04-11T14:05:31.291Z</time></trkpt><trkpt lat="40.8417761" lon="17.3529835"><ele>108.33333333333334</ele><time>2026-04-11T14:05:32.274Z</time></trkpt><trkpt lat="40.8419512" lon="17.3530724"><ele>107.66666666666666</ele><time>2026-04-11T14:05:33.246Z</time></trkpt><trkpt lat="40.8421248" lon="17.3531625"><ele>107.0</ele><time>2026-04-11T14:05:34.237Z</time></trkpt><trkpt lat="40.8423066" lon="17.3532484"><ele>107.0</ele><time>2026-04-11T14:05:35.24Z</time></trkpt><trkpt lat="40.8424695" lon="17.3533361"><ele>107.0</ele><time>2026-04-11T14:05:36.276Z</time></trkpt><trkpt lat="40.8426445" lon="17.3534214"><ele>107.0</ele><time>2026-04-11T14:05:37.278Z</time></trkpt><trkpt lat="40.8428116" lon="17.3535045"><ele>106.33333333333333</ele><time>2026-04-11T14:05:38.281Z</time></trkpt><trkpt lat="40.8429761" lon="17.3535924"><ele>105.66666666666666</ele><time>2026-04-11T14:05:39.254Z</time></trkpt><trkpt lat="40.8431279" lon="17.353685"><ele>105.0</ele><time>2026-04-11T14:05:40.251Z</time></trkpt><trkpt lat="40.8432847" lon="17.3537695"><ele>105.0</ele><time>2026-04-11T14:05:41.245Z</time></trkpt><trkpt lat="40.8434527" lon="17.3538551"><ele>105.0</ele><time>2026-04-11T14:05:42.236Z</time></trkpt><trkpt lat="40.8436143" lon="17.3539493"><ele>105.0</ele><time>2026-04-11T14:05:43.254Z</time></trkpt><trkpt lat="40.84378" lon="17.3540256"><ele>104.33333333333334</ele><time>2026-04-11T14:05:44.288Z</time></trkpt><trkpt lat="40.8439487" lon="17.354126"><ele>103.66666666666667</ele><time>2026-04-11T14:05:45.249Z</time></trkpt><trkpt lat="40.8441226" lon="17.3541968"><ele>103.0</ele><time>2026-04-11T14:05:46.281Z</time></trkpt><trkpt lat="40.8442984" lon="17.3542876"><ele>103.0</ele><time>2026-04-11T14:05:47.249Z</time></trkpt><trkpt lat="40.8444468" lon="17.3543726"><ele>103.0</ele><time>2026-04-11T14:05:48.252Z</time></trkpt><trkpt lat="40.8446183" lon="17.3544638"><ele>103.0</ele><time>2026-04-11T14:05:49.257Z</time></trkpt><trkpt lat="40.8447857" lon="17.3545425"><ele>103.0</ele><time>2026-04-11T14:05:50.255Z</time></trkpt><trkpt lat="40.8449531" lon="17.3546212"><ele>103.0</ele><time>2026-04-11T14:05:51.261Z</time></trkpt><trkpt lat="40.8451177" lon="17.3547041"><ele>103.0</ele><time>2026-04-11T14:05:52.237Z</time></trkpt><trkpt lat="40.8452649" lon="17.3547738"><ele>102.66666666666667</ele><time>2026-04-11T14:05:53.245Z</time></trkpt><trkpt lat="40.8454209" lon="17.3548597"><ele>102.33333333333334</ele><time>2026-04-11T14:05:54.253Z</time></trkpt><trkpt lat="40.8455933" lon="17.3549317"><ele>102.0</ele><time>2026-04-11T14:05:55.253Z</time></trkpt><trkpt lat="40.8457624" lon="17.3550161"><ele>102.0</ele><time>2026-04-11T14:05:56.257Z</time></trkpt><trkpt lat="40.8459341" lon="17.3550861"><ele>102.0</ele><time>2026-04-11T14:05:57.286Z</time></trkpt><trkpt lat="40.8460969" lon="17.3551662"><ele>102.0</ele><time>2026-04-11T14:05:58.24Z</time></trkpt><trkpt lat="40.8462551" lon="17.3552362"><ele>101.0</ele><time>2026-04-11T14:05:59.275Z</time></trkpt><trkpt lat="40.8464094" lon="17.3553156"><ele>100.0</ele><time>2026-04-11T14:06:00.241Z</time></trkpt><trkpt lat="40.8465743" lon="17.3553986"><ele>99.0</ele><time>2026-04-11T14:06:01.251Z</time></trkpt><trkpt lat="40.8467312" lon="17.3554775"><ele>97.66666666666667</ele><time>2026-04-11T14:06:02.254Z</time></trkpt><trkpt lat="40.8468849" lon="17.3555487"><ele>96.33333333333334</ele><time>2026-04-11T14:06:03.256Z</time></trkpt><trkpt lat="40.8470244" lon="17.3556034"><ele>95.0</ele><time>2026-04-11T14:06:04.258Z</time></trkpt><trkpt lat="40.8471714" lon="17.35568"><ele>95.0</ele><time>2026-04-11T14:06:05.256Z</time></trkpt><trkpt lat="40.8473159" lon="17.3557599"><ele>95.0</ele><time>2026-04-11T14:06:06.248Z</time></trkpt><trkpt lat="40.84746" lon="17.3558385"><ele>95.0</ele><time>2026-04-11T14:06:07.25Z</time></trkpt><trkpt lat="40.8476115" lon="17.3559087"><ele>95.0</ele><time>2026-04-11T14:06:08.252Z</time></trkpt><trkpt lat="40.8477483" lon="17.3559648"><ele>95.0</ele><time>2026-04-11T14:06:09.255Z</time></trkpt><trkpt lat="40.8478938" lon="17.3560434"><ele>95.0</ele><time>2026-04-11T14:06:10.258Z</time></trkpt><trkpt lat="40.8480392" lon="17.3561233"><ele>95.0</ele><time>2026-04-11T14:06:11.247Z</time></trkpt><trkpt lat="40.8481858" lon="17.3562"><ele>95.0</ele><time>2026-04-11T14:06:12.238Z</time></trkpt><trkpt lat="40.8483339" lon="17.3562761"><ele>95.0</ele><time>2026-04-11T14:06:13.249Z</time></trkpt><trkpt lat="40.8484756" lon="17.3563477"><ele>95.0</ele><time>2026-04-11T14:06:14.243Z</time></trkpt><trkpt lat="40.8486004" lon="17.3564174"><ele>95.0</ele><time>2026-04-11T14:06:15.254Z</time></trkpt><trkpt lat="40.8487226" lon="17.3564911"><ele>95.0</ele><time>2026-04-11T14:06:16.255Z</time></trkpt><trkpt lat="40.8488504" lon="17.3565672"><ele>95.0</ele><time>2026-04-11T14:06:17.255Z</time></trkpt><trkpt lat="40.8489705" lon="17.3566453"><ele>95.0</ele><time>2026-04-11T14:06:18.25Z</time></trkpt><trkpt lat="40.8490923" lon="17.3567143"><ele>95.0</ele><time>2026-04-11T14:06:19.246Z</time></trkpt><trkpt lat="40.8491888" lon="17.3567976"><ele>95.0</ele><time>2026-04-11T14:06:20.248Z</time></trkpt><trkpt lat="40.8492856" lon="17.3568831"><ele>95.0</ele><time>2026-04-11T14:06:21.248Z</time></trkpt><trkpt lat="40.8493738" lon="17.3569759"><ele>94.5</ele><time>2026-04-11T14:06:22.279Z</time></trkpt><trkpt lat="40.8494609" lon="17.3570697"><ele>94.0</ele><time>2026-04-11T14:06:23.238Z</time></trkpt><trkpt lat="40.8495277" lon="17.3571998"><ele>93.5</ele><time>2026-04-11T14:06:24.244Z</time></trkpt><trkpt lat="40.8496006" lon="17.3573198"><ele>93.0</ele><time>2026-04-11T14:06:25.248Z</time></trkpt><trkpt lat="40.8496322" lon="17.3574734"><ele>92.5</ele><time>2026-04-11T14:06:26.247Z</time></trkpt><trkpt lat="40.8496693" lon="17.3576282"><ele>92.0</ele><time>2026-04-11T14:06:27.281Z</time></trkpt><trkpt lat="40.8497027" lon="17.3577823"><ele>91.5</ele><time>2026-04-11T14:06:28.253Z</time></trkpt><trkpt lat="40.8497137" lon="17.3579271"><ele>91.0</ele><time>2026-04-11T14:06:29.25Z</time></trkpt><trkpt lat="40.8497133" lon="17.3580783"><ele>90.0</ele><time>2026-04-11T14:06:30.274Z</time></trkpt><trkpt lat="40.8496953" lon="17.3582296"><ele>89.0</ele><time>2026-04-11T14:06:31.272Z</time></trkpt><trkpt lat="40.8496804" lon="17.3583802"><ele>88.0</ele><time>2026-04-11T14:06:32.277Z</time></trkpt><trkpt lat="40.8496236" lon="17.3585397"><ele>87.0</ele><time>2026-04-11T14:06:33.248Z</time></trkpt><trkpt lat="40.8495569" lon="17.3586911"><ele>87.0</ele><time>2026-04-11T14:06:34.283Z</time></trkpt><trkpt lat="40.8494668" lon="17.3588326"><ele>87.0</ele><time>2026-04-11T14:06:35.25Z</time></trkpt><trkpt lat="40.8493745" lon="17.3589667"><ele>87.0</ele><time>2026-04-11T14:06:36.24Z</time></trkpt><trkpt lat="40.8492555" lon="17.3590913"><ele>87.0</ele><time>2026-04-11T14:06:37.274Z</time></trkpt><trkpt lat="40.8491353" lon="17.3592319"><ele>86.66666666666667</ele><time>2026-04-11T14:06:38.249Z</time></trkpt><trkpt lat="40.8490155" lon="17.3593749"><ele>86.33333333333334</ele><time>2026-04-11T14:06:39.285Z</time></trkpt><trkpt lat="40.8488913" lon="17.3595222"><ele>86.0</ele><time>2026-04-11T14:06:40.244Z</time></trkpt><trkpt lat="40.8487797" lon="17.3597278"><ele>85.66666666666667</ele><time>2026-04-11T14:06:41.275Z</time></trkpt><trkpt lat="40.8486403" lon="17.3599098"><ele>85.33333333333333</ele><time>2026-04-11T14:06:42.246Z</time></trkpt><trkpt lat="40.8484996" lon="17.3600952"><ele>85.0</ele><time>2026-04-11T14:06:43.236Z</time></trkpt><trkpt lat="40.8482628" lon="17.3603145"><ele>86.0</ele><time>2026-04-11T14:06:44.309Z</time></trkpt><trkpt lat="40.8480894" lon="17.3605162"><ele>87.0</ele><time>2026-04-11T14:06:45.269Z</time></trkpt><trkpt lat="40.8478503" lon="17.3607077"><ele>87.33333333333333</ele><time>2026-04-11T14:06:46.248Z</time></trkpt><trkpt lat="40.8476655" lon="17.3609025"><ele>87.66666666666666</ele><time>2026-04-11T14:06:47.244Z</time></trkpt><trkpt lat="40.8475099" lon="17.3610917"><ele>88.0</ele><time>2026-04-11T14:06:48.249Z</time></trkpt><trkpt lat="40.8473456" lon="17.361257"><ele>88.0</ele><time>2026-04-11T14:06:49.277Z</time></trkpt><trkpt lat="40.8471885" lon="17.3614266"><ele>88.0</ele><time>2026-04-11T14:06:50.241Z</time></trkpt><trkpt lat="40.8470419" lon="17.3615962"><ele>88.0</ele><time>2026-04-11T14:06:51.241Z</time></trkpt><trkpt lat="40.8468735" lon="17.3617623"><ele>89.0</ele><time>2026-04-11T14:06:52.281Z</time></trkpt><trkpt lat="40.8467069" lon="17.3619337"><ele>90.0</ele><time>2026-04-11T14:06:53.257Z</time></trkpt><trkpt lat="40.8465471" lon="17.362099"><ele>91.0</ele><time>2026-04-11T14:06:54.261Z</time></trkpt><trkpt lat="40.8463886" lon="17.3622692"><ele>91.33333333333333</ele><time>2026-04-11T14:06:55.241Z</time></trkpt><trkpt lat="40.846214" lon="17.3624336"><ele>91.66666666666667</ele><time>2026-04-11T14:06:56.249Z</time></trkpt><trkpt lat="40.8460625" lon="17.3626025"><ele>92.0</ele><time>2026-04-11T14:06:57.257Z</time></trkpt><trkpt lat="40.8459019" lon="17.3627742"><ele>92.33333333333334</ele><time>2026-04-11T14:06:58.24Z</time></trkpt><trkpt lat="40.8457419" lon="17.3629508"><ele>92.66666666666667</ele><time>2026-04-11T14:06:59.247Z</time></trkpt><trkpt lat="40.8455763" lon="17.3631224"><ele>93.0</ele><time>2026-04-11T14:07:00.265Z</time></trkpt><trkpt lat="40.8454155" lon="17.3632949"><ele>92.33333333333333</ele><time>2026-04-11T14:07:01.256Z</time></trkpt><trkpt lat="40.8452477" lon="17.3634691"><ele>91.66666666666666</ele><time>2026-04-11T14:07:02.254Z</time></trkpt><trkpt lat="40.8450881" lon="17.3636488"><ele>91.0</ele><time>2026-04-11T14:07:03.257Z</time></trkpt><trkpt lat="40.8449222" lon="17.3638257"><ele>91.0</ele><time>2026-04-11T14:07:04.24Z</time></trkpt><trkpt lat="40.8447509" lon="17.3640111"><ele>91.0</ele><time>2026-04-11T14:07:05.249Z</time></trkpt><trkpt lat="40.8445812" lon="17.364185"><ele>91.0</ele><time>2026-04-11T14:07:06.261Z</time></trkpt><trkpt lat="40.844414" lon="17.364365"><ele>90.33333333333333</ele><time>2026-04-11T14:07:07.282Z</time></trkpt><trkpt lat="40.8442435" lon="17.364543"><ele>89.66666666666667</ele><time>2026-04-11T14:07:08.287Z</time></trkpt><trkpt lat="40.8440758" lon="17.3647215"><ele>89.0</ele><time>2026-04-11T14:07:09.237Z</time></trkpt><trkpt lat="40.8439085" lon="17.3649277"><ele>88.66666666666667</ele><time>2026-04-11T14:07:10.275Z</time></trkpt><trkpt lat="40.8437391" lon="17.3651016"><ele>88.33333333333333</ele><time>2026-04-11T14:07:11.279Z</time></trkpt><trkpt lat="40.8435803" lon="17.365301"><ele>88.0</ele><time>2026-04-11T14:07:12.277Z</time></trkpt><trkpt lat="40.8434148" lon="17.3654891"><ele>88.33333333333333</ele><time>2026-04-11T14:07:13.237Z</time></trkpt><trkpt lat="40.843271" lon="17.3656873"><ele>88.66666666666667</ele><time>2026-04-11T14:07:14.252Z</time></trkpt><trkpt lat="40.8431032" lon="17.365884"><ele>89.0</ele><time>2026-04-11T14:07:15.258Z</time></trkpt><trkpt lat="40.8429559" lon="17.3660923"><ele>89.0</ele><time>2026-04-11T14:07:16.282Z</time></trkpt><trkpt lat="40.8427909" lon="17.366309"><ele>89.0</ele><time>2026-04-11T14:07:17.247Z</time></trkpt><trkpt lat="40.8426445" lon="17.3665232"><ele>88.66666666666667</ele><time>2026-04-11T14:07:18.24Z</time></trkpt><trkpt lat="40.842499" lon="17.3667367"><ele>88.33333333333333</ele><time>2026-04-11T14:07:19.244Z</time></trkpt><trkpt lat="40.8423553" lon="17.3669681"><ele>88.0</ele><time>2026-04-11T14:07:20.252Z</time></trkpt><trkpt lat="40.8422213" lon="17.3672063"><ele>88.0</ele><time>2026-04-11T14:07:21.281Z</time></trkpt><trkpt lat="40.8420935" lon="17.367447"><ele>88.0</ele><time>2026-04-11T14:07:22.237Z</time></trkpt><trkpt lat="40.8419656" lon="17.3677064"><ele>88.0</ele><time>2026-04-11T14:07:23.253Z</time></trkpt><trkpt lat="40.8418375" lon="17.3679571"><ele>88.0</ele><time>2026-04-11T14:07:24.258Z</time></trkpt><trkpt lat="40.8417324" lon="17.3682164"><ele>89.0</ele><time>2026-04-11T14:07:25.256Z</time></trkpt><trkpt lat="40.8416288" lon="17.368484"><ele>90.0</ele><time>2026-04-11T14:07:26.25Z</time></trkpt><trkpt lat="40.8415036" lon="17.3687711"><ele>89.5</ele><time>2026-04-11T14:07:27.285Z</time></trkpt><trkpt lat="40.8414065" lon="17.3690542"><ele>89.0</ele><time>2026-04-11T14:07:28.284Z</time></trkpt><trkpt lat="40.8413108" lon="17.369341"><ele>89.0</ele><time>2026-04-11T14:07:29.243Z</time></trkpt><trkpt lat="40.8412251" lon="17.3696395"><ele>89.0</ele><time>2026-04-11T14:07:30.246Z</time></trkpt><trkpt lat="40.8411317" lon="17.3699221"><ele>88.0</ele><time>2026-04-11T14:07:31.279Z</time></trkpt><trkpt lat="40.841033" lon="17.3702074"><ele>87.0</ele><time>2026-04-11T14:07:32.275Z</time></trkpt><trkpt lat="40.8409602" lon="17.3705042"><ele>89.0</ele><time>2026-04-11T14:07:33.281Z</time></trkpt><trkpt lat="40.8408722" lon="17.3707948"><ele>91.0</ele><time>2026-04-11T14:07:34.302Z</time></trkpt><trkpt lat="40.8407776" lon="17.3710849"><ele>91.0</ele><time>2026-04-11T14:07:35.251Z</time></trkpt><trkpt lat="40.8406849" lon="17.3713372"><ele>91.0</ele><time>2026-04-11T14:07:36.24Z</time></trkpt><trkpt lat="40.8406063" lon="17.3716051"><ele>91.0</ele><time>2026-04-11T14:07:37.239Z</time></trkpt><trkpt lat="40.8405337" lon="17.3718748"><ele>91.66666666666666</ele><time>2026-04-11T14:07:38.278Z</time></trkpt><trkpt lat="40.8404407" lon="17.3721433"><ele>92.33333333333333</ele><time>2026-04-11T14:07:39.251Z</time></trkpt><trkpt lat="40.8403538" lon="17.3724141"><ele>93.0</ele><time>2026-04-11T14:07:40.259Z</time></trkpt><trkpt lat="40.8402613" lon="17.3727003"><ele>89.5</ele><time>2026-04-11T14:07:41.25Z</time></trkpt><trkpt lat="40.8401687" lon="17.372989"><ele>86.0</ele><time>2026-04-11T14:07:42.274Z</time></trkpt><trkpt lat="40.840082" lon="17.3732802"><ele>86.0</ele><time>2026-04-11T14:07:43.278Z</time></trkpt><trkpt lat="40.839978" lon="17.3735575"><ele>86.0</ele><time>2026-04-11T14:07:44.247Z</time></trkpt><trkpt lat="40.8398825" lon="17.3738432"><ele>85.5</ele><time>2026-04-11T14:07:45.25Z</time></trkpt><trkpt lat="40.8397928" lon="17.3741381"><ele>85.0</ele><time>2026-04-11T14:07:46.248Z</time></trkpt><trkpt lat="40.8397008" lon="17.374432"><ele>83.5</ele><time>2026-04-11T14:07:47.254Z</time></trkpt><trkpt lat="40.8396111" lon="17.3747161"><ele>82.0</ele><time>2026-04-11T14:07:48.251Z</time></trkpt><trkpt lat="40.8395255" lon="17.3750132"><ele>82.0</ele><time>2026-04-11T14:07:49.255Z</time></trkpt><trkpt lat="40.8394273" lon="17.3753006"><ele>82.0</ele><time>2026-04-11T14:07:50.257Z</time></trkpt><trkpt lat="40.8393385" lon="17.3755948"><ele>83.0</ele><time>2026-04-11T14:07:51.259Z</time></trkpt><trkpt lat="40.8392499" lon="17.3758847"><ele>84.0</ele><time>2026-04-11T14:07:52.252Z</time></trkpt><trkpt lat="40.8391557" lon="17.3761818"><ele>84.5</ele><time>2026-04-11T14:07:53.251Z</time></trkpt><trkpt lat="40.8390667" lon="17.3764736"><ele>85.0</ele><time>2026-04-11T14:07:54.249Z</time></trkpt><trkpt lat="40.8389818" lon="17.3767712"><ele>85.0</ele><time>2026-04-11T14:07:55.249Z</time></trkpt><trkpt lat="40.8388953" lon="17.3770601"><ele>85.0</ele><time>2026-04-11T14:07:56.253Z</time></trkpt><trkpt lat="40.8388032" lon="17.377347"><ele>85.0</ele><time>2026-04-11T14:07:57.262Z</time></trkpt><trkpt lat="40.8387076" lon="17.3776434"><ele>85.0</ele><time>2026-04-11T14:07:58.251Z</time></trkpt><trkpt lat="40.8386183" lon="17.3779508"><ele>85.5</ele><time>2026-04-11T14:07:59.25Z</time></trkpt><trkpt lat="40.8385186" lon="17.3782546"><ele>86.0</ele><time>2026-04-11T14:08:00.251Z</time></trkpt><trkpt lat="40.8384199" lon="17.3785557"><ele>85.5</ele><time>2026-04-11T14:08:01.25Z</time></trkpt><trkpt lat="40.8383231" lon="17.3788821"><ele>85.0</ele><time>2026-04-11T14:08:02.254Z</time></trkpt><trkpt lat="40.838219" lon="17.3792085"><ele>85.0</ele><time>2026-04-11T14:08:03.256Z</time></trkpt><trkpt lat="40.8381236" lon="17.3795234"><ele>85.0</ele><time>2026-04-11T14:08:04.277Z</time></trkpt><trkpt lat="40.838034" lon="17.3798468"><ele>85.5</ele><time>2026-04-11T14:08:05.245Z</time></trkpt><trkpt lat="40.8379449" lon="17.3801697"><ele>86.0</ele><time>2026-04-11T14:08:06.249Z</time></trkpt><trkpt lat="40.837854" lon="17.3804944"><ele>86.0</ele><time>2026-04-11T14:08:07.251Z</time></trkpt><trkpt lat="40.8377544" lon="17.380824"><ele>86.0</ele><time>2026-04-11T14:08:08.247Z</time></trkpt><trkpt lat="40.8376549" lon="17.3811612"><ele>85.0</ele><time>2026-04-11T14:08:09.247Z</time></trkpt><trkpt lat="40.8375493" lon="17.381492"><ele>84.0</ele><time>2026-04-11T14:08:10.254Z</time></trkpt><trkpt lat="40.8374476" lon="17.3818247"><ele>84.0</ele><time>2026-04-11T14:08:11.247Z</time></trkpt><trkpt lat="40.8373435" lon="17.3821636"><ele>84.0</ele><time>2026-04-11T14:08:12.25Z</time></trkpt><trkpt lat="40.8372343" lon="17.3824873"><ele>83.0</ele><time>2026-04-11T14:08:13.25Z</time></trkpt><trkpt lat="40.8371261" lon="17.382825"><ele>82.0</ele><time>2026-04-11T14:08:14.251Z</time></trkpt><trkpt lat="40.8370102" lon="17.3831544"><ele>81.0</ele><time>2026-04-11T14:08:15.254Z</time></trkpt><trkpt lat="40.8369091" lon="17.3834813"><ele>80.0</ele><time>2026-04-11T14:08:16.256Z</time></trkpt><trkpt lat="40.8368054" lon="17.3838093"><ele>81.5</ele><time>2026-04-11T14:08:17.26Z</time></trkpt><trkpt lat="40.8367025" lon="17.384132"><ele>83.0</ele><time>2026-04-11T14:08:18.255Z</time></trkpt><trkpt lat="40.8365964" lon="17.3844596"><ele>83.0</ele><time>2026-04-11T14:08:19.244Z</time></trkpt><trkpt lat="40.8364853" lon="17.3847614"><ele>83.0</ele><time>2026-04-11T14:08:20.247Z</time></trkpt><trkpt lat="40.8363858" lon="17.3850687"><ele>83.0</ele><time>2026-04-11T14:08:21.251Z</time></trkpt><trkpt lat="40.836284" lon="17.3853575"><ele>83.0</ele><time>2026-04-11T14:08:22.255Z</time></trkpt><trkpt lat="40.8362014" lon="17.38563"><ele>82.66666666666667</ele><time>2026-04-11T14:08:23.252Z</time></trkpt><trkpt lat="40.8361264" lon="17.3859032"><ele>82.33333333333333</ele><time>2026-04-11T14:08:24.257Z</time></trkpt><trkpt lat="40.8360472" lon="17.386172"><ele>82.0</ele><time>2026-04-11T14:08:25.253Z</time></trkpt><trkpt lat="40.835959" lon="17.3864301"><ele>82.0</ele><time>2026-04-11T14:08:26.249Z</time></trkpt><trkpt lat="40.8358748" lon="17.3866915"><ele>82.0</ele><time>2026-04-11T14:08:27.235Z</time></trkpt><trkpt lat="40.835794" lon="17.3869595"><ele>82.0</ele><time>2026-04-11T14:08:28.242Z</time></trkpt><trkpt lat="40.8357045" lon="17.3872458"><ele>81.0</ele><time>2026-04-11T14:08:29.243Z</time></trkpt><trkpt lat="40.8356064" lon="17.3875228"><ele>80.0</ele><time>2026-04-11T14:08:30.25Z</time></trkpt><trkpt lat="40.8355194" lon="17.3878109"><ele>80.66666666666667</ele><time>2026-04-11T14:08:31.29Z</time></trkpt><trkpt lat="40.8354372" lon="17.3880807"><ele>81.33333333333333</ele><time>2026-04-11T14:08:32.251Z</time></trkpt><trkpt lat="40.8353485" lon="17.3883527"><ele>82.0</ele><time>2026-04-11T14:08:33.249Z</time></trkpt><trkpt lat="40.8352562" lon="17.3886388"><ele>81.5</ele><time>2026-04-11T14:08:34.251Z</time></trkpt><trkpt lat="40.83517" lon="17.3889212"><ele>81.0</ele><time>2026-04-11T14:08:35.253Z</time></trkpt><trkpt lat="40.8350822" lon="17.3892228"><ele>80.5</ele><time>2026-04-11T14:08:36.255Z</time></trkpt><trkpt lat="40.8349958" lon="17.3895171"><ele>80.0</ele><time>2026-04-11T14:08:37.242Z</time></trkpt><trkpt lat="40.834913" lon="17.3898278"><ele>80.0</ele><time>2026-04-11T14:08:38.243Z</time></trkpt><trkpt lat="40.8348345" lon="17.3901384"><ele>80.0</ele><time>2026-04-11T14:08:39.278Z</time></trkpt><trkpt lat="40.8347569" lon="17.3904391"><ele>79.5</ele><time>2026-04-11T14:08:40.236Z</time></trkpt><trkpt lat="40.8346803" lon="17.3907557"><ele>79.0</ele><time>2026-04-11T14:08:41.28Z</time></trkpt><trkpt lat="40.8346129" lon="17.3910695"><ele>77.0</ele><time>2026-04-11T14:08:42.252Z</time></trkpt><trkpt lat="40.8345505" lon="17.3913934"><ele>75.0</ele><time>2026-04-11T14:08:43.249Z</time></trkpt><trkpt lat="40.8344823" lon="17.391721"><ele>75.0</ele><time>2026-04-11T14:08:44.297Z</time></trkpt><trkpt lat="40.8344189" lon="17.3920385"><ele>75.0</ele><time>2026-04-11T14:08:45.253Z</time></trkpt><trkpt lat="40.8343253" lon="17.3923761"><ele>74.5</ele><time>2026-04-11T14:08:46.281Z</time></trkpt><trkpt lat="40.8342674" lon="17.3927123"><ele>74.0</ele><time>2026-04-11T14:08:47.257Z</time></trkpt><trkpt lat="40.8342179" lon="17.3930572"><ele>74.0</ele><time>2026-04-11T14:08:48.286Z</time></trkpt><trkpt lat="40.8341718" lon="17.3933863"><ele>74.0</ele><time>2026-04-11T14:08:49.238Z</time></trkpt><trkpt lat="40.834125" lon="17.3937251"><ele>73.5</ele><time>2026-04-11T14:08:50.238Z</time></trkpt><trkpt lat="40.8340904" lon="17.3940574"><ele>73.0</ele><time>2026-04-11T14:08:51.253Z</time></trkpt><trkpt lat="40.83406" lon="17.3943855"><ele>72.5</ele><time>2026-04-11T14:08:52.261Z</time></trkpt><trkpt lat="40.8340365" lon="17.3947279"><ele>72.0</ele><time>2026-04-11T14:08:53.285Z</time></trkpt><trkpt lat="40.8340048" lon="17.3950695"><ele>72.0</ele><time>2026-04-11T14:08:54.283Z</time></trkpt><trkpt lat="40.8339792" lon="17.3954059"><ele>72.0</ele><time>2026-04-11T14:08:55.321Z</time></trkpt><trkpt lat="40.8339563" lon="17.3957256"><ele>72.0</ele><time>2026-04-11T14:08:56.254Z</time></trkpt><trkpt lat="40.8339518" lon="17.3960748"><ele>72.0</ele><time>2026-04-11T14:08:57.285Z</time></trkpt><trkpt lat="40.8339379" lon="17.3963976"><ele>72.0</ele><time>2026-04-11T14:08:58.241Z</time></trkpt><trkpt lat="40.8339302" lon="17.3967336"><ele>72.0</ele><time>2026-04-11T14:08:59.338Z</time></trkpt><trkpt lat="40.8339239" lon="17.3970309"><ele>71.0</ele><time>2026-04-11T14:09:00.24Z</time></trkpt><trkpt lat="40.8339244" lon="17.3973509"><ele>70.0</ele><time>2026-04-11T14:09:01.274Z</time></trkpt><trkpt lat="40.8339214" lon="17.3976554"><ele>70.0</ele><time>2026-04-11T14:09:02.242Z</time></trkpt><trkpt lat="40.8339139" lon="17.3979574"><ele>70.0</ele><time>2026-04-11T14:09:03.244Z</time></trkpt><trkpt lat="40.8339081" lon="17.3982692"><ele>69.5</ele><time>2026-04-11T14:09:04.251Z</time></trkpt><trkpt lat="40.8338976" lon="17.3985665"><ele>69.0</ele><time>2026-04-11T14:09:05.257Z</time></trkpt><trkpt lat="40.8338916" lon="17.3988801"><ele>68.5</ele><time>2026-04-11T14:09:06.286Z</time></trkpt><trkpt lat="40.8338848" lon="17.3991885"><ele>68.0</ele><time>2026-04-11T14:09:07.245Z</time></trkpt><trkpt lat="40.8338774" lon="17.3995057"><ele>67.0</ele><time>2026-04-11T14:09:08.254Z</time></trkpt><trkpt lat="40.8338768" lon="17.3998295"><ele>66.0</ele><time>2026-04-11T14:09:09.25Z</time></trkpt><trkpt lat="40.833873" lon="17.4001443"><ele>66.0</ele><time>2026-04-11T14:09:10.279Z</time></trkpt><trkpt lat="40.8338661" lon="17.4004668"><ele>66.0</ele><time>2026-04-11T14:09:11.324Z</time></trkpt><trkpt lat="40.8338574" lon="17.4007775"><ele>65.5</ele><time>2026-04-11T14:09:12.256Z</time></trkpt><trkpt lat="40.8338492" lon="17.4011116"><ele>65.0</ele><time>2026-04-11T14:09:13.295Z</time></trkpt><trkpt lat="40.8338431" lon="17.4014407"><ele>65.0</ele><time>2026-04-11T14:09:14.315Z</time></trkpt><trkpt lat="40.8338375" lon="17.4017579"><ele>65.0</ele><time>2026-04-11T14:09:15.238Z</time></trkpt><trkpt lat="40.8338274" lon="17.4020882"><ele>64.5</ele><time>2026-04-11T14:09:16.246Z</time></trkpt><trkpt lat="40.8338207" lon="17.4024208"><ele>64.0</ele><time>2026-04-11T14:09:17.25Z</time></trkpt><trkpt lat="40.8338144" lon="17.4027568"><ele>63.5</ele><time>2026-04-11T14:09:18.28Z</time></trkpt><trkpt lat="40.833812" lon="17.4030937"><ele>63.0</ele><time>2026-04-11T14:09:19.336Z</time></trkpt><trkpt lat="40.8338013" lon="17.4034049"><ele>63.0</ele><time>2026-04-11T14:09:20.328Z</time></trkpt><trkpt lat="40.8337904" lon="17.4037223"><ele>63.0</ele><time>2026-04-11T14:09:21.286Z</time></trkpt><trkpt lat="40.8337813" lon="17.4040476"><ele>62.5</ele><time>2026-04-11T14:09:22.274Z</time></trkpt><trkpt lat="40.8337806" lon="17.4043828"><ele>62.0</ele><time>2026-04-11T14:09:23.287Z</time></trkpt><trkpt lat="40.833779" lon="17.4047055"><ele>61.5</ele><time>2026-04-11T14:09:24.277Z</time></trkpt><trkpt lat="40.8337774" lon="17.4050321"><ele>61.0</ele><time>2026-04-11T14:09:25.25Z</time></trkpt><trkpt lat="40.8337644" lon="17.4053558"><ele>60.5</ele><time>2026-04-11T14:09:26.253Z</time></trkpt><trkpt lat="40.8337525" lon="17.4056883"><ele>60.0</ele><time>2026-04-11T14:09:27.259Z</time></trkpt><trkpt lat="40.8337462" lon="17.4060136"><ele>60.0</ele><time>2026-04-11T14:09:28.254Z</time></trkpt><trkpt lat="40.8337421" lon="17.4063454"><ele>60.0</ele><time>2026-04-11T14:09:29.254Z</time></trkpt><trkpt lat="40.8337355" lon="17.4066799"><ele>60.0</ele><time>2026-04-11T14:09:30.253Z</time></trkpt><trkpt lat="40.8337369" lon="17.4070086"><ele>60.0</ele><time>2026-04-11T14:09:31.326Z</time></trkpt><trkpt lat="40.833733" lon="17.407356"><ele>59.5</ele><time>2026-04-11T14:09:32.282Z</time></trkpt><trkpt lat="40.8337262" lon="17.4076907"><ele>59.0</ele><time>2026-04-11T14:09:33.28Z</time></trkpt><trkpt lat="40.8337196" lon="17.4080305"><ele>59.0</ele><time>2026-04-11T14:09:34.236Z</time></trkpt><trkpt lat="40.8337213" lon="17.408375"><ele>59.0</ele><time>2026-04-11T14:09:35.254Z</time></trkpt><trkpt lat="40.8337178" lon="17.4087253"><ele>58.0</ele><time>2026-04-11T14:09:36.291Z</time></trkpt><trkpt lat="40.833714" lon="17.4090792"><ele>57.0</ele><time>2026-04-11T14:09:37.273Z</time></trkpt><trkpt lat="40.8337158" lon="17.4094281"><ele>56.0</ele><time>2026-04-11T14:09:38.241Z</time></trkpt><trkpt lat="40.8337186" lon="17.4097875"><ele>55.0</ele><time>2026-04-11T14:09:39.275Z</time></trkpt><trkpt lat="40.8337187" lon="17.4101416"><ele>55.0</ele><time>2026-04-11T14:09:40.248Z</time></trkpt><trkpt lat="40.83371" lon="17.4104691"><ele>55.0</ele><time>2026-04-11T14:09:41.281Z</time></trkpt><trkpt lat="40.8337033" lon="17.4108149"><ele>54.5</ele><time>2026-04-11T14:09:42.241Z</time></trkpt><trkpt lat="40.8336979" lon="17.4111508"><ele>54.0</ele><time>2026-04-11T14:09:43.273Z</time></trkpt><trkpt lat="40.8336905" lon="17.4114927"><ele>54.0</ele><time>2026-04-11T14:09:44.239Z</time></trkpt><trkpt lat="40.8336796" lon="17.4118299"><ele>54.0</ele><time>2026-04-11T14:09:45.244Z</time></trkpt><trkpt lat="40.8336592" lon="17.412168"><ele>54.0</ele><time>2026-04-11T14:09:46.246Z</time></trkpt><trkpt lat="40.8336494" lon="17.4125088"><ele>54.0</ele><time>2026-04-11T14:09:47.247Z</time></trkpt><trkpt lat="40.8336336" lon="17.4128427"><ele>52.0</ele><time>2026-04-11T14:09:48.284Z</time></trkpt><trkpt lat="40.8336321" lon="17.4131844"><ele>50.0</ele><time>2026-04-11T14:09:49.29Z</time></trkpt><trkpt lat="40.8336248" lon="17.4135446"><ele>50.0</ele><time>2026-04-11T14:09:50.255Z</time></trkpt><trkpt lat="40.8335866" lon="17.4138812"><ele>50.0</ele><time>2026-04-11T14:09:51.254Z</time></trkpt><trkpt lat="40.833582" lon="17.4142287"><ele>50.0</ele><time>2026-04-11T14:09:52.253Z</time></trkpt><trkpt lat="40.8335818" lon="17.4145807"><ele>50.0</ele><time>2026-04-11T14:09:53.252Z</time></trkpt><trkpt lat="40.8335713" lon="17.4149152"><ele>50.0</ele><time>2026-04-11T14:09:54.252Z</time></trkpt><trkpt lat="40.8335628" lon="17.4152535"><ele>50.0</ele><time>2026-04-11T14:09:55.249Z</time></trkpt><trkpt lat="40.8335581" lon="17.4155958"><ele>50.0</ele><time>2026-04-11T14:09:56.248Z</time></trkpt><trkpt lat="40.8336013" lon="17.4159381"><ele>50.0</ele><time>2026-04-11T14:09:57.287Z</time></trkpt><trkpt lat="40.8335775" lon="17.4162854"><ele>49.5</ele><time>2026-04-11T14:09:58.289Z</time></trkpt><trkpt lat="40.8335893" lon="17.4166417"><ele>49.0</ele><time>2026-04-11T14:09:59.319Z</time></trkpt><trkpt lat="40.8335838" lon="17.4169944"><ele>49.0</ele><time>2026-04-11T14:10:00.239Z</time></trkpt><trkpt lat="40.8335858" lon="17.4173424"><ele>49.0</ele><time>2026-04-11T14:10:01.275Z</time></trkpt><trkpt lat="40.8335656" lon="17.4177025"><ele>49.0</ele><time>2026-04-11T14:10:02.254Z</time></trkpt><trkpt lat="40.8335472" lon="17.4180719"><ele>49.0</ele><time>2026-04-11T14:10:03.286Z</time></trkpt><trkpt lat="40.8335391" lon="17.4184365"><ele>49.0</ele><time>2026-04-11T14:10:04.254Z</time></trkpt><trkpt lat="40.8335316" lon="17.4188157"><ele>49.0</ele><time>2026-04-11T14:10:05.253Z</time></trkpt><trkpt lat="40.8335257" lon="17.4191894"><ele>48.0</ele><time>2026-04-11T14:10:06.328Z</time></trkpt><trkpt lat="40.8335156" lon="17.4195248"><ele>47.0</ele><time>2026-04-11T14:10:07.281Z</time></trkpt><trkpt lat="40.8335022" lon="17.4198598"><ele>47.0</ele><time>2026-04-11T14:10:08.237Z</time></trkpt><trkpt lat="40.8334925" lon="17.4202049"><ele>47.0</ele><time>2026-04-11T14:10:09.243Z</time></trkpt><trkpt lat="40.8334826" lon="17.4205489"><ele>47.0</ele><time>2026-04-11T14:10:10.34Z</time></trkpt><trkpt lat="40.8334753" lon="17.4208609"><ele>47.0</ele><time>2026-04-11T14:10:11.285Z</time></trkpt><trkpt lat="40.8334687" lon="17.4211815"><ele>47.5</ele><time>2026-04-11T14:10:12.251Z</time></trkpt><trkpt lat="40.8334658" lon="17.4214928"><ele>48.0</ele><time>2026-04-11T14:10:13.287Z</time></trkpt><trkpt lat="40.8334593" lon="17.4217972"><ele>48.0</ele><time>2026-04-11T14:10:14.283Z</time></trkpt><trkpt lat="40.8334532" lon="17.4221056"><ele>48.0</ele><time>2026-04-11T14:10:15.237Z</time></trkpt><trkpt lat="40.8334494" lon="17.4224268"><ele>47.5</ele><time>2026-04-11T14:10:16.273Z</time></trkpt><trkpt lat="40.8334432" lon="17.4227402"><ele>47.0</ele><time>2026-04-11T14:10:17.242Z</time></trkpt><trkpt lat="40.8334381" lon="17.4230662"><ele>46.0</ele><time>2026-04-11T14:10:18.255Z</time></trkpt><trkpt lat="40.8334355" lon="17.4233889"><ele>45.0</ele><time>2026-04-11T14:10:19.25Z</time></trkpt><trkpt lat="40.8334282" lon="17.4237166"><ele>45.5</ele><time>2026-04-11T14:10:20.25Z</time></trkpt><trkpt lat="40.8334255" lon="17.4240493"><ele>46.0</ele><time>2026-04-11T14:10:21.255Z</time></trkpt><trkpt lat="40.833412" lon="17.4243547"><ele>46.5</ele><time>2026-04-11T14:10:22.254Z</time></trkpt><trkpt lat="40.8334083" lon="17.4246796"><ele>47.0</ele><time>2026-04-11T14:10:23.256Z</time></trkpt><trkpt lat="40.8334054" lon="17.425007"><ele>47.0</ele><time>2026-04-11T14:10:24.254Z</time></trkpt><trkpt lat="40.8334027" lon="17.4253362"><ele>47.0</ele><time>2026-04-11T14:10:25.255Z</time></trkpt><trkpt lat="40.8333992" lon="17.4256665"><ele>46.0</ele><time>2026-04-11T14:10:26.26Z</time></trkpt><trkpt lat="40.8333928" lon="17.4259825"><ele>45.0</ele><time>2026-04-11T14:10:27.25Z</time></trkpt><trkpt lat="40.8333787" lon="17.4262942"><ele>44.5</ele><time>2026-04-11T14:10:28.256Z</time></trkpt><trkpt lat="40.8333719" lon="17.4265985"><ele>44.0</ele><time>2026-04-11T14:10:29.254Z</time></trkpt><trkpt lat="40.8333593" lon="17.426894"><ele>42.5</ele><time>2026-04-11T14:10:30.258Z</time></trkpt><trkpt lat="40.8333535" lon="17.4271884"><ele>41.0</ele><time>2026-04-11T14:10:31.26Z</time></trkpt><trkpt lat="40.8333494" lon="17.4274916"><ele>41.0</ele><time>2026-04-11T14:10:32.256Z</time></trkpt><trkpt lat="40.8333493" lon="17.4278012"><ele>41.0</ele><time>2026-04-11T14:10:33.258Z</time></trkpt><trkpt lat="40.8333477" lon="17.4281105"><ele>41.0</ele><time>2026-04-11T14:10:34.248Z</time></trkpt><trkpt lat="40.8333415" lon="17.4284204"><ele>41.0</ele><time>2026-04-11T14:10:35.247Z</time></trkpt><trkpt lat="40.8333331" lon="17.428728"><ele>41.5</ele><time>2026-04-11T14:10:36.254Z</time></trkpt><trkpt lat="40.8333269" lon="17.4290331"><ele>42.0</ele><time>2026-04-11T14:10:37.257Z</time></trkpt><trkpt lat="40.8333207" lon="17.4293465"><ele>42.0</ele><time>2026-04-11T14:10:38.256Z</time></trkpt><trkpt lat="40.8333172" lon="17.429666"><ele>42.0</ele><time>2026-04-11T14:10:39.287Z</time></trkpt><trkpt lat="40.8333129" lon="17.4299802"><ele>42.0</ele><time>2026-04-11T14:10:40.24Z</time></trkpt><trkpt lat="40.8333096" lon="17.4303222"><ele>42.0</ele><time>2026-04-11T14:10:41.272Z</time></trkpt><trkpt lat="40.8333039" lon="17.4306488"><ele>42.0</ele><time>2026-04-11T14:10:42.24Z</time></trkpt><trkpt lat="40.8332999" lon="17.4309854"><ele>42.0</ele><time>2026-04-11T14:10:43.239Z</time></trkpt><trkpt lat="40.8332933" lon="17.4313269"><ele>41.5</ele><time>2026-04-11T14:10:44.243Z</time></trkpt><trkpt lat="40.8332785" lon="17.4316701"><ele>41.0</ele><time>2026-04-11T14:10:45.248Z</time></trkpt><trkpt lat="40.8332762" lon="17.4320222"><ele>41.0</ele><time>2026-04-11T14:10:46.281Z</time></trkpt><trkpt lat="40.8332682" lon="17.4323722"><ele>41.0</ele><time>2026-04-11T14:10:47.28Z</time></trkpt><trkpt lat="40.8332618" lon="17.4327172"><ele>40.5</ele><time>2026-04-11T14:10:48.236Z</time></trkpt><trkpt lat="40.8332653" lon="17.4330929"><ele>40.0</ele><time>2026-04-11T14:10:49.281Z</time></trkpt><trkpt lat="40.8332688" lon="17.4334564"><ele>39.5</ele><time>2026-04-11T14:10:50.24Z</time></trkpt><trkpt lat="40.8332727" lon="17.4338544"><ele>39.0</ele><time>2026-04-11T14:10:51.255Z</time></trkpt><trkpt lat="40.8332692" lon="17.4342347"><ele>39.0</ele><time>2026-04-11T14:10:52.253Z</time></trkpt><trkpt lat="40.8332615" lon="17.4346208"><ele>39.0</ele><time>2026-04-11T14:10:53.276Z</time></trkpt><trkpt lat="40.8332541" lon="17.4349894"><ele>38.0</ele><time>2026-04-11T14:10:54.249Z</time></trkpt><trkpt lat="40.8332481" lon="17.4353532"><ele>37.0</ele><time>2026-04-11T14:10:55.252Z</time></trkpt><trkpt lat="40.8332381" lon="17.4357056"><ele>37.0</ele><time>2026-04-11T14:10:56.251Z</time></trkpt><trkpt lat="40.8332205" lon="17.4360505"><ele>37.0</ele><time>2026-04-11T14:10:57.259Z</time></trkpt><trkpt lat="40.8332035" lon="17.436382"><ele>36.0</ele><time>2026-04-11T14:10:58.256Z</time></trkpt><trkpt lat="40.8331928" lon="17.4367009"><ele>35.0</ele><time>2026-04-11T14:10:59.243Z</time></trkpt><trkpt lat="40.8331897" lon="17.4370238"><ele>34.5</ele><time>2026-04-11T14:11:00.25Z</time></trkpt><trkpt lat="40.833197" lon="17.4373457"><ele>34.0</ele><time>2026-04-11T14:11:01.252Z</time></trkpt><trkpt lat="40.8331966" lon="17.4376674"><ele>33.0</ele><time>2026-04-11T14:11:02.251Z</time></trkpt><trkpt lat="40.8331882" lon="17.4379939"><ele>32.0</ele><time>2026-04-11T14:11:03.255Z</time></trkpt><trkpt lat="40.8331793" lon="17.438323"><ele>32.0</ele><time>2026-04-11T14:11:04.257Z</time></trkpt><trkpt lat="40.8331616" lon="17.4386478"><ele>32.0</ele><time>2026-04-11T14:11:05.255Z</time></trkpt><trkpt lat="40.8331587" lon="17.4389847"><ele>32.0</ele><time>2026-04-11T14:11:06.25Z</time></trkpt><trkpt lat="40.833147" lon="17.4393268"><ele>32.0</ele><time>2026-04-11T14:11:07.248Z</time></trkpt><trkpt lat="40.8331276" lon="17.4396777"><ele>32.0</ele><time>2026-04-11T14:11:08.254Z</time></trkpt><trkpt lat="40.8331159" lon="17.4400361"><ele>32.0</ele><time>2026-04-11T14:11:09.323Z</time></trkpt><trkpt lat="40.8331089" lon="17.4403796"><ele>31.5</ele><time>2026-04-11T14:11:10.278Z</time></trkpt><trkpt lat="40.8331023" lon="17.4407313"><ele>31.0</ele><time>2026-04-11T14:11:11.238Z</time></trkpt><trkpt lat="40.8330845" lon="17.4410922"><ele>31.5</ele><time>2026-04-11T14:11:12.243Z</time></trkpt><trkpt lat="40.8330822" lon="17.441455"><ele>32.0</ele><time>2026-04-11T14:11:13.24Z</time></trkpt><trkpt lat="40.8330805" lon="17.4418243"><ele>32.0</ele><time>2026-04-11T14:11:14.279Z</time></trkpt><trkpt lat="40.8330744" lon="17.4421841"><ele>32.0</ele><time>2026-04-11T14:11:15.246Z</time></trkpt><trkpt lat="40.8330683" lon="17.4425534"><ele>32.0</ele><time>2026-04-11T14:11:16.236Z</time></trkpt><trkpt lat="40.8330604" lon="17.4429335"><ele>32.0</ele><time>2026-04-11T14:11:17.279Z</time></trkpt><trkpt lat="40.8330531" lon="17.4433005"><ele>31.0</ele><time>2026-04-11T14:11:18.258Z</time></trkpt><trkpt lat="40.8330395" lon="17.4436759"><ele>30.0</ele><time>2026-04-11T14:11:19.261Z</time></trkpt><trkpt lat="40.8330354" lon="17.4440451"><ele>29.0</ele><time>2026-04-11T14:11:20.254Z</time></trkpt><trkpt lat="40.8330335" lon="17.4444073"><ele>28.0</ele><time>2026-04-11T14:11:21.257Z</time></trkpt><trkpt lat="40.8330346" lon="17.444772"><ele>28.0</ele><time>2026-04-11T14:11:22.254Z</time></trkpt><trkpt lat="40.8330289" lon="17.4451336"><ele>28.0</ele><time>2026-04-11T14:11:23.253Z</time></trkpt><trkpt lat="40.8330201" lon="17.4454944"><ele>27.0</ele><time>2026-04-11T14:11:24.254Z</time></trkpt><trkpt lat="40.8330129" lon="17.4458554"><ele>26.0</ele><time>2026-04-11T14:11:25.256Z</time></trkpt><trkpt lat="40.8330064" lon="17.4462157"><ele>25.5</ele><time>2026-04-11T14:11:26.251Z</time></trkpt><trkpt lat="40.8329976" lon="17.4465808"><ele>25.0</ele><time>2026-04-11T14:11:27.255Z</time></trkpt><trkpt lat="40.8329898" lon="17.4469487"><ele>24.0</ele><time>2026-04-11T14:11:28.254Z</time></trkpt><trkpt lat="40.8329774" lon="17.4473118"><ele>23.0</ele><time>2026-04-11T14:11:29.254Z</time></trkpt><trkpt lat="40.8329697" lon="17.4476662"><ele>23.0</ele><time>2026-04-11T14:11:30.239Z</time></trkpt><trkpt lat="40.8329476" lon="17.4480339"><ele>23.0</ele><time>2026-04-11T14:11:31.284Z</time></trkpt><trkpt lat="40.832934" lon="17.4483793"><ele>23.0</ele><time>2026-04-11T14:11:32.25Z</time></trkpt><trkpt lat="40.8329256" lon="17.4487287"><ele>23.0</ele><time>2026-04-11T14:11:33.243Z</time></trkpt><trkpt lat="40.832917" lon="17.4490761"><ele>22.5</ele><time>2026-04-11T14:11:34.279Z</time></trkpt><trkpt lat="40.8329098" lon="17.4494196"><ele>22.0</ele><time>2026-04-11T14:11:35.24Z</time></trkpt><trkpt lat="40.8328967" lon="17.4497946"><ele>20.5</ele><time>2026-04-11T14:11:36.25Z</time></trkpt><trkpt lat="40.8328859" lon="17.450157"><ele>19.0</ele><time>2026-04-11T14:11:37.251Z</time></trkpt><trkpt lat="40.8328777" lon="17.4505159"><ele>18.5</ele><time>2026-04-11T14:11:38.237Z</time></trkpt><trkpt lat="40.832863" lon="17.4508884"><ele>18.0</ele><time>2026-04-11T14:11:39.252Z</time></trkpt><trkpt lat="40.8328367" lon="17.4512573"><ele>17.5</ele><time>2026-04-11T14:11:40.286Z</time></trkpt><trkpt lat="40.8328153" lon="17.4516105"><ele>17.0</ele><time>2026-04-11T14:11:41.238Z</time></trkpt><trkpt lat="40.8327958" lon="17.4519789"><ele>16.0</ele><time>2026-04-11T14:11:42.246Z</time></trkpt><trkpt lat="40.8327559" lon="17.4523438"><ele>15.0</ele><time>2026-04-11T14:11:43.283Z</time></trkpt><trkpt lat="40.8327296" lon="17.4526916"><ele>15.0</ele><time>2026-04-11T14:11:44.24Z</time></trkpt><trkpt lat="40.8326995" lon="17.4530455"><ele>15.0</ele><time>2026-04-11T14:11:45.243Z</time></trkpt><trkpt lat="40.8326655" lon="17.4533993"><ele>15.0</ele><time>2026-04-11T14:11:46.242Z</time></trkpt><trkpt lat="40.8326126" lon="17.4537576"><ele>15.0</ele><time>2026-04-11T14:11:47.282Z</time></trkpt><trkpt lat="40.8325673" lon="17.4540967"><ele>15.5</ele><time>2026-04-11T14:11:48.256Z</time></trkpt><trkpt lat="40.832515" lon="17.4544369"><ele>16.0</ele><time>2026-04-11T14:11:49.255Z</time></trkpt><trkpt lat="40.8324701" lon="17.4547805"><ele>16.0</ele><time>2026-04-11T14:11:50.253Z</time></trkpt><trkpt lat="40.8324158" lon="17.4551257"><ele>16.0</ele><time>2026-04-11T14:11:51.249Z</time></trkpt><trkpt lat="40.8323565" lon="17.4554734"><ele>14.5</ele><time>2026-04-11T14:11:52.247Z</time></trkpt><trkpt lat="40.8323046" lon="17.455818"><ele>13.0</ele><time>2026-04-11T14:11:53.254Z</time></trkpt><trkpt lat="40.8322441" lon="17.4561541"><ele>13.5</ele><time>2026-04-11T14:11:54.26Z</time></trkpt><trkpt lat="40.8321827" lon="17.4564845"><ele>14.0</ele><time>2026-04-11T14:11:55.249Z</time></trkpt><trkpt lat="40.8321213" lon="17.4568326"><ele>13.5</ele><time>2026-04-11T14:11:56.262Z</time></trkpt><trkpt lat="40.8320361" lon="17.4571718"><ele>13.0</ele><time>2026-04-11T14:11:57.25Z</time></trkpt><trkpt lat="40.8319633" lon="17.4575105"><ele>13.0</ele><time>2026-04-11T14:11:58.284Z</time></trkpt><trkpt lat="40.8318904" lon="17.4578404"><ele>13.0</ele><time>2026-04-11T14:11:59.24Z</time></trkpt><trkpt lat="40.8318064" lon="17.458179"><ele>12.5</ele><time>2026-04-11T14:12:00.245Z</time></trkpt><trkpt lat="40.8317219" lon="17.4585192"><ele>12.0</ele><time>2026-04-11T14:12:01.26Z</time></trkpt><trkpt lat="40.83163" lon="17.4588518"><ele>12.0</ele><time>2026-04-11T14:12:02.246Z</time></trkpt><trkpt lat="40.831539" lon="17.4591804"><ele>12.0</ele><time>2026-04-11T14:12:03.234Z</time></trkpt><trkpt lat="40.8314598" lon="17.4594884"><ele>11.5</ele><time>2026-04-11T14:12:04.248Z</time></trkpt><trkpt lat="40.8313797" lon="17.4597838"><ele>11.0</ele><time>2026-04-11T14:12:05.255Z</time></trkpt><trkpt lat="40.8313072" lon="17.4600639"><ele>11.0</ele><time>2026-04-11T14:12:06.253Z</time></trkpt><trkpt lat="40.8312376" lon="17.4603395"><ele>11.0</ele><time>2026-04-11T14:12:07.262Z</time></trkpt><trkpt lat="40.8311681" lon="17.4606107"><ele>11.0</ele><time>2026-04-11T14:12:08.252Z</time></trkpt><trkpt lat="40.8310938" lon="17.4608795"><ele>11.0</ele><time>2026-04-11T14:12:09.257Z</time></trkpt><trkpt lat="40.8310248" lon="17.4611476"><ele>11.0</ele><time>2026-04-11T14:12:10.251Z</time></trkpt><trkpt lat="40.8309539" lon="17.4614233"><ele>11.0</ele><time>2026-04-11T14:12:11.244Z</time></trkpt><trkpt lat="40.8308813" lon="17.4617002"><ele>12.5</ele><time>2026-04-11T14:12:12.246Z</time></trkpt><trkpt lat="40.830809" lon="17.4619864"><ele>14.0</ele><time>2026-04-11T14:12:13.253Z</time></trkpt><trkpt lat="40.8307224" lon="17.4622856"><ele>14.0</ele><time>2026-04-11T14:12:14.284Z</time></trkpt><trkpt lat="40.8306473" lon="17.4625693"><ele>14.0</ele><time>2026-04-11T14:12:15.24Z</time></trkpt><trkpt lat="40.8305718" lon="17.4628694"><ele>13.333333333333334</ele><time>2026-04-11T14:12:16.352Z</time></trkpt><trkpt lat="40.830498" lon="17.4631341"><ele>12.666666666666668</ele><time>2026-04-11T14:12:17.251Z</time></trkpt><trkpt lat="40.8304194" lon="17.4634218"><ele>12.0</ele><time>2026-04-11T14:12:18.235Z</time></trkpt><trkpt lat="40.8303186" lon="17.4637158"><ele>12.0</ele><time>2026-04-11T14:12:19.283Z</time></trkpt><trkpt lat="40.8302263" lon="17.463995"><ele>12.0</ele><time>2026-04-11T14:12:20.241Z</time></trkpt><trkpt lat="40.8301197" lon="17.4642536"><ele>12.0</ele><time>2026-04-11T14:12:21.248Z</time></trkpt><trkpt lat="40.8300168" lon="17.4645138"><ele>12.0</ele><time>2026-04-11T14:12:22.257Z</time></trkpt><trkpt lat="40.829917" lon="17.4647853"><ele>11.5</ele><time>2026-04-11T14:12:23.257Z</time></trkpt><trkpt lat="40.8298106" lon="17.4650517"><ele>11.0</ele><time>2026-04-11T14:12:24.251Z</time></trkpt><trkpt lat="40.8297062" lon="17.4653106"><ele>11.333333333333332</ele><time>2026-04-11T14:12:25.256Z</time></trkpt><trkpt lat="40.8296041" lon="17.4655562"><ele>11.666666666666666</ele><time>2026-04-11T14:12:26.261Z</time></trkpt><trkpt lat="40.8294789" lon="17.4658078"><ele>12.0</ele><time>2026-04-11T14:12:27.248Z</time></trkpt><trkpt lat="40.8293572" lon="17.4660615"><ele>11.0</ele><time>2026-04-11T14:12:28.247Z</time></trkpt><trkpt lat="40.8292315" lon="17.4663202"><ele>10.0</ele><time>2026-04-11T14:12:29.249Z</time></trkpt><trkpt lat="40.8290929" lon="17.4665916"><ele>10.0</ele><time>2026-04-11T14:12:30.285Z</time></trkpt><trkpt lat="40.828945" lon="17.4668595"><ele>10.0</ele><time>2026-04-11T14:12:31.258Z</time></trkpt><trkpt lat="40.8287929" lon="17.4671367"><ele>10.0</ele><time>2026-04-11T14:12:32.238Z</time></trkpt><trkpt lat="40.8286079" lon="17.4674303"><ele>10.0</ele><time>2026-04-11T14:12:33.244Z</time></trkpt><trkpt lat="40.8284422" lon="17.4677201"><ele>10.5</ele><time>2026-04-11T14:12:34.239Z</time></trkpt><trkpt lat="40.8282738" lon="17.4680222"><ele>11.0</ele><time>2026-04-11T14:12:35.248Z</time></trkpt><trkpt lat="40.8281112" lon="17.4683201"><ele>11.0</ele><time>2026-04-11T14:12:36.243Z</time></trkpt><trkpt lat="40.827948" lon="17.4686113"><ele>11.0</ele><time>2026-04-11T14:12:37.24Z</time></trkpt><trkpt lat="40.8277857" lon="17.4689032"><ele>11.0</ele><time>2026-04-11T14:12:38.238Z</time></trkpt><trkpt lat="40.8276248" lon="17.4691799"><ele>11.0</ele><time>2026-04-11T14:12:39.243Z</time></trkpt><trkpt lat="40.8274658" lon="17.4694622"><ele>10.5</ele><time>2026-04-11T14:12:40.249Z</time></trkpt><trkpt lat="40.8273124" lon="17.4697519"><ele>10.0</ele><time>2026-04-11T14:12:41.283Z</time></trkpt><trkpt lat="40.8271741" lon="17.4700423"><ele>10.0</ele><time>2026-04-11T14:12:42.276Z</time></trkpt><trkpt lat="40.8270393" lon="17.4703328"><ele>10.0</ele><time>2026-04-11T14:12:43.236Z</time></trkpt><trkpt lat="40.8269104" lon="17.4706332"><ele>10.0</ele><time>2026-04-11T14:12:44.25Z</time></trkpt><trkpt lat="40.8267867" lon="17.4709325"><ele>10.0</ele><time>2026-04-11T14:12:45.257Z</time></trkpt><trkpt lat="40.8266619" lon="17.4712285"><ele>9.5</ele><time>2026-04-11T14:12:46.241Z</time></trkpt><trkpt lat="40.8265456" lon="17.4715199"><ele>9.0</ele><time>2026-04-11T14:12:47.282Z</time></trkpt><trkpt lat="40.826437" lon="17.4718153"><ele>8.0</ele><time>2026-04-11T14:12:48.247Z</time></trkpt><trkpt lat="40.8263194" lon="17.4721272"><ele>7.0</ele><time>2026-04-11T14:12:49.253Z</time></trkpt><trkpt lat="40.826221" lon="17.4724365"><ele>7.0</ele><time>2026-04-11T14:12:50.256Z</time></trkpt><trkpt lat="40.8261215" lon="17.4727369"><ele>7.0</ele><time>2026-04-11T14:12:51.257Z</time></trkpt><trkpt lat="40.8260318" lon="17.473043"><ele>8.5</ele><time>2026-04-11T14:12:52.25Z</time></trkpt><trkpt lat="40.8259505" lon="17.473347"><ele>10.0</ele><time>2026-04-11T14:12:53.248Z</time></trkpt><trkpt lat="40.8258731" lon="17.4736526"><ele>10.0</ele><time>2026-04-11T14:12:54.252Z</time></trkpt><trkpt lat="40.8257898" lon="17.4739539"><ele>10.0</ele><time>2026-04-11T14:12:55.253Z</time></trkpt><trkpt lat="40.8257019" lon="17.4742547"><ele>10.0</ele><time>2026-04-11T14:12:56.254Z</time></trkpt><trkpt lat="40.8256152" lon="17.4745488"><ele>10.0</ele><time>2026-04-11T14:12:57.254Z</time></trkpt><trkpt lat="40.8255289" lon="17.4748387"><ele>9.0</ele><time>2026-04-11T14:12:58.259Z</time></trkpt><trkpt lat="40.825443" lon="17.4751265"><ele>8.0</ele><time>2026-04-11T14:12:59.251Z</time></trkpt><trkpt lat="40.8253586" lon="17.4754133"><ele>7.0</ele><time>2026-04-11T14:13:00.247Z</time></trkpt><trkpt lat="40.8252733" lon="17.4756944"><ele>6.0</ele><time>2026-04-11T14:13:01.26Z</time></trkpt><trkpt lat="40.8251958" lon="17.4759742"><ele>6.0</ele><time>2026-04-11T14:13:02.252Z</time></trkpt><trkpt lat="40.8251116" lon="17.4762576"><ele>6.0</ele><time>2026-04-11T14:13:03.251Z</time></trkpt><trkpt lat="40.8250225" lon="17.4765527"><ele>6.0</ele><time>2026-04-11T14:13:04.258Z</time></trkpt><trkpt lat="40.8249358" lon="17.4768476"><ele>6.0</ele><time>2026-04-11T14:13:05.256Z</time></trkpt><trkpt lat="40.8248504" lon="17.4771366"><ele>5.5</ele><time>2026-04-11T14:13:06.257Z</time></trkpt><trkpt lat="40.8247657" lon="17.4774309"><ele>5.0</ele><time>2026-04-11T14:13:07.261Z</time></trkpt><trkpt lat="40.8246834" lon="17.4777293"><ele>6.0</ele><time>2026-04-11T14:13:08.287Z</time></trkpt><trkpt lat="40.8245994" lon="17.4780149"><ele>7.0</ele><time>2026-04-11T14:13:09.239Z</time></trkpt><trkpt lat="40.8245094" lon="17.4783226"><ele>7.0</ele><time>2026-04-11T14:13:10.272Z</time></trkpt><trkpt lat="40.8244258" lon="17.4786131"><ele>7.0</ele><time>2026-04-11T14:13:11.277Z</time></trkpt><trkpt lat="40.8243416" lon="17.4789004"><ele>7.5</ele><time>2026-04-11T14:13:12.236Z</time></trkpt><trkpt lat="40.8242435" lon="17.4791893"><ele>8.0</ele><time>2026-04-11T14:13:13.272Z</time></trkpt><trkpt lat="40.8241563" lon="17.4794749"><ele>8.0</ele><time>2026-04-11T14:13:14.237Z</time></trkpt><trkpt lat="40.8240724" lon="17.4797758"><ele>8.0</ele><time>2026-04-11T14:13:15.237Z</time></trkpt><trkpt lat="40.8239754" lon="17.4800702"><ele>8.0</ele><time>2026-04-11T14:13:16.238Z</time></trkpt><trkpt lat="40.8238903" lon="17.4803706"><ele>8.0</ele><time>2026-04-11T14:13:17.272Z</time></trkpt><trkpt lat="40.8238134" lon="17.4806748"><ele>7.5</ele><time>2026-04-11T14:13:18.25Z</time></trkpt><trkpt lat="40.8237437" lon="17.4809706"><ele>7.0</ele><time>2026-04-11T14:13:19.255Z</time></trkpt><trkpt lat="40.8236805" lon="17.4812589"><ele>7.0</ele><time>2026-04-11T14:13:20.269Z</time></trkpt><trkpt lat="40.8236201" lon="17.481533"><ele>7.0</ele><time>2026-04-11T14:13:21.247Z</time></trkpt><trkpt lat="40.8235559" lon="17.4818184"><ele>7.0</ele><time>2026-04-11T14:13:22.252Z</time></trkpt><trkpt lat="40.8234928" lon="17.482093"><ele>6.666666666666667</ele><time>2026-04-11T14:13:23.251Z</time></trkpt><trkpt lat="40.8234339" lon="17.4823731"><ele>6.333333333333334</ele><time>2026-04-11T14:13:24.253Z</time></trkpt><trkpt lat="40.8233739" lon="17.4826486"><ele>6.0</ele><time>2026-04-11T14:13:25.259Z</time></trkpt><trkpt lat="40.8233178" lon="17.4829264"><ele>6.333333333333334</ele><time>2026-04-11T14:13:26.26Z</time></trkpt><trkpt lat="40.823261" lon="17.483206"><ele>6.666666666666667</ele><time>2026-04-11T14:13:27.256Z</time></trkpt><trkpt lat="40.8232078" lon="17.4834816"><ele>7.0</ele><time>2026-04-11T14:13:28.261Z</time></trkpt><trkpt lat="40.8231556" lon="17.4837578"><ele>7.333333333333334</ele><time>2026-04-11T14:13:29.254Z</time></trkpt><trkpt lat="40.8231017" lon="17.4840318"><ele>7.666666666666666</ele><time>2026-04-11T14:13:30.254Z</time></trkpt><trkpt lat="40.8230484" lon="17.4843073"><ele>8.0</ele><time>2026-04-11T14:13:31.33Z</time></trkpt><trkpt lat="40.8229949" lon="17.4845676"><ele>7.0</ele><time>2026-04-11T14:13:32.241Z</time></trkpt><trkpt lat="40.8229542" lon="17.4848418"><ele>6.0</ele><time>2026-04-11T14:13:33.277Z</time></trkpt><trkpt lat="40.8229073" lon="17.4850996"><ele>5.0</ele><time>2026-04-11T14:13:34.24Z</time></trkpt><trkpt lat="40.8228531" lon="17.485371"><ele>4.333333333333334</ele><time>2026-04-11T14:13:35.273Z</time></trkpt><trkpt lat="40.8227876" lon="17.4856383"><ele>3.666666666666667</ele><time>2026-04-11T14:13:36.258Z</time></trkpt><trkpt lat="40.8227293" lon="17.485903"><ele>3.0</ele><time>2026-04-11T14:13:37.257Z</time></trkpt><trkpt lat="40.8226719" lon="17.4861706"><ele>4.0</ele><time>2026-04-11T14:13:38.248Z</time></trkpt><trkpt lat="40.8226199" lon="17.4864441"><ele>5.0</ele><time>2026-04-11T14:13:39.257Z</time></trkpt><trkpt lat="40.8225643" lon="17.4867247"><ele>6.0</ele><time>2026-04-11T14:13:40.26Z</time></trkpt><trkpt lat="40.8225057" lon="17.4870008"><ele>5.333333333333333</ele><time>2026-04-11T14:13:41.255Z</time></trkpt><trkpt lat="40.822446" lon="17.4872828"><ele>4.666666666666666</ele><time>2026-04-11T14:13:42.277Z</time></trkpt><trkpt lat="40.8223875" lon="17.4875556"><ele>4.0</ele><time>2026-04-11T14:13:43.237Z</time></trkpt><trkpt lat="40.8223337" lon="17.4878277"><ele>3.0</ele><time>2026-04-11T14:13:44.244Z</time></trkpt><trkpt lat="40.8222789" lon="17.4880941"><ele>2.0</ele><time>2026-04-11T14:13:45.245Z</time></trkpt><trkpt lat="40.8222215" lon="17.4883405"><ele>1.0</ele><time>2026-04-11T14:13:46.275Z</time></trkpt><trkpt lat="40.8221577" lon="17.4885817"><ele>1.6666666666666665</ele><time>2026-04-11T14:13:47.243Z</time></trkpt><trkpt lat="40.8220863" lon="17.488823"><ele>2.3333333333333335</ele><time>2026-04-11T14:13:48.273Z</time></trkpt><trkpt lat="40.8220142" lon="17.4890627"><ele>3.0</ele><time>2026-04-11T14:13:49.246Z</time></trkpt><trkpt lat="40.8219415" lon="17.4893163"><ele>3.0</ele><time>2026-04-11T14:13:50.272Z</time></trkpt><trkpt lat="40.8218625" lon="17.4895531"><ele>3.0</ele><time>2026-04-11T14:13:51.236Z</time></trkpt><trkpt lat="40.821778" lon="17.4897729"><ele>3.0</ele><time>2026-04-11T14:13:52.244Z</time></trkpt><trkpt lat="40.821689" lon="17.489983"><ele>3.0</ele><time>2026-04-11T14:13:53.258Z</time></trkpt><trkpt lat="40.8216057" lon="17.490177"><ele>3.0</ele><time>2026-04-11T14:13:54.247Z</time></trkpt><trkpt lat="40.8215299" lon="17.4903691"><ele>3.0</ele><time>2026-04-11T14:13:55.256Z</time></trkpt><trkpt lat="40.8214582" lon="17.4905434"><ele>3.0</ele><time>2026-04-11T14:13:56.254Z</time></trkpt><trkpt lat="40.821389" lon="17.4907032"><ele>3.0</ele><time>2026-04-11T14:13:57.255Z</time></trkpt><trkpt lat="40.8213317" lon="17.4908454"><ele>3.0</ele><time>2026-04-11T14:13:58.256Z</time></trkpt><trkpt lat="40.8212843" lon="17.4909592"><ele>3.0</ele><time>2026-04-11T14:13:59.257Z</time></trkpt><trkpt lat="40.8212375" lon="17.491059"><ele>3.0</ele><time>2026-04-11T14:14:00.251Z</time></trkpt><trkpt lat="40.8211972" lon="17.4911524"><ele>3.0</ele><time>2026-04-11T14:14:01.249Z</time></trkpt><trkpt lat="40.821152" lon="17.4912342"><ele>3.0</ele><time>2026-04-11T14:14:02.284Z</time></trkpt><trkpt lat="40.8210827" lon="17.4913321"><ele>3.0</ele><time>2026-04-11T14:14:04.276Z</time></trkpt><trkpt lat="40.8210175" lon="17.4913781"><ele>3.0</ele><time>2026-04-11T14:14:06.245Z</time></trkpt><trkpt lat="40.820946" lon="17.4914127"><ele>3.0</ele><time>2026-04-11T14:14:09.251Z</time></trkpt><trkpt lat="40.8208844" lon="17.491435"><ele>3.0</ele><time>2026-04-11T14:14:12.28Z</time></trkpt><trkpt lat="40.8208181" lon="17.4914746"><ele>3.0</ele><time>2026-04-11T14:14:18.254Z</time></trkpt><trkpt lat="40.8208028" lon="17.4915563"><ele>3.0</ele><time>2026-04-11T14:14:24.285Z</time></trkpt></trkseg></trk></gpx>